<?xml version="1.0" encoding="utf-8"?>
<gpx xmlns:xsi="http://www.w3.org/2001/XMLSchema-instance" xmlns:xsd="http://www.w3.org/2001/XMLSchema" version="1.1" creator="Shapelink.com" xmlns="http://www.topografix.com/GPX/1/1" xmlns:gpxtpx="http://www.garmin.com/xmlschemas/TrackPointExtension/v1">
  <metadata>
    <name>Längdskidåkning - Klassisk 12.05 km, 2015-02-05</name>
    <desc></desc>
    <author><name>Alexander Engvall</name></author> 
    <time>2015-02-05T14:59:24Z</time>
  </metadata>
  <trk>
    <name>Längdskidåkning - Klassisk 12.05 km, 2015-02-05</name>
    <trkseg>
      <trkpt lat="61.207722949245" lon="14.54350593615">
        <ele>476.6</ele>
        <time>2015-02-05T14:59:24Z</time>
      </trkpt>
      <trkpt lat="61.207603171894" lon="14.543701821153">
        <ele>476</ele>
        <time>2015-02-05T14:59:30Z</time>
      </trkpt>
      <trkpt lat="61.207592945976" lon="14.543763428118">
        <ele>476.2</ele>
        <time>2015-02-05T14:59:31Z</time>
      </trkpt>
      <trkpt lat="61.207530919916" lon="14.544113707719">
        <ele>476.2</ele>
        <time>2015-02-05T14:59:36Z</time>
      </trkpt>
      <trkpt lat="61.207514239935" lon="14.54417481177">
        <ele>476.2</ele>
        <time>2015-02-05T14:59:38Z</time>
      </trkpt>
      <trkpt lat="61.207516000134" lon="14.544172883933">
        <ele>477</ele>
        <time>2015-02-05T14:59:40Z</time>
      </trkpt>
      <trkpt lat="61.207514575211" lon="14.544120161782">
        <ele>477.4</ele>
        <time>2015-02-05T14:59:43Z</time>
      </trkpt>
      <trkpt lat="61.207531590468" lon="14.544049334727">
        <ele>477.2</ele>
        <time>2015-02-05T14:59:45Z</time>
      </trkpt>
      <trkpt lat="61.207574086701" lon="14.543819754486">
        <ele>476.2</ele>
        <time>2015-02-05T14:59:49Z</time>
      </trkpt>
      <trkpt lat="61.207636364218" lon="14.543616325773">
        <ele>475.6</ele>
        <time>2015-02-05T14:59:53Z</time>
      </trkpt>
      <trkpt lat="61.207540810558" lon="14.543853114448">
        <ele>475.8</ele>
        <time>2015-02-05T15:00:19Z</time>
      </trkpt>
      <trkpt lat="61.207510635718" lon="14.544245052092">
        <ele>475.8</ele>
        <time>2015-02-05T15:00:24Z</time>
      </trkpt>
      <trkpt lat="61.207526058414" lon="14.544598768272">
        <ele>476.2</ele>
        <time>2015-02-05T15:00:29Z</time>
      </trkpt>
      <trkpt lat="61.207605686464" lon="14.54496103399">
        <ele>476.4</ele>
        <time>2015-02-05T15:00:34Z</time>
      </trkpt>
      <trkpt lat="61.207683386677" lon="14.545218945053">
        <ele>476.6</ele>
        <time>2015-02-05T15:00:38Z</time>
      </trkpt>
      <trkpt lat="61.207767205677" lon="14.545561764763">
        <ele>476.4</ele>
        <time>2015-02-05T15:00:43Z</time>
      </trkpt>
      <trkpt lat="61.207802074381" lon="14.545835517617">
        <ele>477.2</ele>
        <time>2015-02-05T15:00:47Z</time>
      </trkpt>
      <trkpt lat="61.207807522616" lon="14.545909697432">
        <ele>477.4</ele>
        <time>2015-02-05T15:00:48Z</time>
      </trkpt>
      <trkpt lat="61.207809115177" lon="14.545988487292">
        <ele>477.6</ele>
        <time>2015-02-05T15:00:49Z</time>
      </trkpt>
      <trkpt lat="61.207803666942" lon="14.546288224036">
        <ele>478</ele>
        <time>2015-02-05T15:00:53Z</time>
      </trkpt>
      <trkpt lat="61.20776276327" lon="14.546406157369">
        <ele>478.2</ele>
        <time>2015-02-05T15:00:55Z</time>
      </trkpt>
      <trkpt lat="61.207703084142" lon="14.5464689378">
        <ele>478.6</ele>
        <time>2015-02-05T15:00:57Z</time>
      </trkpt>
      <trkpt lat="61.207578696746" lon="14.546706899941">
        <ele>479.4</ele>
        <time>2015-02-05T15:01:02Z</time>
      </trkpt>
      <trkpt lat="61.207550365924" lon="14.546957854027">
        <ele>479.4</ele>
        <time>2015-02-05T15:01:05Z</time>
      </trkpt>
      <trkpt lat="61.207531758106" lon="14.547268654879">
        <ele>479.2</ele>
        <time>2015-02-05T15:01:09Z</time>
      </trkpt>
      <trkpt lat="61.207536535789" lon="14.547624885629">
        <ele>480</ele>
        <time>2015-02-05T15:01:14Z</time>
      </trkpt>
      <trkpt lat="61.20755573034" lon="14.547887658194">
        <ele>480.2</ele>
        <time>2015-02-05T15:01:18Z</time>
      </trkpt>
      <trkpt lat="61.207591018139" lon="14.54809083545">
        <ele>480.4</ele>
        <time>2015-02-05T15:01:22Z</time>
      </trkpt>
      <trkpt lat="61.207618259314" lon="14.548256377975">
        <ele>480.8</ele>
        <time>2015-02-05T15:01:25Z</time>
      </trkpt>
      <trkpt lat="61.207639130245" lon="14.548441450327">
        <ele>481</ele>
        <time>2015-02-05T15:01:28Z</time>
      </trkpt>
      <trkpt lat="61.207637537684" lon="14.548438265205">
        <ele>481</ele>
        <time>2015-02-05T15:01:29Z</time>
      </trkpt>
      <trkpt lat="61.207662012832" lon="14.548723501262">
        <ele>482</ele>
        <time>2015-02-05T15:01:35Z</time>
      </trkpt>
      <trkpt lat="61.207671232922" lon="14.548797010525">
        <ele>482</ele>
        <time>2015-02-05T15:01:36Z</time>
      </trkpt>
      <trkpt lat="61.207745915651" lon="14.549086102256">
        <ele>482.8</ele>
        <time>2015-02-05T15:01:41Z</time>
      </trkpt>
      <trkpt lat="61.207818670543" lon="14.549303025828">
        <ele>482.6</ele>
        <time>2015-02-05T15:01:45Z</time>
      </trkpt>
      <trkpt lat="61.207899807335" lon="14.549459851177">
        <ele>482.8</ele>
        <time>2015-02-05T15:01:49Z</time>
      </trkpt>
      <trkpt lat="61.207936687695" lon="14.549524391807">
        <ele>483</ele>
        <time>2015-02-05T15:01:51Z</time>
      </trkpt>
      <trkpt lat="61.20798823638" lon="14.549598487803">
        <ele>483.2</ele>
        <time>2015-02-05T15:01:53Z</time>
      </trkpt>
      <trkpt lat="61.208098458365" lon="14.549674846912">
        <ele>483.2</ele>
        <time>2015-02-05T15:01:58Z</time>
      </trkpt>
      <trkpt lat="61.208190575446" lon="14.549679037862">
        <ele>483.8</ele>
        <time>2015-02-05T15:02:02Z</time>
      </trkpt>
      <trkpt lat="61.208225360331" lon="14.549681049518">
        <ele>484</ele>
        <time>2015-02-05T15:02:03Z</time>
      </trkpt>
      <trkpt lat="61.208309095512" lon="14.549719606258">
        <ele>484.6</ele>
        <time>2015-02-05T15:02:06Z</time>
      </trkpt>
      <trkpt lat="61.208360225102" lon="14.549763443595">
        <ele>484.4</ele>
        <time>2015-02-05T15:02:08Z</time>
      </trkpt>
      <trkpt lat="61.208407582837" lon="14.549820189058">
        <ele>484.8</ele>
        <time>2015-02-05T15:02:10Z</time>
      </trkpt>
      <trkpt lat="61.208451168717" lon="14.549904175696">
        <ele>485.2</ele>
        <time>2015-02-05T15:02:12Z</time>
      </trkpt>
      <trkpt lat="61.20849701771" lon="14.550045075435">
        <ele>486</ele>
        <time>2015-02-05T15:02:15Z</time>
      </trkpt>
      <trkpt lat="61.208530461491" lon="14.550141299647">
        <ele>486.4</ele>
        <time>2015-02-05T15:02:17Z</time>
      </trkpt>
      <trkpt lat="61.208552170612" lon="14.55026845307">
        <ele>486.6</ele>
        <time>2015-02-05T15:02:19Z</time>
      </trkpt>
      <trkpt lat="61.208557786485" lon="14.550539356078">
        <ele>486.6</ele>
        <time>2015-02-05T15:02:23Z</time>
      </trkpt>
      <trkpt lat="61.208558959951" lon="14.550648236959">
        <ele>486.8</ele>
        <time>2015-02-05T15:02:25Z</time>
      </trkpt>
      <trkpt lat="61.208568180041" lon="14.550759883867">
        <ele>487</ele>
        <time>2015-02-05T15:02:27Z</time>
      </trkpt>
      <trkpt lat="61.208577232493" lon="14.550827944895">
        <ele>487.4</ele>
        <time>2015-02-05T15:02:29Z</time>
      </trkpt>
      <trkpt lat="61.208596427044" lon="14.550915368112">
        <ele>487.6</ele>
        <time>2015-02-05T15:02:30Z</time>
      </trkpt>
      <trkpt lat="61.208613442301" lon="14.550947638427">
        <ele>487.8</ele>
        <time>2015-02-05T15:02:31Z</time>
      </trkpt>
      <trkpt lat="61.208653172507" lon="14.551028188486">
        <ele>488.2</ele>
        <time>2015-02-05T15:02:33Z</time>
      </trkpt>
      <trkpt lat="61.208689969048" lon="14.551090214546">
        <ele>488.4</ele>
        <time>2015-02-05T15:02:35Z</time>
      </trkpt>
      <trkpt lat="61.208708828323" lon="14.551168417673">
        <ele>488.8</ele>
        <time>2015-02-05T15:02:37Z</time>
      </trkpt>
      <trkpt lat="61.208723412829" lon="14.551268581378">
        <ele>489.4</ele>
        <time>2015-02-05T15:02:39Z</time>
      </trkpt>
      <trkpt lat="61.208726011218" lon="14.551414510257">
        <ele>489.8</ele>
        <time>2015-02-05T15:02:42Z</time>
      </trkpt>
      <trkpt lat="61.20871997625" lon="14.551512913763">
        <ele>490</ele>
        <time>2015-02-05T15:02:44Z</time>
      </trkpt>
      <trkpt lat="61.208697931853" lon="14.551781302201">
        <ele>490.8</ele>
        <time>2015-02-05T15:02:50Z</time>
      </trkpt>
      <trkpt lat="61.208685275184" lon="14.551824888081">
        <ele>490.8</ele>
        <time>2015-02-05T15:02:51Z</time>
      </trkpt>
      <trkpt lat="61.208633391223" lon="14.552021024541">
        <ele>490.8</ele>
        <time>2015-02-05T15:02:54Z</time>
      </trkpt>
      <trkpt lat="61.208560636331" lon="14.552251526791">
        <ele>489.8</ele>
        <time>2015-02-05T15:02:56Z</time>
      </trkpt>
      <trkpt lat="61.208525599989" lon="14.552358563654">
        <ele>489</ele>
        <time>2015-02-05T15:02:57Z</time>
      </trkpt>
      <trkpt lat="61.208490982742" lon="14.55246031992">
        <ele>488.8</ele>
        <time>2015-02-05T15:02:58Z</time>
      </trkpt>
      <trkpt lat="61.208428453768" lon="14.552681769718">
        <ele>487</ele>
        <time>2015-02-05T15:03:00Z</time>
      </trkpt>
      <trkpt lat="61.208357123799" lon="14.552828033873">
        <ele>485.8</ele>
        <time>2015-02-05T15:03:02Z</time>
      </trkpt>
      <trkpt lat="61.208207590703" lon="14.553089213877">
        <ele>485.6</ele>
        <time>2015-02-05T15:03:05Z</time>
      </trkpt>
      <trkpt lat="61.208165848841" lon="14.553192227428">
        <ele>485.2</ele>
        <time>2015-02-05T15:03:06Z</time>
      </trkpt>
      <trkpt lat="61.20807624633" lon="14.553390627001">
        <ele>484.6</ele>
        <time>2015-02-05T15:03:08Z</time>
      </trkpt>
      <trkpt lat="61.207985805629" lon="14.553571089308">
        <ele>483.2</ele>
        <time>2015-02-05T15:03:10Z</time>
      </trkpt>
      <trkpt lat="61.207900645525" lon="14.553783989568">
        <ele>482</ele>
        <time>2015-02-05T15:03:12Z</time>
      </trkpt>
      <trkpt lat="61.207855886179" lon="14.553902341996">
        <ele>480.8</ele>
        <time>2015-02-05T15:03:13Z</time>
      </trkpt>
      <trkpt lat="61.207827471538" lon="14.554041732993">
        <ele>480.4</ele>
        <time>2015-02-05T15:03:14Z</time>
      </trkpt>
      <trkpt lat="61.207883127354" lon="14.554495277602">
        <ele>480.4</ele>
        <time>2015-02-05T15:03:17Z</time>
      </trkpt>
      <trkpt lat="61.207942555025" lon="14.554751596104">
        <ele>480</ele>
        <time>2015-02-05T15:03:19Z</time>
      </trkpt>
      <trkpt lat="61.207957726264" lon="14.554900207191">
        <ele>479</ele>
        <time>2015-02-05T15:03:20Z</time>
      </trkpt>
      <trkpt lat="61.207970131476" lon="14.555027360614">
        <ele>477.6</ele>
        <time>2015-02-05T15:03:21Z</time>
      </trkpt>
      <trkpt lat="61.207983458697" lon="14.555158537349">
        <ele>476</ele>
        <time>2015-02-05T15:03:22Z</time>
      </trkpt>
      <trkpt lat="61.207996869737" lon="14.555305555875">
        <ele>474.6</ele>
        <time>2015-02-05T15:03:23Z</time>
      </trkpt>
      <trkpt lat="61.208032157536" lon="14.555560114178">
        <ele>472.8</ele>
        <time>2015-02-05T15:03:25Z</time>
      </trkpt>
      <trkpt lat="61.208077838891" lon="14.555764883995">
        <ele>472</ele>
        <time>2015-02-05T15:03:27Z</time>
      </trkpt>
      <trkpt lat="61.208096027614" lon="14.555833280299">
        <ele>471.6</ele>
        <time>2015-02-05T15:03:28Z</time>
      </trkpt>
      <trkpt lat="61.208115725079" lon="14.555895725454">
        <ele>471.4</ele>
        <time>2015-02-05T15:03:29Z</time>
      </trkpt>
      <trkpt lat="61.208139781132" lon="14.555972168382">
        <ele>471.6</ele>
        <time>2015-02-05T15:03:31Z</time>
      </trkpt>
      <trkpt lat="61.208122430599" lon="14.555970240545">
        <ele>473.2</ele>
        <time>2015-02-05T15:03:34Z</time>
      </trkpt>
      <trkpt lat="61.208106672627" lon="14.555939478972">
        <ele>473.6</ele>
        <time>2015-02-05T15:03:35Z</time>
      </trkpt>
      <trkpt lat="61.208065433679" lon="14.55579380155">
        <ele>473.4</ele>
        <time>2015-02-05T15:03:39Z</time>
      </trkpt>
      <trkpt lat="61.208057889969" lon="14.555765470728">
        <ele>473.4</ele>
        <time>2015-02-05T15:03:40Z</time>
      </trkpt>
      <trkpt lat="61.208051268268" lon="14.555765806004">
        <ele>473.2</ele>
        <time>2015-02-05T15:03:41Z</time>
      </trkpt>
      <trkpt lat="61.208016148107" lon="14.555798495414">
        <ele>473</ele>
        <time>2015-02-05T15:03:43Z</time>
      </trkpt>
      <trkpt lat="61.207942890301" lon="14.555838644715">
        <ele>473</ele>
        <time>2015-02-05T15:03:45Z</time>
      </trkpt>
      <trkpt lat="61.207852617238" lon="14.555871585582">
        <ele>472.6</ele>
        <time>2015-02-05T15:03:47Z</time>
      </trkpt>
      <trkpt lat="61.207805678598" lon="14.555891283047">
        <ele>472.2</ele>
        <time>2015-02-05T15:03:48Z</time>
      </trkpt>
      <trkpt lat="61.207666036144" lon="14.556008713466">
        <ele>471.2</ele>
        <time>2015-02-05T15:03:51Z</time>
      </trkpt>
      <trkpt lat="61.20762362373" lon="14.556078953788">
        <ele>471</ele>
        <time>2015-02-05T15:03:52Z</time>
      </trkpt>
      <trkpt lat="61.207603926265" lon="14.556210046704">
        <ele>470.6</ele>
        <time>2015-02-05T15:03:53Z</time>
      </trkpt>
      <trkpt lat="61.207543325128" lon="14.556434011072">
        <ele>469</ele>
        <time>2015-02-05T15:03:55Z</time>
      </trkpt>
      <trkpt lat="61.207511725365" lon="14.556542975772">
        <ele>468</ele>
        <time>2015-02-05T15:03:56Z</time>
      </trkpt>
      <trkpt lat="61.207478533041" lon="14.556654706499">
        <ele>466.8</ele>
        <time>2015-02-05T15:03:57Z</time>
      </trkpt>
      <trkpt lat="61.207448777296" lon="14.556763671199">
        <ele>465.4</ele>
        <time>2015-02-05T15:03:58Z</time>
      </trkpt>
      <trkpt lat="61.207416339343" lon="14.556880347247">
        <ele>464.2</ele>
        <time>2015-02-05T15:03:59Z</time>
      </trkpt>
      <trkpt lat="61.207378536974" lon="14.556991072146">
        <ele>463.2</ele>
        <time>2015-02-05T15:04:00Z</time>
      </trkpt>
      <trkpt lat="61.207343919727" lon="14.557097857552">
        <ele>462.2</ele>
        <time>2015-02-05T15:04:01Z</time>
      </trkpt>
      <trkpt lat="61.207311984688" lon="14.557216126161">
        <ele>461.4</ele>
        <time>2015-02-05T15:04:02Z</time>
      </trkpt>
      <trkpt lat="61.207247108782" lon="14.557750304648">
        <ele>460</ele>
        <time>2015-02-05T15:04:06Z</time>
      </trkpt>
      <trkpt lat="61.20723554176" lon="14.5579772865">
        <ele>459.6</ele>
        <time>2015-02-05T15:04:08Z</time>
      </trkpt>
      <trkpt lat="61.207215173743" lon="14.558060937862">
        <ele>459.8</ele>
        <time>2015-02-05T15:04:09Z</time>
      </trkpt>
      <trkpt lat="61.2070813148" lon="14.558218769039">
        <ele>458.6</ele>
        <time>2015-02-05T15:04:12Z</time>
      </trkpt>
      <trkpt lat="61.206970506082" lon="14.55826059472">
        <ele>457.6</ele>
        <time>2015-02-05T15:04:14Z</time>
      </trkpt>
      <trkpt lat="61.206910910773" lon="14.558257996331">
        <ele>456.8</ele>
        <time>2015-02-05T15:04:15Z</time>
      </trkpt>
      <trkpt lat="61.206851315464" lon="14.55824718368">
        <ele>456.2</ele>
        <time>2015-02-05T15:04:16Z</time>
      </trkpt>
      <trkpt lat="61.206787613024" lon="14.558238382685">
        <ele>455.4</ele>
        <time>2015-02-05T15:04:17Z</time>
      </trkpt>
      <trkpt lat="61.206676301392" lon="14.558220948333">
        <ele>454.2</ele>
        <time>2015-02-05T15:04:19Z</time>
      </trkpt>
      <trkpt lat="61.20656918071" lon="14.558219355772">
        <ele>453</ele>
        <time>2015-02-05T15:04:21Z</time>
      </trkpt>
      <trkpt lat="61.206346725084" lon="14.558223295265">
        <ele>452.6</ele>
        <time>2015-02-05T15:04:25Z</time>
      </trkpt>
      <trkpt lat="61.206289141431" lon="14.558228408224">
        <ele>452.2</ele>
        <time>2015-02-05T15:04:26Z</time>
      </trkpt>
      <trkpt lat="61.206116641929" lon="14.558255062666">
        <ele>452</ele>
        <time>2015-02-05T15:04:29Z</time>
      </trkpt>
      <trkpt lat="61.206052101299" lon="14.558252296639">
        <ele>451.8</ele>
        <time>2015-02-05T15:04:30Z</time>
      </trkpt>
      <trkpt lat="61.205996194026" lon="14.558239472332">
        <ele>451.4</ele>
        <time>2015-02-05T15:04:31Z</time>
      </trkpt>
      <trkpt lat="61.205871387535" lon="14.558204771266">
        <ele>450.6</ele>
        <time>2015-02-05T15:04:33Z</time>
      </trkpt>
      <trkpt lat="61.205732415633" lon="14.558178368281">
        <ele>448.4</ele>
        <time>2015-02-05T15:04:35Z</time>
      </trkpt>
      <trkpt lat="61.205659912198" lon="14.558156742979">
        <ele>447.2</ele>
        <time>2015-02-05T15:04:36Z</time>
      </trkpt>
      <trkpt lat="61.205582379623" lon="14.558138302799">
        <ele>445.8</ele>
        <time>2015-02-05T15:04:37Z</time>
      </trkpt>
      <trkpt lat="61.205505852876" lon="14.558124305026">
        <ele>443.6</ele>
        <time>2015-02-05T15:04:38Z</time>
      </trkpt>
      <trkpt lat="61.205432427432" lon="14.558110726348">
        <ele>442.2</ele>
        <time>2015-02-05T15:04:39Z</time>
      </trkpt>
      <trkpt lat="61.205357660884" lon="14.558103937009">
        <ele>441.2</ele>
        <time>2015-02-05T15:04:40Z</time>
      </trkpt>
      <trkpt lat="61.205280966499" lon="14.558097818222">
        <ele>440.4</ele>
        <time>2015-02-05T15:04:41Z</time>
      </trkpt>
      <trkpt lat="61.205057421226" lon="14.558047778279">
        <ele>440</ele>
        <time>2015-02-05T15:04:44Z</time>
      </trkpt>
      <trkpt lat="61.204913839279" lon="14.558017603439">
        <ele>440.2</ele>
        <time>2015-02-05T15:04:46Z</time>
      </trkpt>
      <trkpt lat="61.204857429092" lon="14.55802841609">
        <ele>439.8</ele>
        <time>2015-02-05T15:04:47Z</time>
      </trkpt>
      <trkpt lat="61.204780147974" lon="14.55796974279">
        <ele>439.4</ele>
        <time>2015-02-05T15:04:49Z</time>
      </trkpt>
      <trkpt lat="61.204746033641" lon="14.557831357621">
        <ele>438.6</ele>
        <time>2015-02-05T15:04:51Z</time>
      </trkpt>
      <trkpt lat="61.204734718076" lon="14.557775450348">
        <ele>437.8</ele>
        <time>2015-02-05T15:04:52Z</time>
      </trkpt>
      <trkpt lat="61.20472683909" lon="14.557711831727">
        <ele>437.4</ele>
        <time>2015-02-05T15:04:53Z</time>
      </trkpt>
      <trkpt lat="61.204712170765" lon="14.557568668875">
        <ele>436.2</ele>
        <time>2015-02-05T15:04:55Z</time>
      </trkpt>
      <trkpt lat="61.204712254584" lon="14.557498931467">
        <ele>435.8</ele>
        <time>2015-02-05T15:04:56Z</time>
      </trkpt>
      <trkpt lat="61.204657772234" lon="14.557308829975">
        <ele>435.4</ele>
        <time>2015-02-05T15:04:59Z</time>
      </trkpt>
      <trkpt lat="61.204579233831" lon="14.557241020404">
        <ele>435</ele>
        <time>2015-02-05T15:05:01Z</time>
      </trkpt>
      <trkpt lat="61.204474124805" lon="14.557216461437">
        <ele>434.4</ele>
        <time>2015-02-05T15:05:03Z</time>
      </trkpt>
      <trkpt lat="61.204424755414" lon="14.557217634903">
        <ele>434</ele>
        <time>2015-02-05T15:05:04Z</time>
      </trkpt>
      <trkpt lat="61.204360214784" lon="14.557247642105">
        <ele>433.2</ele>
        <time>2015-02-05T15:05:05Z</time>
      </trkpt>
      <trkpt lat="61.204303972235" lon="14.557293826374">
        <ele>432.2</ele>
        <time>2015-02-05T15:05:06Z</time>
      </trkpt>
      <trkpt lat="61.204207915661" lon="14.557417543218">
        <ele>431.2</ele>
        <time>2015-02-05T15:05:08Z</time>
      </trkpt>
      <trkpt lat="61.204163072496" lon="14.557446796049">
        <ele>430.8</ele>
        <time>2015-02-05T15:05:09Z</time>
      </trkpt>
      <trkpt lat="61.204066261551" lon="14.557505720806">
        <ele>429.8</ele>
        <time>2015-02-05T15:05:11Z</time>
      </trkpt>
      <trkpt lat="61.204022927128" lon="14.557561879536">
        <ele>429.4</ele>
        <time>2015-02-05T15:05:12Z</time>
      </trkpt>
      <trkpt lat="61.203948076761" lon="14.557677968851">
        <ele>429.6</ele>
        <time>2015-02-05T15:05:14Z</time>
      </trkpt>
      <trkpt lat="61.20387691443" lon="14.557804367903">
        <ele>428.2</ele>
        <time>2015-02-05T15:05:16Z</time>
      </trkpt>
      <trkpt lat="61.203741462926" lon="14.557912829689">
        <ele>427</ele>
        <time>2015-02-05T15:05:19Z</time>
      </trkpt>
      <trkpt lat="61.2036866453" lon="14.557968653143">
        <ele>426.8</ele>
        <time>2015-02-05T15:05:20Z</time>
      </trkpt>
      <trkpt lat="61.203633252597" lon="14.558124975578">
        <ele>426.6</ele>
        <time>2015-02-05T15:05:22Z</time>
      </trkpt>
      <trkpt lat="61.203596372237" lon="14.558255062666">
        <ele>426.2</ele>
        <time>2015-02-05T15:05:24Z</time>
      </trkpt>
      <trkpt lat="61.203562760818" lon="14.558320776762">
        <ele>425.8</ele>
        <time>2015-02-05T15:05:25Z</time>
      </trkpt>
      <trkpt lat="61.203520851318" lon="14.5583628539">
        <ele>425.6</ele>
        <time>2015-02-05T15:05:26Z</time>
      </trkpt>
      <trkpt lat="61.203430829712" lon="14.558343407892">
        <ele>424.6</ele>
        <time>2015-02-05T15:05:28Z</time>
      </trkpt>
      <trkpt lat="61.20338573509" lon="14.558282806755">
        <ele>424.2</ele>
        <time>2015-02-05T15:05:29Z</time>
      </trkpt>
      <trkpt lat="61.203343909409" lon="14.558192282235">
        <ele>423.6</ele>
        <time>2015-02-05T15:05:30Z</time>
      </trkpt>
      <trkpt lat="61.203308118696" lon="14.558106535398">
        <ele>423.2</ele>
        <time>2015-02-05T15:05:31Z</time>
      </trkpt>
      <trkpt lat="61.203229245017" lon="14.557935209362">
        <ele>422.2</ele>
        <time>2015-02-05T15:05:33Z</time>
      </trkpt>
      <trkpt lat="61.203191777924" lon="14.557879637365">
        <ele>421.4</ele>
        <time>2015-02-05T15:05:34Z</time>
      </trkpt>
      <trkpt lat="61.203142576171" lon="14.557831273802">
        <ele>421</ele>
        <time>2015-02-05T15:05:35Z</time>
      </trkpt>
      <trkpt lat="61.203098571196" lon="14.557820964065">
        <ele>420.8</ele>
        <time>2015-02-05T15:05:36Z</time>
      </trkpt>
      <trkpt lat="61.203016009481" lon="14.55799237392">
        <ele>419.6</ele>
        <time>2015-02-05T15:05:39Z</time>
      </trkpt>
      <trkpt lat="61.20295574362" lon="14.558345084272">
        <ele>419.2</ele>
        <time>2015-02-05T15:05:43Z</time>
      </trkpt>
      <trkpt lat="61.202941662028" lon="14.558602324783">
        <ele>419.6</ele>
        <time>2015-02-05T15:05:47Z</time>
      </trkpt>
      <trkpt lat="61.202969657574" lon="14.558674241485">
        <ele>419.8</ele>
        <time>2015-02-05T15:05:48Z</time>
      </trkpt>
      <trkpt lat="61.202998072215" lon="14.558711960035">
        <ele>419.8</ele>
        <time>2015-02-05T15:05:49Z</time>
      </trkpt>
      <trkpt lat="61.203018859327" lon="14.55873249569">
        <ele>419.8</ele>
        <time>2015-02-05T15:05:50Z</time>
      </trkpt>
      <trkpt lat="61.203027660322" lon="14.55875261225">
        <ele>419.2</ele>
        <time>2015-02-05T15:05:52Z</time>
      </trkpt>
      <trkpt lat="61.203030426349" lon="14.558763341082">
        <ele>419.4</ele>
        <time>2015-02-05T15:05:53Z</time>
      </trkpt>
      <trkpt lat="61.203033360014" lon="14.558789744067">
        <ele>419.2</ele>
        <time>2015-02-05T15:05:54Z</time>
      </trkpt>
      <trkpt lat="61.203054901497" lon="14.558958052619">
        <ele>420</ele>
        <time>2015-02-05T15:05:58Z</time>
      </trkpt>
      <trkpt lat="61.203067055252" lon="14.559010271856">
        <ele>420.4</ele>
        <time>2015-02-05T15:05:59Z</time>
      </trkpt>
      <trkpt lat="61.203097313911" lon="14.55910716662">
        <ele>420.8</ele>
        <time>2015-02-05T15:06:01Z</time>
      </trkpt>
      <trkpt lat="61.203108378019" lon="14.559166510472">
        <ele>421</ele>
        <time>2015-02-05T15:06:02Z</time>
      </trkpt>
      <trkpt lat="61.203117849566" lon="14.559243623952">
        <ele>421.2</ele>
        <time>2015-02-05T15:06:03Z</time>
      </trkpt>
      <trkpt lat="61.203136708841" lon="14.559373040488">
        <ele>421</ele>
        <time>2015-02-05T15:06:05Z</time>
      </trkpt>
      <trkpt lat="61.203127404932" lon="14.55943489891">
        <ele>421</ele>
        <time>2015-02-05T15:06:06Z</time>
      </trkpt>
      <trkpt lat="61.203010561246" lon="14.559642099478">
        <ele>420</ele>
        <time>2015-02-05T15:06:09Z</time>
      </trkpt>
      <trkpt lat="61.202921713106" lon="14.559799846836">
        <ele>419.8</ele>
        <time>2015-02-05T15:06:11Z</time>
      </trkpt>
      <trkpt lat="61.202870751154" lon="14.559872769366">
        <ele>419.6</ele>
        <time>2015-02-05T15:06:12Z</time>
      </trkpt>
      <trkpt lat="61.202817693727" lon="14.559920546196">
        <ele>419.2</ele>
        <time>2015-02-05T15:06:13Z</time>
      </trkpt>
      <trkpt lat="61.202750051794" lon="14.559942171498">
        <ele>418.6</ele>
        <time>2015-02-05T15:06:14Z</time>
      </trkpt>
      <trkpt lat="61.202678218911" lon="14.559951978321">
        <ele>417.4</ele>
        <time>2015-02-05T15:06:15Z</time>
      </trkpt>
      <trkpt lat="61.202615354661" lon="14.559958516203">
        <ele>417</ele>
        <time>2015-02-05T15:06:16Z</time>
      </trkpt>
      <trkpt lat="61.202542935045" lon="14.559954241434">
        <ele>415.2</ele>
        <time>2015-02-05T15:06:17Z</time>
      </trkpt>
      <trkpt lat="61.202415613984" lon="14.559911409925">
        <ele>413.4</ele>
        <time>2015-02-05T15:06:19Z</time>
      </trkpt>
      <trkpt lat="61.202344200196" lon="14.559860531792">
        <ele>412.6</ele>
        <time>2015-02-05T15:06:20Z</time>
      </trkpt>
      <trkpt lat="61.2022784861" lon="14.559784340321">
        <ele>411.8</ele>
        <time>2015-02-05T15:06:21Z</time>
      </trkpt>
      <trkpt lat="61.202230290175" lon="14.559706053375">
        <ele>410.8</ele>
        <time>2015-02-05T15:06:22Z</time>
      </trkpt>
      <trkpt lat="61.202184692639" lon="14.559623072565">
        <ele>409.4</ele>
        <time>2015-02-05T15:06:23Z</time>
      </trkpt>
      <trkpt lat="61.202153931066" lon="14.559588706775">
        <ele>408.6</ele>
        <time>2015-02-05T15:06:24Z</time>
      </trkpt>
      <trkpt lat="61.202127779538" lon="14.559596334304">
        <ele>408.2</ele>
        <time>2015-02-05T15:06:25Z</time>
      </trkpt>
      <trkpt lat="61.202049073497" lon="14.55966875392">
        <ele>409.8</ele>
        <time>2015-02-05T15:06:28Z</time>
      </trkpt>
      <trkpt lat="61.202004733246" lon="14.559727008125">
        <ele>410.8</ele>
        <time>2015-02-05T15:06:30Z</time>
      </trkpt>
      <trkpt lat="61.201949496525" lon="14.559765816322">
        <ele>411</ele>
        <time>2015-02-05T15:06:32Z</time>
      </trkpt>
      <trkpt lat="61.201853356132" lon="14.559749136341">
        <ele>411</ele>
        <time>2015-02-05T15:06:35Z</time>
      </trkpt>
      <trkpt lat="61.201754282074" lon="14.559602704548">
        <ele>411.6</ele>
        <time>2015-02-05T15:06:39Z</time>
      </trkpt>
      <trkpt lat="61.201618243837" lon="14.559472282184">
        <ele>412</ele>
        <time>2015-02-05T15:06:43Z</time>
      </trkpt>
      <trkpt lat="61.20142520868" lon="14.559337417413">
        <ele>411.6</ele>
        <time>2015-02-05T15:06:47Z</time>
      </trkpt>
      <trkpt lat="61.201388412139" lon="14.55928737747">
        <ele>411.6</ele>
        <time>2015-02-05T15:06:48Z</time>
      </trkpt>
      <trkpt lat="61.201296797972" lon="14.559189979792">
        <ele>411.4</ele>
        <time>2015-02-05T15:06:50Z</time>
      </trkpt>
      <trkpt lat="61.201224378356" lon="14.559028125303">
        <ele>411</ele>
        <time>2015-02-05T15:06:52Z</time>
      </trkpt>
      <trkpt lat="61.201186156892" lon="14.558988227459">
        <ele>410.8</ele>
        <time>2015-02-05T15:06:53Z</time>
      </trkpt>
      <trkpt lat="61.201070821948" lon="14.558961237741">
        <ele>409.8</ele>
        <time>2015-02-05T15:06:56Z</time>
      </trkpt>
      <trkpt lat="61.201034863597" lon="14.558977079532">
        <ele>409.4</ele>
        <time>2015-02-05T15:06:57Z</time>
      </trkpt>
      <trkpt lat="61.200938555566" lon="14.558998369558">
        <ele>409.2</ele>
        <time>2015-02-05T15:06:59Z</time>
      </trkpt>
      <trkpt lat="61.200820286957" lon="14.558975151695">
        <ele>408.6</ele>
        <time>2015-02-05T15:07:02Z</time>
      </trkpt>
      <trkpt lat="61.200783071321" lon="14.558984036509">
        <ele>408.4</ele>
        <time>2015-02-05T15:07:03Z</time>
      </trkpt>
      <trkpt lat="61.200725487668" lon="14.55912728318">
        <ele>408.6</ele>
        <time>2015-02-05T15:07:06Z</time>
      </trkpt>
      <trkpt lat="61.200589868526" lon="14.559286371642">
        <ele>408.2</ele>
        <time>2015-02-05T15:07:09Z</time>
      </trkpt>
      <trkpt lat="61.200558855496" lon="14.559312020256">
        <ele>407.2</ele>
        <time>2015-02-05T15:07:10Z</time>
      </trkpt>
      <trkpt lat="61.200505378974" lon="14.55942316425">
        <ele>406.6</ele>
        <time>2015-02-05T15:07:12Z</time>
      </trkpt>
      <trkpt lat="61.20047386303" lon="14.559559705401">
        <ele>406.2</ele>
        <time>2015-02-05T15:07:14Z</time>
      </trkpt>
      <trkpt lat="61.200460284352" lon="14.55969976695">
        <ele>406.6</ele>
        <time>2015-02-05T15:07:16Z</time>
      </trkpt>
      <trkpt lat="61.200452992099" lon="14.560051555293">
        <ele>407.2</ele>
        <time>2015-02-05T15:07:20Z</time>
      </trkpt>
      <trkpt lat="61.200437904679" lon="14.56043234501">
        <ele>405.4</ele>
        <time>2015-02-05T15:07:23Z</time>
      </trkpt>
      <trkpt lat="61.200454165565" lon="14.560451791018">
        <ele>403.8</ele>
        <time>2015-02-05T15:07:24Z</time>
      </trkpt>
      <trkpt lat="61.200477551066" lon="14.560525467919">
        <ele>403.4</ele>
        <time>2015-02-05T15:07:26Z</time>
      </trkpt>
      <trkpt lat="61.200532620149" lon="14.560658069577">
        <ele>404.2</ele>
        <time>2015-02-05T15:07:29Z</time>
      </trkpt>
      <trkpt lat="61.200557179116" lon="14.560747420631">
        <ele>405.2</ele>
        <time>2015-02-05T15:07:30Z</time>
      </trkpt>
      <trkpt lat="61.200573272364" lon="14.560849009259">
        <ele>405</ele>
        <time>2015-02-05T15:07:31Z</time>
      </trkpt>
      <trkpt lat="61.2005853423" lon="14.560955291751">
        <ele>404.8</ele>
        <time>2015-02-05T15:07:32Z</time>
      </trkpt>
      <trkpt lat="61.200591377268" lon="14.561152853134">
        <ele>403.6</ele>
        <time>2015-02-05T15:07:34Z</time>
      </trkpt>
      <trkpt lat="61.200566566844" lon="14.561243042378">
        <ele>402.4</ele>
        <time>2015-02-05T15:07:35Z</time>
      </trkpt>
      <trkpt lat="61.200560783333" lon="14.561322586609">
        <ele>402</ele>
        <time>2015-02-05T15:07:36Z</time>
      </trkpt>
      <trkpt lat="61.200560950971" lon="14.561467761117">
        <ele>401.4</ele>
        <time>2015-02-05T15:07:38Z</time>
      </trkpt>
      <trkpt lat="61.20058618049" lon="14.561513023377">
        <ele>401.4</ele>
        <time>2015-02-05T15:07:39Z</time>
      </trkpt>
      <trkpt lat="61.200624988687" lon="14.56156138694">
        <ele>401.4</ele>
        <time>2015-02-05T15:07:40Z</time>
      </trkpt>
      <trkpt lat="61.200687517661" lon="14.561683930318">
        <ele>402</ele>
        <time>2015-02-05T15:07:44Z</time>
      </trkpt>
      <trkpt lat="61.20069598338" lon="14.561718463746">
        <ele>402.2</ele>
        <time>2015-02-05T15:07:45Z</time>
      </trkpt>
      <trkpt lat="61.200712495723" lon="14.561753751545">
        <ele>402.4</ele>
        <time>2015-02-05T15:07:46Z</time>
      </trkpt>
      <trkpt lat="61.200778461276" lon="14.56192348502">
        <ele>403.2</ele>
        <time>2015-02-05T15:07:50Z</time>
      </trkpt>
      <trkpt lat="61.200782484588" lon="14.561969417832">
        <ele>403.4</ele>
        <time>2015-02-05T15:07:51Z</time>
      </trkpt>
      <trkpt lat="61.200786088805" lon="14.562014260997">
        <ele>403.6</ele>
        <time>2015-02-05T15:07:52Z</time>
      </trkpt>
      <trkpt lat="61.200793381058" lon="14.562176115486">
        <ele>404.2</ele>
        <time>2015-02-05T15:07:54Z</time>
      </trkpt>
      <trkpt lat="61.20080410989" lon="14.562295306104">
        <ele>404.6</ele>
        <time>2015-02-05T15:07:56Z</time>
      </trkpt>
      <trkpt lat="61.200805702451" lon="14.562360349648">
        <ele>404.8</ele>
        <time>2015-02-05T15:07:57Z</time>
      </trkpt>
      <trkpt lat="61.200827830667" lon="14.56250854164">
        <ele>405</ele>
        <time>2015-02-05T15:07:59Z</time>
      </trkpt>
      <trkpt lat="61.200882145379" lon="14.562781372485">
        <ele>405.4</ele>
        <time>2015-02-05T15:08:04Z</time>
      </trkpt>
      <trkpt lat="61.200905027966" lon="14.562902574759">
        <ele>405.6</ele>
        <time>2015-02-05T15:08:06Z</time>
      </trkpt>
      <trkpt lat="61.200926737087" lon="14.562983208637">
        <ele>406.2</ele>
        <time>2015-02-05T15:08:08Z</time>
      </trkpt>
      <trkpt lat="61.200964371818" lon="14.563123018729">
        <ele>407</ele>
        <time>2015-02-05T15:08:11Z</time>
      </trkpt>
      <trkpt lat="61.201008460612" lon="14.563177920174">
        <ele>407.4</ele>
        <time>2015-02-05T15:08:13Z</time>
      </trkpt>
      <trkpt lat="61.201088591576" lon="14.563249753057">
        <ele>407.8</ele>
        <time>2015-02-05T15:08:17Z</time>
      </trkpt>
      <trkpt lat="61.201130333438" lon="14.563264421382">
        <ele>408</ele>
        <time>2015-02-05T15:08:19Z</time>
      </trkpt>
      <trkpt lat="61.201192359498" lon="14.563313371678">
        <ele>408.4</ele>
        <time>2015-02-05T15:08:22Z</time>
      </trkpt>
      <trkpt lat="61.201259666155" lon="14.56343138883">
        <ele>409</ele>
        <time>2015-02-05T15:08:26Z</time>
      </trkpt>
      <trkpt lat="61.201269053883" lon="14.563476483452">
        <ele>409.4</ele>
        <time>2015-02-05T15:08:27Z</time>
      </trkpt>
      <trkpt lat="61.201277184326" lon="14.563507747939">
        <ele>409.6</ele>
        <time>2015-02-05T15:08:28Z</time>
      </trkpt>
      <trkpt lat="61.201325631708" lon="14.563646468384">
        <ele>410.4</ele>
        <time>2015-02-05T15:08:32Z</time>
      </trkpt>
      <trkpt lat="61.201367289751" lon="14.563733221049">
        <ele>410.8</ele>
        <time>2015-02-05T15:08:34Z</time>
      </trkpt>
      <trkpt lat="61.201384388827" lon="14.56380773614">
        <ele>411.4</ele>
        <time>2015-02-05T15:08:37Z</time>
      </trkpt>
      <trkpt lat="61.201401906998" lon="14.563821314818">
        <ele>411.6</ele>
        <time>2015-02-05T15:08:38Z</time>
      </trkpt>
      <trkpt lat="61.201413809296" lon="14.563854842418">
        <ele>412.4</ele>
        <time>2015-02-05T15:08:40Z</time>
      </trkpt>
      <trkpt lat="61.201453455683" lon="14.563972105199">
        <ele>413.8</ele>
        <time>2015-02-05T15:08:43Z</time>
      </trkpt>
      <trkpt lat="61.201518080132" lon="14.564061540072">
        <ele>414.2</ele>
        <time>2015-02-05T15:08:46Z</time>
      </trkpt>
      <trkpt lat="61.201553954664" lon="14.564129265824">
        <ele>414.2</ele>
        <time>2015-02-05T15:08:48Z</time>
      </trkpt>
      <trkpt lat="61.20156434822" lon="14.564182909984">
        <ele>414.8</ele>
        <time>2015-02-05T15:08:51Z</time>
      </trkpt>
      <trkpt lat="61.201605503349" lon="14.56425952055">
        <ele>415.6</ele>
        <time>2015-02-05T15:08:54Z</time>
      </trkpt>
      <trkpt lat="61.201616064543" lon="14.564313919081">
        <ele>416</ele>
        <time>2015-02-05T15:08:55Z</time>
      </trkpt>
      <trkpt lat="61.201661494441" lon="14.564458423037">
        <ele>416.4</ele>
        <time>2015-02-05T15:08:58Z</time>
      </trkpt>
      <trkpt lat="61.201644563003" lon="14.564714992996">
        <ele>416</ele>
        <time>2015-02-05T15:09:01Z</time>
      </trkpt>
      <trkpt lat="61.201637857483" lon="14.564823538601">
        <ele>415.6</ele>
        <time>2015-02-05T15:09:02Z</time>
      </trkpt>
      <trkpt lat="61.201593433413" lon="14.564998552673">
        <ele>414.4</ele>
        <time>2015-02-05T15:09:04Z</time>
      </trkpt>
      <trkpt lat="61.201527803136" lon="14.565318322158">
        <ele>413</ele>
        <time>2015-02-05T15:09:07Z</time>
      </trkpt>
      <trkpt lat="61.201513050992" lon="14.565432651274">
        <ele>412.6</ele>
        <time>2015-02-05T15:09:08Z</time>
      </trkpt>
      <trkpt lat="61.201510452603" lon="14.565517895197">
        <ele>412.6</ele>
        <time>2015-02-05T15:09:09Z</time>
      </trkpt>
      <trkpt lat="61.201475667718" lon="14.565809836774">
        <ele>412.6</ele>
        <time>2015-02-05T15:09:12Z</time>
      </trkpt>
      <trkpt lat="61.201459825927" lon="14.565894074869">
        <ele>412.8</ele>
        <time>2015-02-05T15:09:13Z</time>
      </trkpt>
      <trkpt lat="61.201437530073" lon="14.566077303203">
        <ele>413</ele>
        <time>2015-02-05T15:09:15Z</time>
      </trkpt>
      <trkpt lat="61.201419425169" lon="14.566205462454">
        <ele>413</ele>
        <time>2015-02-05T15:09:17Z</time>
      </trkpt>
      <trkpt lat="61.201385646112" lon="14.566330771859">
        <ele>413</ele>
        <time>2015-02-05T15:09:19Z</time>
      </trkpt>
      <trkpt lat="61.201351699417" lon="14.566401515095">
        <ele>413</ele>
        <time>2015-02-05T15:09:21Z</time>
      </trkpt>
      <trkpt lat="61.201262096906" lon="14.566542666291">
        <ele>414.2</ele>
        <time>2015-02-05T15:09:26Z</time>
      </trkpt>
      <trkpt lat="61.201213565705" lon="14.566662862737">
        <ele>415.2</ele>
        <time>2015-02-05T15:09:29Z</time>
      </trkpt>
      <trkpt lat="61.201204513253" lon="14.566754895999">
        <ele>415.8</ele>
        <time>2015-02-05T15:09:31Z</time>
      </trkpt>
      <trkpt lat="61.201204597072" lon="14.567021775695">
        <ele>416.2</ele>
        <time>2015-02-05T15:09:35Z</time>
      </trkpt>
      <trkpt lat="61.201209207117" lon="14.567227132245">
        <ele>416</ele>
        <time>2015-02-05T15:09:38Z</time>
      </trkpt>
      <trkpt lat="61.201222534338" lon="14.567249679556">
        <ele>415.8</ele>
        <time>2015-02-05T15:09:39Z</time>
      </trkpt>
      <trkpt lat="61.201250110789" lon="14.567286979011">
        <ele>416.2</ele>
        <time>2015-02-05T15:09:41Z</time>
      </trkpt>
      <trkpt lat="61.201373659995" lon="14.56736920545">
        <ele>417</ele>
        <time>2015-02-05T15:09:45Z</time>
      </trkpt>
      <trkpt lat="61.201550601904" lon="14.56742033504">
        <ele>416.4</ele>
        <time>2015-02-05T15:09:50Z</time>
      </trkpt>
      <trkpt lat="61.201633415076" lon="14.567441876523">
        <ele>416.8</ele>
        <time>2015-02-05T15:09:54Z</time>
      </trkpt>
      <trkpt lat="61.201665517753" lon="14.56741698228">
        <ele>417.4</ele>
        <time>2015-02-05T15:09:56Z</time>
      </trkpt>
      <trkpt lat="61.201698290982" lon="14.567377252074">
        <ele>418.4</ele>
        <time>2015-02-05T15:09:58Z</time>
      </trkpt>
      <trkpt lat="61.201730477478" lon="14.567357386971">
        <ele>418.6</ele>
        <time>2015-02-05T15:09:59Z</time>
      </trkpt>
      <trkpt lat="61.201784205457" lon="14.567360236817">
        <ele>419</ele>
        <time>2015-02-05T15:10:01Z</time>
      </trkpt>
      <trkpt lat="61.20181496703" lon="14.567365265957">
        <ele>419</ele>
        <time>2015-02-05T15:10:03Z</time>
      </trkpt>
      <trkpt lat="61.201847153526" lon="14.567382365033">
        <ele>419</ele>
        <time>2015-02-05T15:10:05Z</time>
      </trkpt>
      <trkpt lat="61.201892331967" lon="14.567380856291">
        <ele>419.8</ele>
        <time>2015-02-05T15:10:07Z</time>
      </trkpt>
      <trkpt lat="61.201937929503" lon="14.567362164654">
        <ele>420.6</ele>
        <time>2015-02-05T15:10:09Z</time>
      </trkpt>
      <trkpt lat="61.201966260325" lon="14.567357806066">
        <ele>420.8</ele>
        <time>2015-02-05T15:10:10Z</time>
      </trkpt>
      <trkpt lat="61.202005822893" lon="14.567321680077">
        <ele>421</ele>
        <time>2015-02-05T15:10:11Z</time>
      </trkpt>
      <trkpt lat="61.202070028247" lon="14.56730215025">
        <ele>420.6</ele>
        <time>2015-02-05T15:10:13Z</time>
      </trkpt>
      <trkpt lat="61.202191733435" lon="14.567335091117">
        <ele>420.4</ele>
        <time>2015-02-05T15:10:18Z</time>
      </trkpt>
      <trkpt lat="61.202282257955" lon="14.56744380436">
        <ele>421.4</ele>
        <time>2015-02-05T15:10:23Z</time>
      </trkpt>
      <trkpt lat="61.202323161627" lon="14.567461993083">
        <ele>422</ele>
        <time>2015-02-05T15:10:25Z</time>
      </trkpt>
      <trkpt lat="61.202368759163" lon="14.567455036106">
        <ele>422.8</ele>
        <time>2015-02-05T15:10:27Z</time>
      </trkpt>
      <trkpt lat="61.202384852411" lon="14.567457802133">
        <ele>423.2</ele>
        <time>2015-02-05T15:10:28Z</time>
      </trkpt>
      <trkpt lat="61.202459618959" lon="14.567445061645">
        <ele>424.4</ele>
        <time>2015-02-05T15:10:32Z</time>
      </trkpt>
      <trkpt lat="61.20249222455" lon="14.567430560958">
        <ele>424.8</ele>
        <time>2015-02-05T15:10:34Z</time>
      </trkpt>
      <trkpt lat="61.202552322773" lon="14.56742284961">
        <ele>425.4</ele>
        <time>2015-02-05T15:10:36Z</time>
      </trkpt>
      <trkpt lat="61.202608816779" lon="14.567442044161">
        <ele>425.4</ele>
        <time>2015-02-05T15:10:38Z</time>
      </trkpt>
      <trkpt lat="61.202634297755" lon="14.567451180432">
        <ele>425.2</ele>
        <time>2015-02-05T15:10:39Z</time>
      </trkpt>
      <trkpt lat="61.202787686525" lon="14.567409354751">
        <ele>425.2</ele>
        <time>2015-02-05T15:10:45Z</time>
      </trkpt>
      <trkpt lat="61.202876450846" lon="14.567397871548">
        <ele>425.2</ele>
        <time>2015-02-05T15:10:49Z</time>
      </trkpt>
      <trkpt lat="61.202970160488" lon="14.567428214026">
        <ele>426.6</ele>
        <time>2015-02-05T15:10:53Z</time>
      </trkpt>
      <trkpt lat="61.203072671125" lon="14.56742787875">
        <ele>427.6</ele>
        <time>2015-02-05T15:10:57Z</time>
      </trkpt>
      <trkpt lat="61.203110976408" lon="14.567402816869">
        <ele>427.6</ele>
        <time>2015-02-05T15:10:58Z</time>
      </trkpt>
      <trkpt lat="61.203204015498" lon="14.567440367781">
        <ele>427.4</ele>
        <time>2015-02-05T15:11:02Z</time>
      </trkpt>
      <trkpt lat="61.203311890551" lon="14.567556457096">
        <ele>428.4</ele>
        <time>2015-02-05T15:11:07Z</time>
      </trkpt>
      <trkpt lat="61.203406103107" lon="14.567580345511">
        <ele>427.4</ele>
        <time>2015-02-05T15:11:11Z</time>
      </trkpt>
      <trkpt lat="61.203458573801" lon="14.567560815684">
        <ele>428.2</ele>
        <time>2015-02-05T15:11:15Z</time>
      </trkpt>
      <trkpt lat="61.203477768352" lon="14.567548745748">
        <ele>428.6</ele>
        <time>2015-02-05T15:11:16Z</time>
      </trkpt>
      <trkpt lat="61.203491430849" lon="14.567554864535">
        <ele>428.8</ele>
        <time>2015-02-05T15:11:17Z</time>
      </trkpt>
      <trkpt lat="61.203594779676" lon="14.567555618906">
        <ele>429.8</ele>
        <time>2015-02-05T15:11:21Z</time>
      </trkpt>
      <trkpt lat="61.20368245435" lon="14.56760976598">
        <ele>430</ele>
        <time>2015-02-05T15:11:25Z</time>
      </trkpt>
      <trkpt lat="61.203698212322" lon="14.56761144236">
        <ele>429.8</ele>
        <time>2015-02-05T15:11:26Z</time>
      </trkpt>
      <trkpt lat="61.203756382708" lon="14.567631475101">
        <ele>430.6</ele>
        <time>2015-02-05T15:11:30Z</time>
      </trkpt>
      <trkpt lat="61.203792760154" lon="14.567606999953">
        <ele>430.8</ele>
        <time>2015-02-05T15:11:31Z</time>
      </trkpt>
      <trkpt lat="61.203835759301" lon="14.56761060417">
        <ele>431.4</ele>
        <time>2015-02-05T15:11:33Z</time>
      </trkpt>
      <trkpt lat="61.203905748166" lon="14.567586548117">
        <ele>431.8</ele>
        <time>2015-02-05T15:11:36Z</time>
      </trkpt>
      <trkpt lat="61.203923769251" lon="14.567584452642">
        <ele>432</ele>
        <time>2015-02-05T15:11:37Z</time>
      </trkpt>
      <trkpt lat="61.204049749208" lon="14.567648657996">
        <ele>433.2</ele>
        <time>2015-02-05T15:11:42Z</time>
      </trkpt>
      <trkpt lat="61.204136334235" lon="14.567779499455">
        <ele>434</ele>
        <time>2015-02-05T15:11:46Z</time>
      </trkpt>
      <trkpt lat="61.204164245962" lon="14.56788050135">
        <ele>434</ele>
        <time>2015-02-05T15:11:49Z</time>
      </trkpt>
      <trkpt lat="61.204189978395" lon="14.567954932622">
        <ele>434.2</ele>
        <time>2015-02-05T15:11:51Z</time>
      </trkpt>
      <trkpt lat="61.204233564275" lon="14.568029112437">
        <ele>434.6</ele>
        <time>2015-02-05T15:11:53Z</time>
      </trkpt>
      <trkpt lat="61.20427421649" lon="14.568138160956">
        <ele>435.2</ele>
        <time>2015-02-05T15:11:55Z</time>
      </trkpt>
      <trkpt lat="61.20429433305" lon="14.568189122908">
        <ele>435.4</ele>
        <time>2015-02-05T15:11:56Z</time>
      </trkpt>
      <trkpt lat="61.20440581232" lon="14.568348798103">
        <ele>435</ele>
        <time>2015-02-05T15:12:00Z</time>
      </trkpt>
      <trkpt lat="61.204488876949" lon="14.568532696989">
        <ele>434.8</ele>
        <time>2015-02-05T15:12:04Z</time>
      </trkpt>
      <trkpt lat="61.204503545274" lon="14.568763785972">
        <ele>435.6</ele>
        <time>2015-02-05T15:12:09Z</time>
      </trkpt>
      <trkpt lat="61.204499102867" lon="14.568810724612">
        <ele>436</ele>
        <time>2015-02-05T15:12:10Z</time>
      </trkpt>
      <trkpt lat="61.204486949112" lon="14.568847604972">
        <ele>436.4</ele>
        <time>2015-02-05T15:12:11Z</time>
      </trkpt>
      <trkpt lat="61.204467586923" lon="14.568954558016">
        <ele>437.8</ele>
        <time>2015-02-05T15:12:14Z</time>
      </trkpt>
      <trkpt lat="61.20446448562" lon="14.56907408391">
        <ele>438.6</ele>
        <time>2015-02-05T15:12:17Z</time>
      </trkpt>
      <trkpt lat="61.204454930254" lon="14.569176510728">
        <ele>438.8</ele>
        <time>2015-02-05T15:12:19Z</time>
      </trkpt>
      <trkpt lat="61.204461300498" lon="14.569293605871">
        <ele>439.2</ele>
        <time>2015-02-05T15:12:23Z</time>
      </trkpt>
      <trkpt lat="61.204445961621" lon="14.569416568344">
        <ele>440</ele>
        <time>2015-02-05T15:12:26Z</time>
      </trkpt>
      <trkpt lat="61.204443279413" lon="14.569446827003">
        <ele>440.4</ele>
        <time>2015-02-05T15:12:27Z</time>
      </trkpt>
      <trkpt lat="61.204439256101" lon="14.569599377583">
        <ele>441</ele>
        <time>2015-02-05T15:12:31Z</time>
      </trkpt>
      <trkpt lat="61.204438166454" lon="14.569647070594">
        <ele>441.2</ele>
        <time>2015-02-05T15:12:32Z</time>
      </trkpt>
      <trkpt lat="61.204425761242" lon="14.569694679786">
        <ele>441.4</ele>
        <time>2015-02-05T15:12:33Z</time>
      </trkpt>
      <trkpt lat="61.204396005497" lon="14.569803057753">
        <ele>441.6</ele>
        <time>2015-02-05T15:12:35Z</time>
      </trkpt>
      <trkpt lat="61.204384270837" lon="14.569865586727">
        <ele>441.8</ele>
        <time>2015-02-05T15:12:37Z</time>
      </trkpt>
      <trkpt lat="61.204393826203" lon="14.56990137744">
        <ele>441.8</ele>
        <time>2015-02-05T15:12:38Z</time>
      </trkpt>
      <trkpt lat="61.204363483725" lon="14.56998435825">
        <ele>442</ele>
        <time>2015-02-05T15:12:40Z</time>
      </trkpt>
      <trkpt lat="61.204351497608" lon="14.570021406248">
        <ele>442.4</ele>
        <time>2015-02-05T15:12:41Z</time>
      </trkpt>
      <trkpt lat="61.204341774604" lon="14.570089467276">
        <ele>442.8</ele>
        <time>2015-02-05T15:12:43Z</time>
      </trkpt>
      <trkpt lat="61.204318472922" lon="14.570172364267">
        <ele>443</ele>
        <time>2015-02-05T15:12:45Z</time>
      </trkpt>
      <trkpt lat="61.204267594789" lon="14.570313431644">
        <ele>443.4</ele>
        <time>2015-02-05T15:12:49Z</time>
      </trkpt>
      <trkpt lat="61.204246220944" lon="14.570388282011">
        <ele>443.8</ele>
        <time>2015-02-05T15:12:51Z</time>
      </trkpt>
      <trkpt lat="61.204179333382" lon="14.570500348014">
        <ele>444.8</ele>
        <time>2015-02-05T15:12:55Z</time>
      </trkpt>
      <trkpt lat="61.204132143285" lon="14.570650132567">
        <ele>444.8</ele>
        <time>2015-02-05T15:12:59Z</time>
      </trkpt>
      <trkpt lat="61.204100878798" lon="14.570749877177">
        <ele>445</ele>
        <time>2015-02-05T15:13:02Z</time>
      </trkpt>
      <trkpt lat="61.204109679793" lon="14.570774268506">
        <ele>445.2</ele>
        <time>2015-02-05T15:13:03Z</time>
      </trkpt>
      <trkpt lat="61.204096436391" lon="14.570891363649">
        <ele>445.8</ele>
        <time>2015-02-05T15:13:06Z</time>
      </trkpt>
      <trkpt lat="61.204107668137" lon="14.570982558721">
        <ele>446</ele>
        <time>2015-02-05T15:13:08Z</time>
      </trkpt>
      <trkpt lat="61.204099286237" lon="14.571012146828">
        <ele>446.2</ele>
        <time>2015-02-05T15:13:09Z</time>
      </trkpt>
      <trkpt lat="61.204109009241" lon="14.571139719346">
        <ele>446.6</ele>
        <time>2015-02-05T15:13:12Z</time>
      </trkpt>
      <trkpt lat="61.204108841603" lon="14.571169139815">
        <ele>447</ele>
        <time>2015-02-05T15:13:13Z</time>
      </trkpt>
      <trkpt lat="61.204113535467" lon="14.571312973219">
        <ele>448.4</ele>
        <time>2015-02-05T15:13:16Z</time>
      </trkpt>
      <trkpt lat="61.204127114145" lon="14.571398217142">
        <ele>449.6</ele>
        <time>2015-02-05T15:13:19Z</time>
      </trkpt>
      <trkpt lat="61.204135663683" lon="14.571445742515">
        <ele>450.2</ele>
        <time>2015-02-05T15:13:21Z</time>
      </trkpt>
      <trkpt lat="61.204149577637" lon="14.571485975635">
        <ele>450.8</ele>
        <time>2015-02-05T15:13:23Z</time>
      </trkpt>
      <trkpt lat="61.204153433311" lon="14.57156015545">
        <ele>451.8</ele>
        <time>2015-02-05T15:13:26Z</time>
      </trkpt>
      <trkpt lat="61.204160055012" lon="14.571601310579">
        <ele>452.2</ele>
        <time>2015-02-05T15:13:27Z</time>
      </trkpt>
      <trkpt lat="61.204193414974" lon="14.571776743746">
        <ele>452.6</ele>
        <time>2015-02-05T15:13:31Z</time>
      </trkpt>
      <trkpt lat="61.204192325327" lon="14.57181412702">
        <ele>452.6</ele>
        <time>2015-02-05T15:13:32Z</time>
      </trkpt>
      <trkpt lat="61.204190984223" lon="14.571851175018">
        <ele>453</ele>
        <time>2015-02-05T15:13:33Z</time>
      </trkpt>
      <trkpt lat="61.204196851553" lon="14.571870872483">
        <ele>453</ele>
        <time>2015-02-05T15:13:34Z</time>
      </trkpt>
      <trkpt lat="61.204187296187" lon="14.571925187195">
        <ele>453.4</ele>
        <time>2015-02-05T15:13:35Z</time>
      </trkpt>
      <trkpt lat="61.204162318125" lon="14.572070361703">
        <ele>454</ele>
        <time>2015-02-05T15:13:38Z</time>
      </trkpt>
      <trkpt lat="61.204144967592" lon="14.57206474583">
        <ele>454</ele>
        <time>2015-02-05T15:13:39Z</time>
      </trkpt>
      <trkpt lat="61.204142872117" lon="14.572099027801">
        <ele>454</ele>
        <time>2015-02-05T15:13:40Z</time>
      </trkpt>
      <trkpt lat="61.204074559632" lon="14.572282172316">
        <ele>453.8</ele>
        <time>2015-02-05T15:13:44Z</time>
      </trkpt>
      <trkpt lat="61.203992668469" lon="14.572557517731">
        <ele>453.4</ele>
        <time>2015-02-05T15:13:48Z</time>
      </trkpt>
      <trkpt lat="61.203915052075" lon="14.572702776058">
        <ele>452.6</ele>
        <time>2015-02-05T15:13:50Z</time>
      </trkpt>
      <trkpt lat="61.203864844494" lon="14.572857505932">
        <ele>451.6</ele>
        <time>2015-02-05T15:13:52Z</time>
      </trkpt>
      <trkpt lat="61.203858306612" lon="14.572932021023">
        <ele>451.4</ele>
        <time>2015-02-05T15:13:53Z</time>
      </trkpt>
      <trkpt lat="61.203840704622" lon="14.573093288779">
        <ele>450.8</ele>
        <time>2015-02-05T15:13:55Z</time>
      </trkpt>
      <trkpt lat="61.203837854776" lon="14.573190937914">
        <ele>450.6</ele>
        <time>2015-02-05T15:13:57Z</time>
      </trkpt>
      <trkpt lat="61.203820001329" lon="14.573435605575">
        <ele>451.8</ele>
        <time>2015-02-05T15:14:01Z</time>
      </trkpt>
      <trkpt lat="61.203807428479" lon="14.573698881054">
        <ele>452.2</ele>
        <time>2015-02-05T15:14:06Z</time>
      </trkpt>
      <trkpt lat="61.203801142054" lon="14.573754033956">
        <ele>452.4</ele>
        <time>2015-02-05T15:14:07Z</time>
      </trkpt>
      <trkpt lat="61.203750766835" lon="14.573993756296">
        <ele>453</ele>
        <time>2015-02-05T15:14:11Z</time>
      </trkpt>
      <trkpt lat="61.203672228432" lon="14.574172626042">
        <ele>452.8</ele>
        <time>2015-02-05T15:14:14Z</time>
      </trkpt>
      <trkpt lat="61.203660577591" lon="14.574227695125">
        <ele>452.6</ele>
        <time>2015-02-05T15:14:15Z</time>
      </trkpt>
      <trkpt lat="61.203582793559" lon="14.574437829358">
        <ele>452.2</ele>
        <time>2015-02-05T15:14:19Z</time>
      </trkpt>
      <trkpt lat="61.203472403936" lon="14.574637402397">
        <ele>452</ele>
        <time>2015-02-05T15:14:24Z</time>
      </trkpt>
      <trkpt lat="61.203450191901" lon="14.574883746438">
        <ele>452.6</ele>
        <time>2015-02-05T15:14:29Z</time>
      </trkpt>
      <trkpt lat="61.203438792517" lon="14.575064460202">
        <ele>453.6</ele>
        <time>2015-02-05T15:14:33Z</time>
      </trkpt>
      <trkpt lat="61.203428818056" lon="14.575189853426">
        <ele>454.4</ele>
        <time>2015-02-05T15:14:36Z</time>
      </trkpt>
      <trkpt lat="61.203428147504" lon="14.575267721277">
        <ele>454.8</ele>
        <time>2015-02-05T15:14:38Z</time>
      </trkpt>
      <trkpt lat="61.20345530486" lon="14.575385822248">
        <ele>456</ele>
        <time>2015-02-05T15:14:41Z</time>
      </trkpt>
      <trkpt lat="61.203468296805" lon="14.575411219405">
        <ele>456.6</ele>
        <time>2015-02-05T15:14:42Z</time>
      </trkpt>
      <trkpt lat="61.203494951247" lon="14.575465953212">
        <ele>457.2</ele>
        <time>2015-02-05T15:14:44Z</time>
      </trkpt>
      <trkpt lat="61.203540967878" lon="14.575542479959">
        <ele>458.2</ele>
        <time>2015-02-05T15:14:48Z</time>
      </trkpt>
      <trkpt lat="61.203554043642" lon="14.57556418908">
        <ele>458.4</ele>
        <time>2015-02-05T15:14:49Z</time>
      </trkpt>
      <trkpt lat="61.203639622841" lon="14.575675165436">
        <ele>459.2</ele>
        <time>2015-02-05T15:14:53Z</time>
      </trkpt>
      <trkpt lat="61.20366066141" lon="14.575697545109">
        <ele>459.4</ele>
        <time>2015-02-05T15:14:54Z</time>
      </trkpt>
      <trkpt lat="61.203716065769" lon="14.575762085739">
        <ele>460.4</ele>
        <time>2015-02-05T15:14:58Z</time>
      </trkpt>
      <trkpt lat="61.203730398818" lon="14.575776670245">
        <ele>460.6</ele>
        <time>2015-02-05T15:14:59Z</time>
      </trkpt>
      <trkpt lat="61.203798878941" lon="14.575851939707">
        <ele>461.8</ele>
        <time>2015-02-05T15:15:03Z</time>
      </trkpt>
      <trkpt lat="61.203822683537" lon="14.575901895831">
        <ele>462.2</ele>
        <time>2015-02-05T15:15:05Z</time>
      </trkpt>
      <trkpt lat="61.203861491734" lon="14.576003233002">
        <ele>462.8</ele>
        <time>2015-02-05T15:15:08Z</time>
      </trkpt>
      <trkpt lat="61.20388948728" lon="14.576049249633">
        <ele>463.2</ele>
        <time>2015-02-05T15:15:10Z</time>
      </trkpt>
      <trkpt lat="61.203932989341" lon="14.576105156906">
        <ele>464</ele>
        <time>2015-02-05T15:15:13Z</time>
      </trkpt>
      <trkpt lat="61.203975904669" lon="14.576134661194">
        <ele>464.4</ele>
        <time>2015-02-05T15:15:16Z</time>
      </trkpt>
      <trkpt lat="61.204066764465" lon="14.576128877683">
        <ele>465</ele>
        <time>2015-02-05T15:15:21Z</time>
      </trkpt>
      <trkpt lat="61.204111942906" lon="14.576138852144">
        <ele>465</ele>
        <time>2015-02-05T15:15:23Z</time>
      </trkpt>
      <trkpt lat="61.204170113292" lon="14.576181599834">
        <ele>465.2</ele>
        <time>2015-02-05T15:15:26Z</time>
      </trkpt>
      <trkpt lat="61.204262817106" lon="14.576233819071">
        <ele>466.2</ele>
        <time>2015-02-05T15:15:30Z</time>
      </trkpt>
      <trkpt lat="61.204314533429" lon="14.576228957569">
        <ele>466.8</ele>
        <time>2015-02-05T15:15:32Z</time>
      </trkpt>
      <trkpt lat="61.204410757641" lon="14.576173469391">
        <ele>467.2</ele>
        <time>2015-02-05T15:15:36Z</time>
      </trkpt>
      <trkpt lat="61.204507149491" lon="14.576199285643">
        <ele>466.6</ele>
        <time>2015-02-05T15:15:39Z</time>
      </trkpt>
      <trkpt lat="61.204586526084" lon="14.576210182113">
        <ele>466.6</ele>
        <time>2015-02-05T15:15:43Z</time>
      </trkpt>
      <trkpt lat="61.204667411419" lon="14.576237339469">
        <ele>466.8</ele>
        <time>2015-02-05T15:15:45Z</time>
      </trkpt>
      <trkpt lat="61.204702196304" lon="14.576252678346">
        <ele>467</ele>
        <time>2015-02-05T15:15:47Z</time>
      </trkpt>
      <trkpt lat="61.204772436626" lon="14.576303388841">
        <ele>467.2</ele>
        <time>2015-02-05T15:15:50Z</time>
      </trkpt>
      <trkpt lat="61.204826080786" lon="14.576322499573">
        <ele>468</ele>
        <time>2015-02-05T15:15:52Z</time>
      </trkpt>
      <trkpt lat="61.204900763515" lon="14.576349656929">
        <ele>468.4</ele>
        <time>2015-02-05T15:15:55Z</time>
      </trkpt>
      <trkpt lat="61.204926160672" lon="14.576360721037">
        <ele>468.4</ele>
        <time>2015-02-05T15:15:56Z</time>
      </trkpt>
      <trkpt lat="61.20503194025" lon="14.576319565908">
        <ele>469</ele>
        <time>2015-02-05T15:16:01Z</time>
      </trkpt>
      <trkpt lat="61.205085249134" lon="14.576299197891">
        <ele>469.2</ele>
        <time>2015-02-05T15:16:04Z</time>
      </trkpt>
      <trkpt lat="61.205189687608" lon="14.576298527339">
        <ele>469.4</ele>
        <time>2015-02-05T15:16:07Z</time>
      </trkpt>
      <trkpt lat="61.205278451929" lon="14.576320404098">
        <ele>469.2</ele>
        <time>2015-02-05T15:16:09Z</time>
      </trkpt>
      <trkpt lat="61.205346429138" lon="14.576338844278">
        <ele>469.2</ele>
        <time>2015-02-05T15:16:11Z</time>
      </trkpt>
      <trkpt lat="61.205501745745" lon="14.576371868964">
        <ele>469</ele>
        <time>2015-02-05T15:16:15Z</time>
      </trkpt>
      <trkpt lat="61.205701486422" lon="14.576384106538">
        <ele>468.6</ele>
        <time>2015-02-05T15:16:21Z</time>
      </trkpt>
      <trkpt lat="61.205888738068" lon="14.576367342738">
        <ele>469.2</ele>
        <time>2015-02-05T15:16:27Z</time>
      </trkpt>
      <trkpt lat="61.205992673628" lon="14.576429787893">
        <ele>469</ele>
        <time>2015-02-05T15:16:31Z</time>
      </trkpt>
      <trkpt lat="61.206084203976" lon="14.576509835038">
        <ele>469.6</ele>
        <time>2015-02-05T15:16:35Z</time>
      </trkpt>
      <trkpt lat="61.206179338541" lon="14.576591139468">
        <ele>470.2</ele>
        <time>2015-02-05T15:16:39Z</time>
      </trkpt>
      <trkpt lat="61.206236838375" lon="14.576669845509">
        <ele>470.6</ele>
        <time>2015-02-05T15:16:42Z</time>
      </trkpt>
      <trkpt lat="61.206297104236" lon="14.576762716961">
        <ele>471</ele>
        <time>2015-02-05T15:16:45Z</time>
      </trkpt>
      <trkpt lat="61.206411684809" lon="14.576931109332">
        <ele>471.6</ele>
        <time>2015-02-05T15:16:50Z</time>
      </trkpt>
      <trkpt lat="61.206502209329" lon="14.577004031862">
        <ele>472.2</ele>
        <time>2015-02-05T15:16:54Z</time>
      </trkpt>
      <trkpt lat="61.206582759388" lon="14.577013000495">
        <ele>472.2</ele>
        <time>2015-02-05T15:16:57Z</time>
      </trkpt>
      <trkpt lat="61.206675547021" lon="14.577030351028">
        <ele>472.8</ele>
        <time>2015-02-05T15:17:01Z</time>
      </trkpt>
      <trkpt lat="61.206697172323" lon="14.577034206702">
        <ele>472.8</ele>
        <time>2015-02-05T15:17:02Z</time>
      </trkpt>
      <trkpt lat="61.206737489262" lon="14.577046025181">
        <ele>472.8</ele>
        <time>2015-02-05T15:17:04Z</time>
      </trkpt>
      <trkpt lat="61.206792642164" lon="14.577048204475">
        <ele>472.8</ele>
        <time>2015-02-05T15:17:06Z</time>
      </trkpt>
      <trkpt lat="61.206958687603" lon="14.577057759841">
        <ele>472.8</ele>
        <time>2015-02-05T15:17:10Z</time>
      </trkpt>
      <trkpt lat="61.207132528209" lon="14.577090365432">
        <ele>471.4</ele>
        <time>2015-02-05T15:17:13Z</time>
      </trkpt>
      <trkpt lat="61.207245097126" lon="14.577081145342">
        <ele>470.4</ele>
        <time>2015-02-05T15:17:15Z</time>
      </trkpt>
      <trkpt lat="61.207301507313" lon="14.577072428166">
        <ele>469.8</ele>
        <time>2015-02-05T15:17:16Z</time>
      </trkpt>
      <trkpt lat="61.207357163129" lon="14.577048958846">
        <ele>469.4</ele>
        <time>2015-02-05T15:17:17Z</time>
      </trkpt>
      <trkpt lat="61.207461769241" lon="14.576967235321">
        <ele>468.8</ele>
        <time>2015-02-05T15:17:19Z</time>
      </trkpt>
      <trkpt lat="61.207511809184" lon="14.576892384954">
        <ele>468.4</ele>
        <time>2015-02-05T15:17:20Z</time>
      </trkpt>
      <trkpt lat="61.207618343133" lon="14.576597593531">
        <ele>467.2</ele>
        <time>2015-02-05T15:17:23Z</time>
      </trkpt>
      <trkpt lat="61.207622198807" lon="14.576486533356">
        <ele>467.2</ele>
        <time>2015-02-05T15:17:24Z</time>
      </trkpt>
      <trkpt lat="61.20761105088" lon="14.576148156053">
        <ele>466.4</ele>
        <time>2015-02-05T15:17:27Z</time>
      </trkpt>
      <trkpt lat="61.207606189378" lon="14.576027624331">
        <ele>466</ele>
        <time>2015-02-05T15:17:28Z</time>
      </trkpt>
      <trkpt lat="61.207592191605" lon="14.575773485123">
        <ele>464</ele>
        <time>2015-02-05T15:17:30Z</time>
      </trkpt>
      <trkpt lat="61.207586408094" lon="14.575625544588">
        <ele>462.8</ele>
        <time>2015-02-05T15:17:31Z</time>
      </trkpt>
      <trkpt lat="61.207570566303" lon="14.575477687872">
        <ele>461.4</ele>
        <time>2015-02-05T15:17:32Z</time>
      </trkpt>
      <trkpt lat="61.207565285706" lon="14.575343326015">
        <ele>460.4</ele>
        <time>2015-02-05T15:17:33Z</time>
      </trkpt>
      <trkpt lat="61.207585318447" lon="14.575129839022">
        <ele>459</ele>
        <time>2015-02-05T15:17:35Z</time>
      </trkpt>
      <trkpt lat="61.2076093745" lon="14.575033447172">
        <ele>458.2</ele>
        <time>2015-02-05T15:17:36Z</time>
      </trkpt>
      <trkpt lat="61.207647260688" lon="14.574966978705">
        <ele>457.4</ele>
        <time>2015-02-05T15:17:37Z</time>
      </trkpt>
      <trkpt lat="61.207755135741" lon="14.574875615995">
        <ele>456</ele>
        <time>2015-02-05T15:17:39Z</time>
      </trkpt>
      <trkpt lat="61.207845827899" lon="14.57471342623">
        <ele>455</ele>
        <time>2015-02-05T15:17:41Z</time>
      </trkpt>
      <trkpt lat="61.207885474286" lon="14.574517625046">
        <ele>454</ele>
        <time>2015-02-05T15:17:43Z</time>
      </trkpt>
      <trkpt lat="61.207895867842" lon="14.574430872381">
        <ele>453.6</ele>
        <time>2015-02-05T15:17:44Z</time>
      </trkpt>
      <trkpt lat="61.207889832874" lon="14.574314028695">
        <ele>453</ele>
        <time>2015-02-05T15:17:46Z</time>
      </trkpt>
      <trkpt lat="61.207836775447" lon="14.573923683612">
        <ele>453.4</ele>
        <time>2015-02-05T15:17:51Z</time>
      </trkpt>
      <trkpt lat="61.207802409657" lon="14.573809689772">
        <ele>453.6</ele>
        <time>2015-02-05T15:17:53Z</time>
      </trkpt>
      <trkpt lat="61.207781035812" lon="14.573667113653">
        <ele>453.6</ele>
        <time>2015-02-05T15:17:55Z</time>
      </trkpt>
      <trkpt lat="61.207738958674" lon="14.573298310053">
        <ele>454</ele>
        <time>2015-02-05T15:18:00Z</time>
      </trkpt>
      <trkpt lat="61.207757985587" lon="14.573049535261">
        <ele>454</ele>
        <time>2015-02-05T15:18:04Z</time>
      </trkpt>
      <trkpt lat="61.207798302526" lon="14.572822218133">
        <ele>454.2</ele>
        <time>2015-02-05T15:18:07Z</time>
      </trkpt>
      <trkpt lat="61.207879858413" lon="14.572633457745">
        <ele>454</ele>
        <time>2015-02-05T15:18:11Z</time>
      </trkpt>
      <trkpt lat="61.208009694044" lon="14.57257939449">
        <ele>453.8</ele>
        <time>2015-02-05T15:18:15Z</time>
      </trkpt>
      <trkpt lat="61.208095440881" lon="14.572627758053">
        <ele>453.8</ele>
        <time>2015-02-05T15:18:17Z</time>
      </trkpt>
      <trkpt lat="61.208125615721" lon="14.572672098304">
        <ele>453.8</ele>
        <time>2015-02-05T15:18:18Z</time>
      </trkpt>
      <trkpt lat="61.208287889305" lon="14.57288701022">
        <ele>453.6</ele>
        <time>2015-02-05T15:18:23Z</time>
      </trkpt>
      <trkpt lat="61.208416216194" lon="14.573015001833">
        <ele>453.6</ele>
        <time>2015-02-05T15:18:27Z</time>
      </trkpt>
      <trkpt lat="61.208574466466" lon="14.573202002022">
        <ele>453.8</ele>
        <time>2015-02-05T15:18:32Z</time>
      </trkpt>
      <trkpt lat="61.208667757013" lon="14.573408196762">
        <ele>453.6</ele>
        <time>2015-02-05T15:18:36Z</time>
      </trkpt>
      <trkpt lat="61.208770519107" lon="14.573580863902">
        <ele>454</ele>
        <time>2015-02-05T15:18:40Z</time>
      </trkpt>
      <trkpt lat="61.208865150758" lon="14.573663257979">
        <ele>453.6</ele>
        <time>2015-02-05T15:18:43Z</time>
      </trkpt>
      <trkpt lat="61.20897813877" lon="14.573879259542">
        <ele>453.4</ele>
        <time>2015-02-05T15:18:47Z</time>
      </trkpt>
      <trkpt lat="61.209096994112" lon="14.574221911614">
        <ele>453.2</ele>
        <time>2015-02-05T15:18:52Z</time>
      </trkpt>
      <trkpt lat="61.209110656609" lon="14.574306987899">
        <ele>453</ele>
        <time>2015-02-05T15:18:53Z</time>
      </trkpt>
      <trkpt lat="61.209136137585" lon="14.57460529972">
        <ele>452.8</ele>
        <time>2015-02-05T15:18:56Z</time>
      </trkpt>
      <trkpt lat="61.209147788426" lon="14.574706636891">
        <ele>452.6</ele>
        <time>2015-02-05T15:18:57Z</time>
      </trkpt>
      <trkpt lat="61.209164719864" lon="14.574792383728">
        <ele>452.4</ele>
        <time>2015-02-05T15:18:58Z</time>
      </trkpt>
      <trkpt lat="61.209212748151" lon="14.575043002538">
        <ele>451.8</ele>
        <time>2015-02-05T15:19:01Z</time>
      </trkpt>
      <trkpt lat="61.209284664853" lon="14.575274342978">
        <ele>451.4</ele>
        <time>2015-02-05T15:19:04Z</time>
      </trkpt>
      <trkpt lat="61.209305535784" lon="14.575347349327">
        <ele>451.4</ele>
        <time>2015-02-05T15:19:05Z</time>
      </trkpt>
      <trkpt lat="61.209381056703" lon="14.575621269819">
        <ele>451.2</ele>
        <time>2015-02-05T15:19:09Z</time>
      </trkpt>
      <trkpt lat="61.209397149951" lon="14.57570835776">
        <ele>451</ele>
        <time>2015-02-05T15:19:10Z</time>
      </trkpt>
      <trkpt lat="61.209444842962" lon="14.575912959939">
        <ele>450.8</ele>
        <time>2015-02-05T15:19:13Z</time>
      </trkpt>
      <trkpt lat="61.209526147392" lon="14.576192663942">
        <ele>450.8</ele>
        <time>2015-02-05T15:19:18Z</time>
      </trkpt>
      <trkpt lat="61.209572499299" lon="14.576521653517">
        <ele>451</ele>
        <time>2015-02-05T15:19:23Z</time>
      </trkpt>
      <trkpt lat="61.209607451822" lon="14.576892552592">
        <ele>451</ele>
        <time>2015-02-05T15:19:28Z</time>
      </trkpt>
      <trkpt lat="61.209661515077" lon="14.577092041812">
        <ele>450.8</ele>
        <time>2015-02-05T15:19:31Z</time>
      </trkpt>
      <trkpt lat="61.209733515598" lon="14.577492780451">
        <ele>451</ele>
        <time>2015-02-05T15:19:36Z</time>
      </trkpt>
      <trkpt lat="61.209823118109" lon="14.577724875262">
        <ele>450.8</ele>
        <time>2015-02-05T15:19:40Z</time>
      </trkpt>
      <trkpt lat="61.209856478071" lon="14.577781285449">
        <ele>450.6</ele>
        <time>2015-02-05T15:19:41Z</time>
      </trkpt>
      <trkpt lat="61.209935184112" lon="14.577882035887">
        <ele>450.6</ele>
        <time>2015-02-05T15:19:43Z</time>
      </trkpt>
      <trkpt lat="61.21000073057" lon="14.577975829348">
        <ele>450.4</ele>
        <time>2015-02-05T15:19:45Z</time>
      </trkpt>
      <trkpt lat="61.210023026424" lon="14.578034921743">
        <ele>450.2</ele>
        <time>2015-02-05T15:19:46Z</time>
      </trkpt>
      <trkpt lat="61.21011137165" lon="14.578154615275">
        <ele>450</ele>
        <time>2015-02-05T15:19:49Z</time>
      </trkpt>
      <trkpt lat="61.210145066888" lon="14.578193339653">
        <ele>450</ele>
        <time>2015-02-05T15:19:50Z</time>
      </trkpt>
      <trkpt lat="61.2102580549" lon="14.578376651806">
        <ele>450</ele>
        <time>2015-02-05T15:19:54Z</time>
      </trkpt>
      <trkpt lat="61.210380179183" lon="14.578554599543">
        <ele>449.6</ele>
        <time>2015-02-05T15:19:58Z</time>
      </trkpt>
      <trkpt lat="61.210503979846" lon="14.578706228114">
        <ele>449.4</ele>
        <time>2015-02-05T15:20:02Z</time>
      </trkpt>
      <trkpt lat="61.21064865144" lon="14.578774205323">
        <ele>449.2</ele>
        <time>2015-02-05T15:20:06Z</time>
      </trkpt>
      <trkpt lat="61.210687124361" lon="14.578791052942">
        <ele>449</ele>
        <time>2015-02-05T15:20:07Z</time>
      </trkpt>
      <trkpt lat="61.210841351321" lon="14.578876129227">
        <ele>448.6</ele>
        <time>2015-02-05T15:20:11Z</time>
      </trkpt>
      <trkpt lat="61.21098811839" lon="14.578916865261">
        <ele>448.4</ele>
        <time>2015-02-05T15:20:15Z</time>
      </trkpt>
      <trkpt lat="61.211105884085" lon="14.578820221954">
        <ele>448.2</ele>
        <time>2015-02-05T15:20:19Z</time>
      </trkpt>
      <trkpt lat="61.211159192969" lon="14.578762470663">
        <ele>448</ele>
        <time>2015-02-05T15:20:21Z</time>
      </trkpt>
      <trkpt lat="61.211242257598" lon="14.578644872606">
        <ele>447.8</ele>
        <time>2015-02-05T15:20:24Z</time>
      </trkpt>
      <trkpt lat="61.211334877593" lon="14.578510259292">
        <ele>447.4</ele>
        <time>2015-02-05T15:20:28Z</time>
      </trkpt>
      <trkpt lat="61.211368740469" lon="14.578508834369">
        <ele>447.4</ele>
        <time>2015-02-05T15:20:29Z</time>
      </trkpt>
      <trkpt lat="61.211442249732" lon="14.578457537141">
        <ele>447.6</ele>
        <time>2015-02-05T15:20:32Z</time>
      </trkpt>
      <trkpt lat="61.211528667121" lon="14.578427110844">
        <ele>448</ele>
        <time>2015-02-05T15:20:35Z</time>
      </trkpt>
      <trkpt lat="61.211706363401" lon="14.578375813616">
        <ele>447.6</ele>
        <time>2015-02-05T15:20:40Z</time>
      </trkpt>
      <trkpt lat="61.211845083846" lon="14.578296353204">
        <ele>447.8</ele>
        <time>2015-02-05T15:20:44Z</time>
      </trkpt>
      <trkpt lat="61.21190006911" lon="14.578317307954">
        <ele>447.8</ele>
        <time>2015-02-05T15:20:46Z</time>
      </trkpt>
      <trkpt lat="61.21196293336" lon="14.578459381159">
        <ele>447.8</ele>
        <time>2015-02-05T15:20:49Z</time>
      </trkpt>
      <trkpt lat="61.211993694933" lon="14.578865568033">
        <ele>447.8</ele>
        <time>2015-02-05T15:20:55Z</time>
      </trkpt>
      <trkpt lat="61.212008866172" lon="14.578928348464">
        <ele>447.6</ele>
        <time>2015-02-05T15:20:56Z</time>
      </trkpt>
      <trkpt lat="61.212065108721" lon="14.579057848819">
        <ele>447.6</ele>
        <time>2015-02-05T15:20:59Z</time>
      </trkpt>
      <trkpt lat="61.212188657927" lon="14.579228169027">
        <ele>447.4</ele>
        <time>2015-02-05T15:21:04Z</time>
      </trkpt>
      <trkpt lat="61.212304411966" lon="14.579399243606">
        <ele>447.4</ele>
        <time>2015-02-05T15:21:08Z</time>
      </trkpt>
      <trkpt lat="61.212356798841" lon="14.579523714821">
        <ele>447.4</ele>
        <time>2015-02-05T15:21:10Z</time>
      </trkpt>
      <trkpt lat="61.212384794387" lon="14.579574425316">
        <ele>447.6</ele>
        <time>2015-02-05T15:21:11Z</time>
      </trkpt>
      <trkpt lat="61.2124960222" lon="14.579914898094">
        <ele>447.6</ele>
        <time>2015-02-05T15:21:17Z</time>
      </trkpt>
      <trkpt lat="61.212527957239" lon="14.580039956042">
        <ele>447.8</ele>
        <time>2015-02-05T15:21:19Z</time>
      </trkpt>
      <trkpt lat="61.21264186726" lon="14.580350589256">
        <ele>448.6</ele>
        <time>2015-02-05T15:21:25Z</time>
      </trkpt>
      <trkpt lat="61.212708838641" lon="14.580494338841">
        <ele>448.6</ele>
        <time>2015-02-05T15:21:28Z</time>
      </trkpt>
      <trkpt lat="61.212813780029" lon="14.580679914107">
        <ele>449</ele>
        <time>2015-02-05T15:21:33Z</time>
      </trkpt>
      <trkpt lat="61.212843200498" lon="14.580725008729">
        <ele>449</ele>
        <time>2015-02-05T15:21:34Z</time>
      </trkpt>
      <trkpt lat="61.212913943734" lon="14.580837074732">
        <ele>449.4</ele>
        <time>2015-02-05T15:21:37Z</time>
      </trkpt>
      <trkpt lat="61.212939592348" lon="14.580870350875">
        <ele>449.6</ele>
        <time>2015-02-05T15:21:38Z</time>
      </trkpt>
      <trkpt lat="61.212987117721" lon="14.580908320882">
        <ele>449.8</ele>
        <time>2015-02-05T15:21:40Z</time>
      </trkpt>
      <trkpt lat="61.21305258036" lon="14.580993397167">
        <ele>450</ele>
        <time>2015-02-05T15:21:42Z</time>
      </trkpt>
      <trkpt lat="61.213133800971" lon="14.581103116238">
        <ele>450</ele>
        <time>2015-02-05T15:21:45Z</time>
      </trkpt>
      <trkpt lat="61.213223152025" lon="14.581318195792">
        <ele>450</ele>
        <time>2015-02-05T15:21:49Z</time>
      </trkpt>
      <trkpt lat="61.213308563586" lon="14.581529252034">
        <ele>450</ele>
        <time>2015-02-05T15:21:53Z</time>
      </trkpt>
      <trkpt lat="61.213378217175" lon="14.58176344232">
        <ele>449.6</ele>
        <time>2015-02-05T15:21:58Z</time>
      </trkpt>
      <trkpt lat="61.213404703979" lon="14.581850949356">
        <ele>449.8</ele>
        <time>2015-02-05T15:22:00Z</time>
      </trkpt>
      <trkpt lat="61.213480392536" lon="14.581944658998">
        <ele>450.8</ele>
        <time>2015-02-05T15:22:04Z</time>
      </trkpt>
      <trkpt lat="61.213525738615" lon="14.581964691739">
        <ele>451.4</ele>
        <time>2015-02-05T15:22:06Z</time>
      </trkpt>
      <trkpt lat="61.213590111607" lon="14.58197550439">
        <ele>452.4</ele>
        <time>2015-02-05T15:22:09Z</time>
      </trkpt>
      <trkpt lat="61.213607545959" lon="14.581971564897">
        <ele>452.8</ele>
        <time>2015-02-05T15:22:11Z</time>
      </trkpt>
      <trkpt lat="61.21360997671" lon="14.581981874634">
        <ele>453.6</ele>
        <time>2015-02-05T15:22:14Z</time>
      </trkpt>
      <trkpt lat="61.213757665788" lon="14.58191850747">
        <ele>454.6</ele>
        <time>2015-02-05T15:24:19Z</time>
      </trkpt>
      <trkpt lat="61.21379018756" lon="14.581910460846">
        <ele>454.6</ele>
        <time>2015-02-05T15:24:20Z</time>
      </trkpt>
      <trkpt lat="61.213935781163" lon="14.581925883542">
        <ele>455.8</ele>
        <time>2015-02-05T15:24:26Z</time>
      </trkpt>
      <trkpt lat="61.214034855221" lon="14.58195119688">
        <ele>457.2</ele>
        <time>2015-02-05T15:24:31Z</time>
      </trkpt>
      <trkpt lat="61.214053211582" lon="14.581953627631">
        <ele>457.4</ele>
        <time>2015-02-05T15:24:32Z</time>
      </trkpt>
      <trkpt lat="61.214118590402" lon="14.581995872407">
        <ele>458.4</ele>
        <time>2015-02-05T15:24:35Z</time>
      </trkpt>
      <trkpt lat="61.214245911463" lon="14.582069465489">
        <ele>459.6</ele>
        <time>2015-02-05T15:24:40Z</time>
      </trkpt>
      <trkpt lat="61.214338615277" lon="14.582108189867">
        <ele>460.4</ele>
        <time>2015-02-05T15:24:44Z</time>
      </trkpt>
      <trkpt lat="61.214392175618" lon="14.582108189867">
        <ele>460.6</ele>
        <time>2015-02-05T15:24:46Z</time>
      </trkpt>
      <trkpt lat="61.214497200825" lon="14.582076171009">
        <ele>461.6</ele>
        <time>2015-02-05T15:24:50Z</time>
      </trkpt>
      <trkpt lat="61.214518658489" lon="14.58206435253">
        <ele>461.8</ele>
        <time>2015-02-05T15:24:51Z</time>
      </trkpt>
      <trkpt lat="61.214705574859" lon="14.582061335046">
        <ele>462.8</ele>
        <time>2015-02-05T15:24:56Z</time>
      </trkpt>
      <trkpt lat="61.214745221246" lon="14.582091593705">
        <ele>462.8</ele>
        <time>2015-02-05T15:24:57Z</time>
      </trkpt>
      <trkpt lat="61.214928365761" lon="14.582167701357">
        <ele>461.6</ele>
        <time>2015-02-05T15:25:02Z</time>
      </trkpt>
      <trkpt lat="61.215044203619" lon="14.582152530118">
        <ele>461</ele>
        <time>2015-02-05T15:25:06Z</time>
      </trkpt>
      <trkpt lat="61.215148809731" lon="14.582132162101">
        <ele>461.4</ele>
        <time>2015-02-05T15:25:09Z</time>
      </trkpt>
      <trkpt lat="61.215243525201" lon="14.582078182665">
        <ele>461.6</ele>
        <time>2015-02-05T15:25:13Z</time>
      </trkpt>
      <trkpt lat="61.215309658392" lon="14.582019257908">
        <ele>461.6</ele>
        <time>2015-02-05T15:25:16Z</time>
      </trkpt>
      <trkpt lat="61.215370678624" lon="14.581988161059">
        <ele>463</ele>
        <time>2015-02-05T15:25:19Z</time>
      </trkpt>
      <trkpt lat="61.215386688053" lon="14.581976174942">
        <ele>463.6</ele>
        <time>2015-02-05T15:25:20Z</time>
      </trkpt>
      <trkpt lat="61.215401021102" lon="14.581959494961">
        <ele>464</ele>
        <time>2015-02-05T15:25:21Z</time>
      </trkpt>
      <trkpt lat="61.215426921173" lon="14.581917501642">
        <ele>464.8</ele>
        <time>2015-02-05T15:25:23Z</time>
      </trkpt>
      <trkpt lat="61.215437817643" lon="14.581891517752">
        <ele>465.2</ele>
        <time>2015-02-05T15:25:24Z</time>
      </trkpt>
      <trkpt lat="61.215456341642" lon="14.581835275203">
        <ele>465.6</ele>
        <time>2015-02-05T15:25:26Z</time>
      </trkpt>
      <trkpt lat="61.215473943632" lon="14.581795880273">
        <ele>466.2</ele>
        <time>2015-02-05T15:25:28Z</time>
      </trkpt>
      <trkpt lat="61.215518702978" lon="14.58171063635">
        <ele>467.4</ele>
        <time>2015-02-05T15:25:32Z</time>
      </trkpt>
      <trkpt lat="61.215547536714" lon="14.58168297608">
        <ele>467.8</ele>
        <time>2015-02-05T15:25:34Z</time>
      </trkpt>
      <trkpt lat="61.215623392909" lon="14.581672582524">
        <ele>468.4</ele>
        <time>2015-02-05T15:25:38Z</time>
      </trkpt>
      <trkpt lat="61.215710983764" lon="14.581723879752">
        <ele>469.8</ele>
        <time>2015-02-05T15:25:43Z</time>
      </trkpt>
      <trkpt lat="61.215751468341" lon="14.581758580818">
        <ele>470.4</ele>
        <time>2015-02-05T15:25:46Z</time>
      </trkpt>
      <trkpt lat="61.215761358983" lon="14.58177266241">
        <ele>470.8</ele>
        <time>2015-02-05T15:25:47Z</time>
      </trkpt>
      <trkpt lat="61.215769237969" lon="14.581783475061">
        <ele>470.8</ele>
        <time>2015-02-05T15:25:48Z</time>
      </trkpt>
      <trkpt lat="61.215820954292" lon="14.581832592995">
        <ele>471.8</ele>
        <time>2015-02-05T15:25:52Z</time>
      </trkpt>
      <trkpt lat="61.215845177983" lon="14.581834353194">
        <ele>472.2</ele>
        <time>2015-02-05T15:25:54Z</time>
      </trkpt>
      <trkpt lat="61.215907706957" lon="14.581835191384">
        <ele>472.8</ele>
        <time>2015-02-05T15:25:58Z</time>
      </trkpt>
      <trkpt lat="61.215943413851" lon="14.581833682642">
        <ele>473.2</ele>
        <time>2015-02-05T15:26:00Z</time>
      </trkpt>
      <trkpt lat="61.216041230624" lon="14.581853631564">
        <ele>474</ele>
        <time>2015-02-05T15:26:05Z</time>
      </trkpt>
      <trkpt lat="61.216147680754" lon="14.58184474675">
        <ele>475</ele>
        <time>2015-02-05T15:26:10Z</time>
      </trkpt>
      <trkpt lat="61.216234852514" lon="14.581846171673">
        <ele>475</ele>
        <time>2015-02-05T15:26:13Z</time>
      </trkpt>
      <trkpt lat="61.2162762591" lon="14.581848267148">
        <ele>475</ele>
        <time>2015-02-05T15:26:15Z</time>
      </trkpt>
      <trkpt lat="61.216380529936" lon="14.581845249664">
        <ele>476</ele>
        <time>2015-02-05T15:26:20Z</time>
      </trkpt>
      <trkpt lat="61.216398383383" lon="14.581842902732">
        <ele>476.2</ele>
        <time>2015-02-05T15:26:21Z</time>
      </trkpt>
      <trkpt lat="61.216439035598" lon="14.581858241609">
        <ele>477.4</ele>
        <time>2015-02-05T15:26:24Z</time>
      </trkpt>
      <trkpt lat="61.216506426074" lon="14.581883722585">
        <ele>478.6</ele>
        <time>2015-02-05T15:26:27Z</time>
      </trkpt>
      <trkpt lat="61.21652184877" lon="14.581888835544">
        <ele>479</ele>
        <time>2015-02-05T15:26:28Z</time>
      </trkpt>
      <trkpt lat="61.216564093546" lon="14.581900318747">
        <ele>479.6</ele>
        <time>2015-02-05T15:26:30Z</time>
      </trkpt>
      <trkpt lat="61.21658219845" lon="14.581911215217">
        <ele>479.8</ele>
        <time>2015-02-05T15:26:31Z</time>
      </trkpt>
      <trkpt lat="61.216642212854" lon="14.58194197679">
        <ele>480.6</ele>
        <time>2015-02-05T15:26:34Z</time>
      </trkpt>
      <trkpt lat="61.216667107097" lon="14.581949101405">
        <ele>480.8</ele>
        <time>2015-02-05T15:26:35Z</time>
      </trkpt>
      <trkpt lat="61.21674648369" lon="14.581958489133">
        <ele>481.6</ele>
        <time>2015-02-05T15:26:40Z</time>
      </trkpt>
      <trkpt lat="61.21676995301" lon="14.58195371145">
        <ele>481.6</ele>
        <time>2015-02-05T15:26:41Z</time>
      </trkpt>
      <trkpt lat="61.216850838345" lon="14.581941557695">
        <ele>482.2</ele>
        <time>2015-02-05T15:26:46Z</time>
      </trkpt>
      <trkpt lat="61.21687556495" lon="14.581945748645">
        <ele>482.2</ele>
        <time>2015-02-05T15:26:47Z</time>
      </trkpt>
      <trkpt lat="61.216924599065" lon="14.581942898799">
        <ele>482.4</ele>
        <time>2015-02-05T15:26:50Z</time>
      </trkpt>
      <trkpt lat="61.216944547987" lon="14.581939881315">
        <ele>482.8</ele>
        <time>2015-02-05T15:26:52Z</time>
      </trkpt>
      <trkpt lat="61.216954941543" lon="14.581926134999">
        <ele>483</ele>
        <time>2015-02-05T15:26:53Z</time>
      </trkpt>
      <trkpt lat="61.216989139695" lon="14.581943317894">
        <ele>483.2</ele>
        <time>2015-02-05T15:26:55Z</time>
      </trkpt>
      <trkpt lat="61.217014536852" lon="14.58193359489">
        <ele>483.6</ele>
        <time>2015-02-05T15:26:57Z</time>
      </trkpt>
      <trkpt lat="61.217025684779" lon="14.581934684537">
        <ele>483.8</ele>
        <time>2015-02-05T15:26:58Z</time>
      </trkpt>
      <trkpt lat="61.217035407783" lon="14.581928984845">
        <ele>484</ele>
        <time>2015-02-05T15:26:59Z</time>
      </trkpt>
      <trkpt lat="61.217053009773" lon="14.581929487759">
        <ele>484.4</ele>
        <time>2015-02-05T15:27:01Z</time>
      </trkpt>
      <trkpt lat="61.217079077482" lon="14.581934852175">
        <ele>485</ele>
        <time>2015-02-05T15:27:03Z</time>
      </trkpt>
      <trkpt lat="61.217105899562" lon="14.581955639287">
        <ele>485.6</ele>
        <time>2015-02-05T15:27:05Z</time>
      </trkpt>
      <trkpt lat="61.217120651706" lon="14.581957399486">
        <ele>486.2</ele>
        <time>2015-02-05T15:27:07Z</time>
      </trkpt>
      <trkpt lat="61.21713205109" lon="14.581959662599">
        <ele>486.4</ele>
        <time>2015-02-05T15:27:08Z</time>
      </trkpt>
      <trkpt lat="61.217146887053" lon="14.581952537984">
        <ele>486.8</ele>
        <time>2015-02-05T15:27:10Z</time>
      </trkpt>
      <trkpt lat="61.217165662509" lon="14.581930409768">
        <ele>487.2</ele>
        <time>2015-02-05T15:27:12Z</time>
      </trkpt>
      <trkpt lat="61.21719240077" lon="14.581890595743">
        <ele>487.4</ele>
        <time>2015-02-05T15:27:14Z</time>
      </trkpt>
      <trkpt lat="61.217209751303" lon="14.581851536089">
        <ele>487.8</ele>
        <time>2015-02-05T15:27:16Z</time>
      </trkpt>
      <trkpt lat="61.217213774615" lon="14.581819181955">
        <ele>488.2</ele>
        <time>2015-02-05T15:27:17Z</time>
      </trkpt>
      <trkpt lat="61.217218049384" lon="14.581799400671">
        <ele>488.4</ele>
        <time>2015-02-05T15:27:18Z</time>
      </trkpt>
      <trkpt lat="61.217248224224" lon="14.581742068475">
        <ele>488.8</ele>
        <time>2015-02-05T15:27:20Z</time>
      </trkpt>
      <trkpt lat="61.217290049905" lon="14.581627571721">
        <ele>489.4</ele>
        <time>2015-02-05T15:27:24Z</time>
      </trkpt>
      <trkpt lat="61.217337156183" lon="14.581557666675">
        <ele>490.4</ele>
        <time>2015-02-05T15:27:27Z</time>
      </trkpt>
      <trkpt lat="61.217357691838" lon="14.581511817682">
        <ele>491.2</ele>
        <time>2015-02-05T15:27:29Z</time>
      </trkpt>
      <trkpt lat="61.217371941068" lon="14.581489689466">
        <ele>491.6</ele>
        <time>2015-02-05T15:27:30Z</time>
      </trkpt>
      <trkpt lat="61.217379736235" lon="14.581465465775">
        <ele>492</ele>
        <time>2015-02-05T15:27:31Z</time>
      </trkpt>
      <trkpt lat="61.21739188999" lon="14.581434452745">
        <ele>492.6</ele>
        <time>2015-02-05T15:27:33Z</time>
      </trkpt>
      <trkpt lat="61.217399266062" lon="14.581414252366">
        <ele>492.8</ele>
        <time>2015-02-05T15:27:34Z</time>
      </trkpt>
      <trkpt lat="61.217450228014" lon="14.581305036209">
        <ele>493.6</ele>
        <time>2015-02-05T15:27:39Z</time>
      </trkpt>
      <trkpt lat="61.217456765896" lon="14.581288104771">
        <ele>493.6</ele>
        <time>2015-02-05T15:27:40Z</time>
      </trkpt>
      <trkpt lat="61.217472607687" lon="14.58126388108">
        <ele>493.8</ele>
        <time>2015-02-05T15:27:42Z</time>
      </trkpt>
      <trkpt lat="61.217506554382" lon="14.581237142819">
        <ele>494.6</ele>
        <time>2015-02-05T15:27:45Z</time>
      </trkpt>
      <trkpt lat="61.217518205223" lon="14.581226413987">
        <ele>494.8</ele>
        <time>2015-02-05T15:27:46Z</time>
      </trkpt>
      <trkpt lat="61.217545362579" lon="14.581206465065">
        <ele>495.8</ele>
        <time>2015-02-05T15:27:49Z</time>
      </trkpt>
      <trkpt lat="61.217555756135" lon="14.581198753717">
        <ele>496.2</ele>
        <time>2015-02-05T15:27:50Z</time>
      </trkpt>
      <trkpt lat="61.217590624839" lon="14.581187102876">
        <ele>497</ele>
        <time>2015-02-05T15:27:54Z</time>
      </trkpt>
      <trkpt lat="61.217614932349" lon="14.581189449808">
        <ele>497.4</ele>
        <time>2015-02-05T15:27:56Z</time>
      </trkpt>
      <trkpt lat="61.217622895154" lon="14.581199843364">
        <ele>497.6</ele>
        <time>2015-02-05T15:27:57Z</time>
      </trkpt>
      <trkpt lat="61.21765172889" lon="14.581215768974">
        <ele>498</ele>
        <time>2015-02-05T15:28:00Z</time>
      </trkpt>
      <trkpt lat="61.2176592726" lon="14.581231778403">
        <ele>498.4</ele>
        <time>2015-02-05T15:28:01Z</time>
      </trkpt>
      <trkpt lat="61.217666145758" lon="14.581245273262">
        <ele>498.4</ele>
        <time>2015-02-05T15:28:02Z</time>
      </trkpt>
      <trkpt lat="61.217677964237" lon="14.581308053693">
        <ele>499.2</ele>
        <time>2015-02-05T15:28:05Z</time>
      </trkpt>
      <trkpt lat="61.217701601195" lon="14.581410145235">
        <ele>499.8</ele>
        <time>2015-02-05T15:28:08Z</time>
      </trkpt>
      <trkpt lat="61.217723142678" lon="14.58147510496">
        <ele>500.2</ele>
        <time>2015-02-05T15:28:10Z</time>
      </trkpt>
      <trkpt lat="61.21774141522" lon="14.581500083022">
        <ele>500.6</ele>
        <time>2015-02-05T15:28:12Z</time>
      </trkpt>
      <trkpt lat="61.2178185287" lon="14.581593038293">
        <ele>501.4</ele>
        <time>2015-02-05T15:28:16Z</time>
      </trkpt>
      <trkpt lat="61.217835627776" lon="14.581620530925">
        <ele>501.6</ele>
        <time>2015-02-05T15:28:17Z</time>
      </trkpt>
      <trkpt lat="61.217908969401" lon="14.581690771247">
        <ele>502.4</ele>
        <time>2015-02-05T15:28:21Z</time>
      </trkpt>
      <trkpt lat="61.217945682123" lon="14.581694878378">
        <ele>503</ele>
        <time>2015-02-05T15:28:23Z</time>
      </trkpt>
      <trkpt lat="61.217989435641" lon="14.58167124142">
        <ele>503.4</ele>
        <time>2015-02-05T15:28:25Z</time>
      </trkpt>
      <trkpt lat="61.218043834172" lon="14.581637797639">
        <ele>504</ele>
        <time>2015-02-05T15:28:28Z</time>
      </trkpt>
      <trkpt lat="61.218149110836" lon="14.581596391053">
        <ele>504.8</ele>
        <time>2015-02-05T15:28:33Z</time>
      </trkpt>
      <trkpt lat="61.218254219862" lon="14.581558337227">
        <ele>505.4</ele>
        <time>2015-02-05T15:28:38Z</time>
      </trkpt>
      <trkpt lat="61.218280287571" lon="14.581556828485">
        <ele>505.8</ele>
        <time>2015-02-05T15:28:40Z</time>
      </trkpt>
      <trkpt lat="61.21834407383" lon="14.581542243979">
        <ele>506.4</ele>
        <time>2015-02-05T15:28:43Z</time>
      </trkpt>
      <trkpt lat="61.218391263927" lon="14.58152288179">
        <ele>506.8</ele>
        <time>2015-02-05T15:28:46Z</time>
      </trkpt>
      <trkpt lat="61.218437615834" lon="14.58150192704">
        <ele>507</ele>
        <time>2015-02-05T15:28:48Z</time>
      </trkpt>
      <trkpt lat="61.218495702401" lon="14.581446019767">
        <ele>508</ele>
        <time>2015-02-05T15:28:51Z</time>
      </trkpt>
      <trkpt lat="61.21856367961" lon="14.58141475528">
        <ele>508.4</ele>
        <time>2015-02-05T15:28:54Z</time>
      </trkpt>
      <trkpt lat="61.218606092024" lon="14.581395141634">
        <ele>509</ele>
        <time>2015-02-05T15:28:56Z</time>
      </trkpt>
      <trkpt lat="61.218660993469" lon="14.581386424458">
        <ele>510</ele>
        <time>2015-02-05T15:28:59Z</time>
      </trkpt>
      <trkpt lat="61.218737939311" lon="14.581387430286">
        <ele>511.2</ele>
        <time>2015-02-05T15:29:03Z</time>
      </trkpt>
      <trkpt lat="61.218753781102" lon="14.581387178829">
        <ele>511.4</ele>
        <time>2015-02-05T15:29:04Z</time>
      </trkpt>
      <trkpt lat="61.218812035307" lon="14.581370415029">
        <ele>512.4</ele>
        <time>2015-02-05T15:29:08Z</time>
      </trkpt>
      <trkpt lat="61.218866014743" lon="14.581342419483">
        <ele>513.2</ele>
        <time>2015-02-05T15:29:11Z</time>
      </trkpt>
      <trkpt lat="61.21890314656" lon="14.581290367884">
        <ele>513.4</ele>
        <time>2015-02-05T15:29:13Z</time>
      </trkpt>
      <trkpt lat="61.21894254149" lon="14.581221803942">
        <ele>513.6</ele>
        <time>2015-02-05T15:29:15Z</time>
      </trkpt>
      <trkpt lat="61.219084614695" lon="14.581158017683">
        <ele>512.6</ele>
        <time>2015-02-05T15:29:19Z</time>
      </trkpt>
      <trkpt lat="61.219121243598" lon="14.581148462317">
        <ele>512.2</ele>
        <time>2015-02-05T15:29:20Z</time>
      </trkpt>
      <trkpt lat="61.219244373709" lon="14.581133710173">
        <ele>511.8</ele>
        <time>2015-02-05T15:29:24Z</time>
      </trkpt>
      <trkpt lat="61.219353589866" lon="14.581193724577">
        <ele>511.8</ele>
        <time>2015-02-05T15:29:29Z</time>
      </trkpt>
      <trkpt lat="61.219429194604" lon="14.581114264165">
        <ele>512.6</ele>
        <time>2015-02-05T15:29:33Z</time>
      </trkpt>
      <trkpt lat="61.219433888468" lon="14.581092303587">
        <ele>512.8</ele>
        <time>2015-02-05T15:29:34Z</time>
      </trkpt>
      <trkpt lat="61.219453250657" lon="14.580943441043">
        <ele>512.8</ele>
        <time>2015-02-05T15:29:37Z</time>
      </trkpt>
      <trkpt lat="61.219460291453" lon="14.580799691458">
        <ele>512.8</ele>
        <time>2015-02-05T15:29:40Z</time>
      </trkpt>
      <trkpt lat="61.219461045824" lon="14.580695839717">
        <ele>513.2</ele>
        <time>2015-02-05T15:29:42Z</time>
      </trkpt>
      <trkpt lat="61.219445204033" lon="14.580536667436">
        <ele>513.8</ele>
        <time>2015-02-05T15:29:45Z</time>
      </trkpt>
      <trkpt lat="61.219389883493" lon="14.580326114108">
        <ele>513.4</ele>
        <time>2015-02-05T15:29:49Z</time>
      </trkpt>
      <trkpt lat="61.219312099461" lon="14.580217987598">
        <ele>512.4</ele>
        <time>2015-02-05T15:29:53Z</time>
      </trkpt>
      <trkpt lat="61.219288797779" lon="14.580221340358">
        <ele>512.2</ele>
        <time>2015-02-05T15:29:54Z</time>
      </trkpt>
      <trkpt lat="61.21920824772" lon="14.580197200486">
        <ele>511.8</ele>
        <time>2015-02-05T15:29:57Z</time>
      </trkpt>
      <trkpt lat="61.219129876955" lon="14.580082787551">
        <ele>512.4</ele>
        <time>2015-02-05T15:30:01Z</time>
      </trkpt>
      <trkpt lat="61.219032144001" lon="14.57989008767">
        <ele>513.4</ele>
        <time>2015-02-05T15:30:05Z</time>
      </trkpt>
      <trkpt lat="61.219002723532" lon="14.579842729935">
        <ele>513.4</ele>
        <time>2015-02-05T15:30:06Z</time>
      </trkpt>
      <trkpt lat="61.218850172952" lon="14.579692777744">
        <ele>512.6</ele>
        <time>2015-02-05T15:30:10Z</time>
      </trkpt>
      <trkpt lat="61.218804407778" lon="14.579607030907">
        <ele>512.2</ele>
        <time>2015-02-05T15:30:11Z</time>
      </trkpt>
      <trkpt lat="61.218709021756" lon="14.579451127567">
        <ele>511.4</ele>
        <time>2015-02-05T15:30:13Z</time>
      </trkpt>
      <trkpt lat="61.218658059804" lon="14.57939974652">
        <ele>510.8</ele>
        <time>2015-02-05T15:30:14Z</time>
      </trkpt>
      <trkpt lat="61.218545909982" lon="14.579313161493">
        <ele>509.4</ele>
        <time>2015-02-05T15:30:16Z</time>
      </trkpt>
      <trkpt lat="61.21848405156" lon="14.579273515106">
        <ele>509</ele>
        <time>2015-02-05T15:30:17Z</time>
      </trkpt>
      <trkpt lat="61.218431664685" lon="14.579223475163">
        <ele>508.4</ele>
        <time>2015-02-05T15:30:18Z</time>
      </trkpt>
      <trkpt lat="61.218387492072" lon="14.579175782152">
        <ele>508</ele>
        <time>2015-02-05T15:30:19Z</time>
      </trkpt>
      <trkpt lat="61.218302583425" lon="14.579014011482">
        <ele>507.4</ele>
        <time>2015-02-05T15:30:21Z</time>
      </trkpt>
      <trkpt lat="61.218277353906" lon="14.578933126147">
        <ele>506.8</ele>
        <time>2015-02-05T15:30:22Z</time>
      </trkpt>
      <trkpt lat="61.218250448007" lon="14.578846876396">
        <ele>506.6</ele>
        <time>2015-02-05T15:30:23Z</time>
      </trkpt>
      <trkpt lat="61.218179285676" lon="14.578637245077">
        <ele>506.6</ele>
        <time>2015-02-05T15:30:26Z</time>
      </trkpt>
      <trkpt lat="61.218149362293" lon="14.578438426409">
        <ele>507</ele>
        <time>2015-02-05T15:30:29Z</time>
      </trkpt>
      <trkpt lat="61.218144836067" lon="14.578381513308">
        <ele>507.2</ele>
        <time>2015-02-05T15:30:30Z</time>
      </trkpt>
      <trkpt lat="61.218181045875" lon="14.57820951672">
        <ele>507.6</ele>
        <time>2015-02-05T15:30:33Z</time>
      </trkpt>
      <trkpt lat="61.218212645638" lon="14.578106670807">
        <ele>507.8</ele>
        <time>2015-02-05T15:30:35Z</time>
      </trkpt>
      <trkpt lat="61.218249190722" lon="14.578030646974">
        <ele>508.2</ele>
        <time>2015-02-05T15:30:37Z</time>
      </trkpt>
      <trkpt lat="61.218323789632" lon="14.577999801582">
        <ele>508.8</ele>
        <time>2015-02-05T15:30:41Z</time>
      </trkpt>
      <trkpt lat="61.21835580849" lon="14.577992174053">
        <ele>509</ele>
        <time>2015-02-05T15:30:42Z</time>
      </trkpt>
      <trkpt lat="61.218441974422" lon="14.577968788552">
        <ele>509.8</ele>
        <time>2015-02-05T15:30:45Z</time>
      </trkpt>
      <trkpt lat="61.218494445116" lon="14.577969291466">
        <ele>510.2</ele>
        <time>2015-02-05T15:30:47Z</time>
      </trkpt>
      <trkpt lat="61.218569798397" lon="14.57794381049">
        <ele>510.4</ele>
        <time>2015-02-05T15:30:50Z</time>
      </trkpt>
      <trkpt lat="61.218760738079" lon="14.577906008121">
        <ele>511</ele>
        <time>2015-02-05T15:30:55Z</time>
      </trkpt>
      <trkpt lat="61.218963160964" lon="14.577808442805">
        <ele>509</ele>
        <time>2015-02-05T15:30:59Z</time>
      </trkpt>
      <trkpt lat="61.219041531729" lon="14.577670057636">
        <ele>507.8</ele>
        <time>2015-02-05T15:31:01Z</time>
      </trkpt>
      <trkpt lat="61.219060893918" lon="14.577599649676">
        <ele>507.4</ele>
        <time>2015-02-05T15:31:02Z</time>
      </trkpt>
      <trkpt lat="61.219085117609" lon="14.577434526246">
        <ele>507.2</ele>
        <time>2015-02-05T15:31:05Z</time>
      </trkpt>
      <trkpt lat="61.219091404034" lon="14.577375350032">
        <ele>507.6</ele>
        <time>2015-02-05T15:31:06Z</time>
      </trkpt>
      <trkpt lat="61.21913616338" lon="14.577162030677">
        <ele>509.2</ele>
        <time>2015-02-05T15:31:11Z</time>
      </trkpt>
      <trkpt lat="61.219182934382" lon="14.576915938093">
        <ele>509.4</ele>
        <time>2015-02-05T15:31:15Z</time>
      </trkpt>
      <trkpt lat="61.219238254922" lon="14.576681663988">
        <ele>509.4</ele>
        <time>2015-02-05T15:31:19Z</time>
      </trkpt>
      <trkpt lat="61.219294413652" lon="14.576428111513">
        <ele>508.6</ele>
        <time>2015-02-05T15:31:23Z</time>
      </trkpt>
      <trkpt lat="61.219335484962" lon="14.576315374958">
        <ele>508.6</ele>
        <time>2015-02-05T15:31:25Z</time>
      </trkpt>
      <trkpt lat="61.219361971766" lon="14.576275980028">
        <ele>508.8</ele>
        <time>2015-02-05T15:31:26Z</time>
      </trkpt>
      <trkpt lat="61.219505553713" lon="14.576064337053">
        <ele>508.6</ele>
        <time>2015-02-05T15:31:30Z</time>
      </trkpt>
      <trkpt lat="61.219591635826" lon="14.57586174653">
        <ele>508.6</ele>
        <time>2015-02-05T15:31:34Z</time>
      </trkpt>
      <trkpt lat="61.219718370154" lon="14.575629819357">
        <ele>508.4</ele>
        <time>2015-02-05T15:31:39Z</time>
      </trkpt>
      <trkpt lat="61.219832280175" lon="14.575450111421">
        <ele>508.8</ele>
        <time>2015-02-05T15:31:44Z</time>
      </trkpt>
      <trkpt lat="61.219924229618" lon="14.575302170886">
        <ele>509.4</ele>
        <time>2015-02-05T15:31:48Z</time>
      </trkpt>
      <trkpt lat="61.219983154375" lon="14.575288927484">
        <ele>509.6</ele>
        <time>2015-02-05T15:31:50Z</time>
      </trkpt>
      <trkpt lat="61.220046940634" lon="14.575275432625">
        <ele>509.6</ele>
        <time>2015-02-05T15:31:52Z</time>
      </trkpt>
      <trkpt lat="61.220078372759" lon="14.575247772355">
        <ele>509.4</ele>
        <time>2015-02-05T15:31:53Z</time>
      </trkpt>
      <trkpt lat="61.220107457952" lon="14.575197480955">
        <ele>509.2</ele>
        <time>2015-02-05T15:31:54Z</time>
      </trkpt>
      <trkpt lat="61.220155821515" lon="14.574983658686">
        <ele>507.8</ele>
        <time>2015-02-05T15:31:58Z</time>
      </trkpt>
      <trkpt lat="61.220191193133" lon="14.574802106732">
        <ele>507.6</ele>
        <time>2015-02-05T15:32:02Z</time>
      </trkpt>
      <trkpt lat="61.220202173422" lon="14.574765896924">
        <ele>507.8</ele>
        <time>2015-02-05T15:32:03Z</time>
      </trkpt>
      <trkpt lat="61.220206699648" lon="14.574670846178">
        <ele>508.8</ele>
        <time>2015-02-05T15:32:07Z</time>
      </trkpt>
      <trkpt lat="61.220207873114" lon="14.574642599175">
        <ele>509</ele>
        <time>2015-02-05T15:32:08Z</time>
      </trkpt>
      <trkpt lat="61.220193540065" lon="14.574463142696">
        <ele>510</ele>
        <time>2015-02-05T15:32:12Z</time>
      </trkpt>
      <trkpt lat="61.220208711304" lon="14.574384269017">
        <ele>510.6</ele>
        <time>2015-02-05T15:32:14Z</time>
      </trkpt>
      <trkpt lat="61.220222709077" lon="14.574345544639">
        <ele>510.6</ele>
        <time>2015-02-05T15:32:15Z</time>
      </trkpt>
      <trkpt lat="61.220241233076" lon="14.574272119195">
        <ele>511.2</ele>
        <time>2015-02-05T15:32:17Z</time>
      </trkpt>
      <trkpt lat="61.220257829238" lon="14.574243536916">
        <ele>511.2</ele>
        <time>2015-02-05T15:32:18Z</time>
      </trkpt>
      <trkpt lat="61.220292195028" lon="14.574177739001">
        <ele>511.6</ele>
        <time>2015-02-05T15:32:20Z</time>
      </trkpt>
      <trkpt lat="61.220313317416" lon="14.574101379892">
        <ele>511.8</ele>
        <time>2015-02-05T15:32:22Z</time>
      </trkpt>
      <trkpt lat="61.220331254682" lon="14.574031055751">
        <ele>511.6</ele>
        <time>2015-02-05T15:32:24Z</time>
      </trkpt>
      <trkpt lat="61.220341983514" lon="14.57394229143">
        <ele>512</ele>
        <time>2015-02-05T15:32:26Z</time>
      </trkpt>
      <trkpt lat="61.220348269939" lon="14.573907590364">
        <ele>512.2</ele>
        <time>2015-02-05T15:32:27Z</time>
      </trkpt>
      <trkpt lat="61.220356232744" lon="14.573873224574">
        <ele>512.4</ele>
        <time>2015-02-05T15:32:28Z</time>
      </trkpt>
      <trkpt lat="61.220385485575" lon="14.57376962429">
        <ele>513.4</ele>
        <time>2015-02-05T15:32:31Z</time>
      </trkpt>
      <trkpt lat="61.220403758117" lon="14.573709190791">
        <ele>513.8</ele>
        <time>2015-02-05T15:32:33Z</time>
      </trkpt>
      <trkpt lat="61.220427227437" lon="14.573613804769">
        <ele>514.4</ele>
        <time>2015-02-05T15:32:36Z</time>
      </trkpt>
      <trkpt lat="61.22043703426" lon="14.573581199178">
        <ele>514.6</ele>
        <time>2015-02-05T15:32:37Z</time>
      </trkpt>
      <trkpt lat="61.22044960711" lon="14.573543564447">
        <ele>514.6</ele>
        <time>2015-02-05T15:32:38Z</time>
      </trkpt>
      <trkpt lat="61.220504340917" lon="14.573429570607">
        <ele>515.2</ele>
        <time>2015-02-05T15:32:41Z</time>
      </trkpt>
      <trkpt lat="61.22054432258" lon="14.573327730522">
        <ele>515.6</ele>
        <time>2015-02-05T15:32:44Z</time>
      </trkpt>
      <trkpt lat="61.220566786072" lon="14.57325916658">
        <ele>515.8</ele>
        <time>2015-02-05T15:32:46Z</time>
      </trkpt>
      <trkpt lat="61.220587237908" lon="14.573169396431">
        <ele>516.4</ele>
        <time>2015-02-05T15:32:49Z</time>
      </trkpt>
      <trkpt lat="61.220587405546" lon="14.573148776957">
        <ele>516.6</ele>
        <time>2015-02-05T15:32:50Z</time>
      </trkpt>
      <trkpt lat="61.220589417202" lon="14.573113992072">
        <ele>517</ele>
        <time>2015-02-05T15:32:51Z</time>
      </trkpt>
      <trkpt lat="61.220592769962" lon="14.57305045727">
        <ele>517.8</ele>
        <time>2015-02-05T15:32:54Z</time>
      </trkpt>
      <trkpt lat="61.22059042303" lon="14.573015337109">
        <ele>518.2</ele>
        <time>2015-02-05T15:32:56Z</time>
      </trkpt>
      <trkpt lat="61.220584471881" lon="14.572950209746">
        <ele>518.8</ele>
        <time>2015-02-05T15:32:59Z</time>
      </trkpt>
      <trkpt lat="61.220569719737" lon="14.57288449565">
        <ele>519.2</ele>
        <time>2015-02-05T15:33:02Z</time>
      </trkpt>
      <trkpt lat="61.220546418055" lon="14.572816099346">
        <ele>519.8</ele>
        <time>2015-02-05T15:33:05Z</time>
      </trkpt>
      <trkpt lat="61.220548345892" lon="14.572813500957">
        <ele>520</ele>
        <time>2015-02-05T15:33:06Z</time>
      </trkpt>
      <trkpt lat="61.220513896283" lon="14.572751893992">
        <ele>520.8</ele>
        <time>2015-02-05T15:33:11Z</time>
      </trkpt>
      <trkpt lat="61.220505598202" lon="14.572736806572">
        <ele>521</ele>
        <time>2015-02-05T15:33:12Z</time>
      </trkpt>
      <trkpt lat="61.220496461931" lon="14.572727921758">
        <ele>521.6</ele>
        <time>2015-02-05T15:33:14Z</time>
      </trkpt>
      <trkpt lat="61.220486152194" lon="14.572723479351">
        <ele>522</ele>
        <time>2015-02-05T15:33:16Z</time>
      </trkpt>
      <trkpt lat="61.220445499979" lon="14.572715432727">
        <ele>523</ele>
        <time>2015-02-05T15:33:21Z</time>
      </trkpt>
      <trkpt lat="61.220447260178" lon="14.572717947297">
        <ele>523.4</ele>
        <time>2015-02-05T15:33:22Z</time>
      </trkpt>
      <trkpt lat="61.220427897989" lon="14.572710403587">
        <ele>524.2</ele>
        <time>2015-02-05T15:33:25Z</time>
      </trkpt>
      <trkpt lat="61.219884583231" lon="14.573010810883">
        <ele>536.4</ele>
        <time>2015-02-05T15:35:49Z</time>
      </trkpt>
      <trkpt lat="61.219848205785" lon="14.573048529433">
        <ele>536.6</ele>
        <time>2015-02-05T15:35:51Z</time>
      </trkpt>
      <trkpt lat="61.219753490315" lon="14.573077111712">
        <ele>537.2</ele>
        <time>2015-02-05T15:35:56Z</time>
      </trkpt>
      <trkpt lat="61.219677298844" lon="14.573083733413">
        <ele>537.4</ele>
        <time>2015-02-05T15:35:59Z</time>
      </trkpt>
      <trkpt lat="61.219645363805" lon="14.573100916308">
        <ele>537.4</ele>
        <time>2015-02-05T15:36:00Z</time>
      </trkpt>
      <trkpt lat="61.219532711069" lon="14.573148106405">
        <ele>537.8</ele>
        <time>2015-02-05T15:36:03Z</time>
      </trkpt>
      <trkpt lat="61.219376220996" lon="14.57321306613">
        <ele>538</ele>
        <time>2015-02-05T15:36:08Z</time>
      </trkpt>
      <trkpt lat="61.219357864635" lon="14.573197643434">
        <ele>538</ele>
        <time>2015-02-05T15:36:09Z</time>
      </trkpt>
      <trkpt lat="61.219289216874" lon="14.573174677028">
        <ele>537.8</ele>
        <time>2015-02-05T15:36:12Z</time>
      </trkpt>
      <trkpt lat="61.219251330686" lon="14.573174760847">
        <ele>538.4</ele>
        <time>2015-02-05T15:36:16Z</time>
      </trkpt>
      <trkpt lat="61.219254264351" lon="14.573176269589">
        <ele>538.8</ele>
        <time>2015-02-05T15:36:17Z</time>
      </trkpt>
      <trkpt lat="61.21925015722" lon="14.573193955398">
        <ele>539.2</ele>
        <time>2015-02-05T15:36:18Z</time>
      </trkpt>
      <trkpt lat="61.219043040471" lon="14.573192279018">
        <ele>539.6</ele>
        <time>2015-02-05T15:37:09Z</time>
      </trkpt>
      <trkpt lat="61.219002639713" lon="14.573205606239">
        <ele>539.2</ele>
        <time>2015-02-05T15:37:10Z</time>
      </trkpt>
      <trkpt lat="61.218843970346" lon="14.573197643434">
        <ele>538.2</ele>
        <time>2015-02-05T15:37:13Z</time>
      </trkpt>
      <trkpt lat="61.218786721969" lon="14.573184986765">
        <ele>538</ele>
        <time>2015-02-05T15:37:14Z</time>
      </trkpt>
      <trkpt lat="61.218724360633" lon="14.573168306784">
        <ele>537.6</ele>
        <time>2015-02-05T15:37:15Z</time>
      </trkpt>
      <trkpt lat="61.218527134526" lon="14.573125559094">
        <ele>536.8</ele>
        <time>2015-02-05T15:37:18Z</time>
      </trkpt>
      <trkpt lat="61.218463180629" lon="14.573107118914">
        <ele>536.4</ele>
        <time>2015-02-05T15:37:19Z</time>
      </trkpt>
      <trkpt lat="61.2183968798" lon="14.573096725358">
        <ele>535.4</ele>
        <time>2015-02-05T15:37:20Z</time>
      </trkpt>
      <trkpt lat="61.21833988288" lon="14.573116255185">
        <ele>534.6</ele>
        <time>2015-02-05T15:37:21Z</time>
      </trkpt>
      <trkpt lat="61.218298476294" lon="14.57316109835">
        <ele>533.8</ele>
        <time>2015-02-05T15:37:22Z</time>
      </trkpt>
      <trkpt lat="61.218263691409" lon="14.573232260681">
        <ele>533</ele>
        <time>2015-02-05T15:37:23Z</time>
      </trkpt>
      <trkpt lat="61.218220273167" lon="14.57337064585">
        <ele>532</ele>
        <time>2015-02-05T15:37:25Z</time>
      </trkpt>
      <trkpt lat="61.218199318417" lon="14.573433258643">
        <ele>531.6</ele>
        <time>2015-02-05T15:37:26Z</time>
      </trkpt>
      <trkpt lat="61.218172747794" lon="14.573489920287">
        <ele>530.8</ele>
        <time>2015-02-05T15:37:27Z</time>
      </trkpt>
      <trkpt lat="61.218115331779" lon="14.573567704319">
        <ele>530.4</ele>
        <time>2015-02-05T15:37:29Z</time>
      </trkpt>
      <trkpt lat="61.218031848055" lon="14.573748250445">
        <ele>530.8</ele>
        <time>2015-02-05T15:37:32Z</time>
      </trkpt>
      <trkpt lat="61.217948029055" lon="14.573952265891">
        <ele>530.4</ele>
        <time>2015-02-05T15:37:36Z</time>
      </trkpt>
      <trkpt lat="61.217838309984" lon="14.574146306876">
        <ele>531</ele>
        <time>2015-02-05T15:37:40Z</time>
      </trkpt>
      <trkpt lat="61.217743007781" lon="14.574103559186">
        <ele>530.4</ele>
        <time>2015-02-05T15:37:43Z</time>
      </trkpt>
      <trkpt lat="61.217686262318" lon="14.573964671103">
        <ele>529.2</ele>
        <time>2015-02-05T15:37:45Z</time>
      </trkpt>
      <trkpt lat="61.217661870989" lon="14.573875487687">
        <ele>528.8</ele>
        <time>2015-02-05T15:37:46Z</time>
      </trkpt>
      <trkpt lat="61.217653908184" lon="14.573610619647">
        <ele>527.8</ele>
        <time>2015-02-05T15:37:49Z</time>
      </trkpt>
      <trkpt lat="61.217692548743" lon="14.573504504793">
        <ele>527.2</ele>
        <time>2015-02-05T15:37:53Z</time>
      </trkpt>
      <trkpt lat="61.217690537087" lon="14.573499308015">
        <ele>527.2</ele>
        <time>2015-02-05T15:37:54Z</time>
      </trkpt>
      <trkpt lat="61.217693889847" lon="14.573495787617">
        <ele>527.4</ele>
        <time>2015-02-05T15:37:55Z</time>
      </trkpt>
      <trkpt lat="61.217710318371" lon="14.573129666225">
        <ele>526.4</ele>
        <time>2015-02-05T15:38:48Z</time>
      </trkpt>
      <trkpt lat="61.217696404417" lon="14.573035788945">
        <ele>526.2</ele>
        <time>2015-02-05T15:38:49Z</time>
      </trkpt>
      <trkpt lat="61.217724986696" lon="14.5727378124">
        <ele>525.6</ele>
        <time>2015-02-05T15:38:52Z</time>
      </trkpt>
      <trkpt lat="61.217732949501" lon="14.572642594016">
        <ele>525.2</ele>
        <time>2015-02-05T15:38:53Z</time>
      </trkpt>
      <trkpt lat="61.217729261465" lon="14.572439081484">
        <ele>524.4</ele>
        <time>2015-02-05T15:38:55Z</time>
      </trkpt>
      <trkpt lat="61.217731608397" lon="14.57233296663">
        <ele>524</ele>
        <time>2015-02-05T15:38:56Z</time>
      </trkpt>
      <trkpt lat="61.217779636684" lon="14.572071618988">
        <ele>523.4</ele>
        <time>2015-02-05T15:38:59Z</time>
      </trkpt>
      <trkpt lat="61.217896983284" lon="14.571906160282">
        <ele>523</ele>
        <time>2015-02-05T15:39:03Z</time>
      </trkpt>
      <trkpt lat="61.217952806738" lon="14.571835668503">
        <ele>523</ele>
        <time>2015-02-05T15:39:05Z</time>
      </trkpt>
      <trkpt lat="61.218018269377" lon="14.57170600051">
        <ele>524</ele>
        <time>2015-02-05T15:39:08Z</time>
      </trkpt>
      <trkpt lat="61.21813117357" lon="14.571506595109">
        <ele>524.2</ele>
        <time>2015-02-05T15:39:13Z</time>
      </trkpt>
      <trkpt lat="61.218242233745" lon="14.57135228433">
        <ele>525.2</ele>
        <time>2015-02-05T15:39:17Z</time>
      </trkpt>
      <trkpt lat="61.218272073309" lon="14.571308195536">
        <ele>525.2</ele>
        <time>2015-02-05T15:39:18Z</time>
      </trkpt>
      <trkpt lat="61.218288166557" lon="14.571256898308">
        <ele>525.4</ele>
        <time>2015-02-05T15:39:19Z</time>
      </trkpt>
      <trkpt lat="61.218339799061" lon="14.571086494281">
        <ele>526</ele>
        <time>2015-02-05T15:39:22Z</time>
      </trkpt>
      <trkpt lat="61.218412470134" lon="14.570759600181">
        <ele>526</ele>
        <time>2015-02-05T15:39:26Z</time>
      </trkpt>
      <trkpt lat="61.218542389584" lon="14.570503281679">
        <ele>525.2</ele>
        <time>2015-02-05T15:39:30Z</time>
      </trkpt>
      <trkpt lat="61.218615144476" lon="14.57035064728">
        <ele>525.2</ele>
        <time>2015-02-05T15:39:33Z</time>
      </trkpt>
      <trkpt lat="61.218627298231" lon="14.570318125508">
        <ele>525.6</ele>
        <time>2015-02-05T15:39:34Z</time>
      </trkpt>
      <trkpt lat="61.218680858572" lon="14.570056610228">
        <ele>525.6</ele>
        <time>2015-02-05T15:39:38Z</time>
      </trkpt>
      <trkpt lat="61.218815890981" lon="14.569876986111">
        <ele>525.6</ele>
        <time>2015-02-05T15:39:43Z</time>
      </trkpt>
      <trkpt lat="61.218910522632" lon="14.56973625401">
        <ele>526</ele>
        <time>2015-02-05T15:39:47Z</time>
      </trkpt>
      <trkpt lat="61.218933656676" lon="14.569703396962">
        <ele>526.4</ele>
        <time>2015-02-05T15:39:48Z</time>
      </trkpt>
      <trkpt lat="61.219059552814" lon="14.569656290684">
        <ele>526.8</ele>
        <time>2015-02-05T15:39:52Z</time>
      </trkpt>
      <trkpt lat="61.219147395126" lon="14.569670791371">
        <ele>527.4</ele>
        <time>2015-02-05T15:39:55Z</time>
      </trkpt>
      <trkpt lat="61.219234650705" lon="14.569697613451">
        <ele>528.4</ele>
        <time>2015-02-05T15:39:58Z</time>
      </trkpt>
      <trkpt lat="61.21927027378" lon="14.569721250409">
        <ele>528.4</ele>
        <time>2015-02-05T15:39:59Z</time>
      </trkpt>
      <trkpt lat="61.219360211567" lon="14.569778666424">
        <ele>529</ele>
        <time>2015-02-05T15:40:02Z</time>
      </trkpt>
      <trkpt lat="61.219468254258" lon="14.569838597009">
        <ele>528.8</ele>
        <time>2015-02-05T15:40:06Z</time>
      </trkpt>
      <trkpt lat="61.219520557314" lon="14.569843458511">
        <ele>529</ele>
        <time>2015-02-05T15:40:08Z</time>
      </trkpt>
      <trkpt lat="61.219657852836" lon="14.569863239795">
        <ele>529.4</ele>
        <time>2015-02-05T15:40:13Z</time>
      </trkpt>
      <trkpt lat="61.219834040374" lon="14.56991981762">
        <ele>530.4</ele>
        <time>2015-02-05T15:40:19Z</time>
      </trkpt>
      <trkpt lat="61.219863879938" lon="14.569911938634">
        <ele>530.6</ele>
        <time>2015-02-05T15:40:20Z</time>
      </trkpt>
      <trkpt lat="61.219932024785" lon="14.56987539355">
        <ele>530.8</ele>
        <time>2015-02-05T15:40:23Z</time>
      </trkpt>
      <trkpt lat="61.220039648381" lon="14.569719238753">
        <ele>531.6</ele>
        <time>2015-02-05T15:40:28Z</time>
      </trkpt>
      <trkpt lat="61.220062028054" lon="14.569690405017">
        <ele>531.8</ele>
        <time>2015-02-05T15:40:29Z</time>
      </trkpt>
      <trkpt lat="61.220126484865" lon="14.569574734797">
        <ele>532.4</ele>
        <time>2015-02-05T15:40:32Z</time>
      </trkpt>
      <trkpt lat="61.220237377402" lon="14.569338365217">
        <ele>532.2</ele>
        <time>2015-02-05T15:40:37Z</time>
      </trkpt>
      <trkpt lat="61.220317759823" lon="14.569157232358">
        <ele>532.2</ele>
        <time>2015-02-05T15:40:41Z</time>
      </trkpt>
      <trkpt lat="61.22040183028" lon="14.568821872539">
        <ele>532.2</ele>
        <time>2015-02-05T15:40:47Z</time>
      </trkpt>
      <trkpt lat="61.220438543002" lon="14.568644511535">
        <ele>532.8</ele>
        <time>2015-02-05T15:40:50Z</time>
      </trkpt>
      <trkpt lat="61.220450612938" lon="14.568536385025">
        <ele>532.8</ele>
        <time>2015-02-05T15:40:52Z</time>
      </trkpt>
      <trkpt lat="61.220490426963" lon="14.568241425964">
        <ele>532.8</ele>
        <time>2015-02-05T15:40:58Z</time>
      </trkpt>
      <trkpt lat="61.220507609858" lon="14.567906988154">
        <ele>533.4</ele>
        <time>2015-02-05T15:41:03Z</time>
      </trkpt>
      <trkpt lat="61.220511549351" lon="14.567784444776">
        <ele>533.6</ele>
        <time>2015-02-05T15:41:05Z</time>
      </trkpt>
      <trkpt lat="61.220515740301" lon="14.567708001848">
        <ele>533.6</ele>
        <time>2015-02-05T15:41:06Z</time>
      </trkpt>
      <trkpt lat="61.220524457477" lon="14.567440786876">
        <ele>532.8</ele>
        <time>2015-02-05T15:41:10Z</time>
      </trkpt>
      <trkpt lat="61.220539125802" lon="14.567394183512">
        <ele>532.6</ele>
        <time>2015-02-05T15:41:11Z</time>
      </trkpt>
      <trkpt lat="61.220586315899" lon="14.567229562996">
        <ele>533</ele>
        <time>2015-02-05T15:41:14Z</time>
      </trkpt>
      <trkpt lat="61.220656388583" lon="14.566967963897">
        <ele>533.8</ele>
        <time>2015-02-05T15:41:18Z</time>
      </trkpt>
      <trkpt lat="61.220738866479" lon="14.566574182235">
        <ele>533.6</ele>
        <time>2015-02-05T15:41:23Z</time>
      </trkpt>
      <trkpt lat="61.220796282494" lon="14.566295148784">
        <ele>533.6</ele>
        <time>2015-02-05T15:41:27Z</time>
      </trkpt>
      <trkpt lat="61.220853782328" lon="14.566113513011">
        <ele>533.8</ele>
        <time>2015-02-05T15:41:30Z</time>
      </trkpt>
      <trkpt lat="61.220874485621" lon="14.566057773376">
        <ele>533.8</ele>
        <time>2015-02-05T15:41:31Z</time>
      </trkpt>
      <trkpt lat="61.220903486995" lon="14.565996920782">
        <ele>533.8</ele>
        <time>2015-02-05T15:41:32Z</time>
      </trkpt>
      <trkpt lat="61.22101370898" lon="14.565787624739">
        <ele>533.6</ele>
        <time>2015-02-05T15:41:36Z</time>
      </trkpt>
      <trkpt lat="61.221043632363" lon="14.565749990008">
        <ele>533.8</ele>
        <time>2015-02-05T15:41:37Z</time>
      </trkpt>
      <trkpt lat="61.221104149681" lon="14.565649826303">
        <ele>534</ele>
        <time>2015-02-05T15:41:39Z</time>
      </trkpt>
      <trkpt lat="61.221121667852" lon="14.565596014505">
        <ele>533.8</ele>
        <time>2015-02-05T15:41:40Z</time>
      </trkpt>
      <trkpt lat="61.221204481024" lon="14.565461149734">
        <ele>533.6</ele>
        <time>2015-02-05T15:41:43Z</time>
      </trkpt>
      <trkpt lat="61.221345296944" lon="14.565303989109">
        <ele>533.8</ele>
        <time>2015-02-05T15:41:47Z</time>
      </trkpt>
      <trkpt lat="61.22144956778" lon="14.565154875108">
        <ele>533</ele>
        <time>2015-02-05T15:41:50Z</time>
      </trkpt>
      <trkpt lat="61.221480496991" lon="14.565090921211">
        <ele>532.8</ele>
        <time>2015-02-05T15:41:51Z</time>
      </trkpt>
      <trkpt lat="61.221574206633" lon="14.564726895294">
        <ele>532.6</ele>
        <time>2015-02-05T15:41:56Z</time>
      </trkpt>
      <trkpt lat="61.221600358161" lon="14.564508211523">
        <ele>533</ele>
        <time>2015-02-05T15:41:59Z</time>
      </trkpt>
      <trkpt lat="61.221614020658" lon="14.564381980109">
        <ele>533</ele>
        <time>2015-02-05T15:42:01Z</time>
      </trkpt>
      <trkpt lat="61.221654589054" lon="14.564094732396">
        <ele>532.4</ele>
        <time>2015-02-05T15:42:05Z</time>
      </trkpt>
      <trkpt lat="61.221660037289" lon="14.564026922825">
        <ele>532.4</ele>
        <time>2015-02-05T15:42:06Z</time>
      </trkpt>
      <trkpt lat="61.221666072257" lon="14.563785775562">
        <ele>532.6</ele>
        <time>2015-02-05T15:42:10Z</time>
      </trkpt>
      <trkpt lat="61.221647548258" lon="14.563726180253">
        <ele>532.2</ele>
        <time>2015-02-05T15:42:11Z</time>
      </trkpt>
      <trkpt lat="61.221622151101" lon="14.563634482267">
        <ele>532.2</ele>
        <time>2015-02-05T15:42:13Z</time>
      </trkpt>
      <trkpt lat="61.221619887988" lon="14.563571869474">
        <ele>531.6</ele>
        <time>2015-02-05T15:42:14Z</time>
      </trkpt>
      <trkpt lat="61.221628186069" lon="14.563422587835">
        <ele>531.2</ele>
        <time>2015-02-05T15:42:16Z</time>
      </trkpt>
      <trkpt lat="61.221627515517" lon="14.563370871512">
        <ele>531.4</ele>
        <time>2015-02-05T15:42:17Z</time>
      </trkpt>
      <trkpt lat="61.221648386448" lon="14.563070296578">
        <ele>531</ele>
        <time>2015-02-05T15:42:22Z</time>
      </trkpt>
      <trkpt lat="61.221663222411" lon="14.562728650334">
        <ele>531.2</ele>
        <time>2015-02-05T15:42:27Z</time>
      </trkpt>
      <trkpt lat="61.221673280691" lon="14.56243478092">
        <ele>531.6</ele>
        <time>2015-02-05T15:42:32Z</time>
      </trkpt>
      <trkpt lat="61.221684177161" lon="14.562280805417">
        <ele>532.6</ele>
        <time>2015-02-05T15:42:35Z</time>
      </trkpt>
      <trkpt lat="61.221692056147" lon="14.562153232899">
        <ele>533</ele>
        <time>2015-02-05T15:42:37Z</time>
      </trkpt>
      <trkpt lat="61.221698594029" lon="14.561958521362">
        <ele>533.6</ele>
        <time>2015-02-05T15:42:41Z</time>
      </trkpt>
      <trkpt lat="61.221700438047" lon="14.561909151971">
        <ele>533.8</ele>
        <time>2015-02-05T15:42:42Z</time>
      </trkpt>
      <trkpt lat="61.221697588201" lon="14.561722989972">
        <ele>534.8</ele>
        <time>2015-02-05T15:42:46Z</time>
      </trkpt>
      <trkpt lat="61.221695325088" lon="14.561658449342">
        <ele>535.2</ele>
        <time>2015-02-05T15:42:47Z</time>
      </trkpt>
      <trkpt lat="61.221697588201" lon="14.56149684631">
        <ele>536</ele>
        <time>2015-02-05T15:42:50Z</time>
      </trkpt>
      <trkpt lat="61.22168761374" lon="14.561413697862">
        <ele>536.8</ele>
        <time>2015-02-05T15:42:52Z</time>
      </trkpt>
      <trkpt lat="61.221675124709" lon="14.561364496109">
        <ele>537</ele>
        <time>2015-02-05T15:42:53Z</time>
      </trkpt>
      <trkpt lat="61.22159541284" lon="14.56118671601">
        <ele>537.4</ele>
        <time>2015-02-05T15:42:56Z</time>
      </trkpt>
      <trkpt lat="61.221494662402" lon="14.560992507387">
        <ele>535.8</ele>
        <time>2015-02-05T15:42:59Z</time>
      </trkpt>
      <trkpt lat="61.221417381284" lon="14.560876837167">
        <ele>534.8</ele>
        <time>2015-02-05T15:43:01Z</time>
      </trkpt>
      <trkpt lat="61.221339597252" lon="14.560772147236">
        <ele>534.2</ele>
        <time>2015-02-05T15:43:03Z</time>
      </trkpt>
      <trkpt lat="61.221271284767" lon="14.560663433993">
        <ele>533.8</ele>
        <time>2015-02-05T15:43:05Z</time>
      </trkpt>
      <trkpt lat="61.221244965601" lon="14.560581794287">
        <ele>533.8</ele>
        <time>2015-02-05T15:43:06Z</time>
      </trkpt>
      <trkpt lat="61.221221747738" lon="14.560505686635">
        <ele>533.6</ele>
        <time>2015-02-05T15:43:07Z</time>
      </trkpt>
      <trkpt lat="61.221151088321" lon="14.560266299571">
        <ele>532.8</ele>
        <time>2015-02-05T15:43:11Z</time>
      </trkpt>
      <trkpt lat="61.221131307037" lon="14.560222378415">
        <ele>532.6</ele>
        <time>2015-02-05T15:43:12Z</time>
      </trkpt>
      <trkpt lat="61.221049918788" lon="14.56014484584">
        <ele>532.8</ele>
        <time>2015-02-05T15:43:15Z</time>
      </trkpt>
      <trkpt lat="61.220958975173" lon="14.560176529422">
        <ele>533.6</ele>
        <time>2015-02-05T15:43:18Z</time>
      </trkpt>
      <trkpt lat="61.220932823645" lon="14.560204776425">
        <ele>533.8</ele>
        <time>2015-02-05T15:43:19Z</time>
      </trkpt>
      <trkpt lat="61.220864175884" lon="14.560245344821">
        <ele>533.8</ele>
        <time>2015-02-05T15:43:21Z</time>
      </trkpt>
      <trkpt lat="61.220810783181" lon="14.560270658159">
        <ele>533.6</ele>
        <time>2015-02-05T15:43:23Z</time>
      </trkpt>
      <trkpt lat="61.220716402987" lon="14.56028566176">
        <ele>533.8</ele>
        <time>2015-02-05T15:43:26Z</time>
      </trkpt>
      <trkpt lat="61.220683210663" lon="14.560273340367">
        <ele>533.6</ele>
        <time>2015-02-05T15:43:27Z</time>
      </trkpt>
      <trkpt lat="61.220562343665" lon="14.560227491374">
        <ele>533.8</ele>
        <time>2015-02-05T15:43:32Z</time>
      </trkpt>
      <trkpt lat="61.220458743381" lon="14.560178121983">
        <ele>534.8</ele>
        <time>2015-02-05T15:43:37Z</time>
      </trkpt>
      <trkpt lat="61.220411972379" lon="14.560160855269">
        <ele>535.6</ele>
        <time>2015-02-05T15:43:39Z</time>
      </trkpt>
      <trkpt lat="61.220354137269" lon="14.560146438401">
        <ele>536</ele>
        <time>2015-02-05T15:43:41Z</time>
      </trkpt>
      <trkpt lat="61.220301079842" lon="14.560131686257">
        <ele>536.4</ele>
        <time>2015-02-05T15:43:43Z</time>
      </trkpt>
      <trkpt lat="61.220221367973" lon="14.560109222765">
        <ele>536.8</ele>
        <time>2015-02-05T15:43:46Z</time>
      </trkpt>
      <trkpt lat="61.220166885623" lon="14.560092626603">
        <ele>537</ele>
        <time>2015-02-05T15:43:48Z</time>
      </trkpt>
      <trkpt lat="61.220113660558" lon="14.560045268868">
        <ele>537.2</ele>
        <time>2015-02-05T15:43:50Z</time>
      </trkpt>
      <trkpt lat="61.21996932424" lon="14.559946530086">
        <ele>536.6</ele>
        <time>2015-02-05T15:43:54Z</time>
      </trkpt>
      <trkpt lat="61.219854156934" lon="14.559920965291">
        <ele>536</ele>
        <time>2015-02-05T15:43:57Z</time>
      </trkpt>
      <trkpt lat="61.219822892447" lon="14.559908308622">
        <ele>535.6</ele>
        <time>2015-02-05T15:43:58Z</time>
      </trkpt>
      <trkpt lat="61.219743515854" lon="14.559817532645">
        <ele>535.4</ele>
        <time>2015-02-05T15:44:01Z</time>
      </trkpt>
      <trkpt lat="61.219656763189" lon="14.559674788888">
        <ele>535.6</ele>
        <time>2015-02-05T15:44:05Z</time>
      </trkpt>
      <trkpt lat="61.219521227866" lon="14.559532464226">
        <ele>536.4</ele>
        <time>2015-02-05T15:44:10Z</time>
      </trkpt>
      <trkpt lat="61.219364737793" lon="14.559473288012">
        <ele>535.6</ele>
        <time>2015-02-05T15:44:14Z</time>
      </trkpt>
      <trkpt lat="61.21923087885" lon="14.559412519237">
        <ele>535.2</ele>
        <time>2015-02-05T15:44:17Z</time>
      </trkpt>
      <trkpt lat="61.219201206924" lon="14.559363401303">
        <ele>535</ele>
        <time>2015-02-05T15:44:18Z</time>
      </trkpt>
      <trkpt lat="61.219186035685" lon="14.559241612296">
        <ele>534.2</ele>
        <time>2015-02-05T15:44:20Z</time>
      </trkpt>
      <trkpt lat="61.219197602707" lon="14.559021587421">
        <ele>534.4</ele>
        <time>2015-02-05T15:44:24Z</time>
      </trkpt>
      <trkpt lat="61.219230124479" lon="14.558812207559">
        <ele>535.4</ele>
        <time>2015-02-05T15:44:28Z</time>
      </trkpt>
      <trkpt lat="61.219244206071" lon="14.5587484213">
        <ele>535.4</ele>
        <time>2015-02-05T15:44:29Z</time>
      </trkpt>
      <trkpt lat="61.219268765038" lon="14.558578436368">
        <ele>536</ele>
        <time>2015-02-05T15:44:32Z</time>
      </trkpt>
      <trkpt lat="61.219276811662" lon="14.558483385622">
        <ele>536.4</ele>
        <time>2015-02-05T15:44:34Z</time>
      </trkpt>
      <trkpt lat="61.219291899082" lon="14.558244585291">
        <ele>537</ele>
        <time>2015-02-05T15:44:38Z</time>
      </trkpt>
      <trkpt lat="61.219293575462" lon="14.558185409077">
        <ele>537.2</ele>
        <time>2015-02-05T15:44:39Z</time>
      </trkpt>
      <trkpt lat="61.219278907137" lon="14.557937137199">
        <ele>537.4</ele>
        <time>2015-02-05T15:44:43Z</time>
      </trkpt>
      <trkpt lat="61.219241272406" lon="14.557577972784">
        <ele>537.6</ele>
        <time>2015-02-05T15:44:48Z</time>
      </trkpt>
      <trkpt lat="61.219228196642" lon="14.55728326518">
        <ele>537.4</ele>
        <time>2015-02-05T15:44:52Z</time>
      </trkpt>
      <trkpt lat="61.219217635448" lon="14.556964501523">
        <ele>537.8</ele>
        <time>2015-02-05T15:44:56Z</time>
      </trkpt>
      <trkpt lat="61.21921076229" lon="14.556614138103">
        <ele>537.6</ele>
        <time>2015-02-05T15:45:00Z</time>
      </trkpt>
      <trkpt lat="61.219212103394" lon="14.55633611048">
        <ele>536.4</ele>
        <time>2015-02-05T15:45:03Z</time>
      </trkpt>
      <trkpt lat="61.219210091738" lon="14.556258494086">
        <ele>535.8</ele>
        <time>2015-02-05T15:45:04Z</time>
      </trkpt>
      <trkpt lat="61.219216126706" lon="14.555939395153">
        <ele>535.4</ele>
        <time>2015-02-05T15:45:08Z</time>
      </trkpt>
      <trkpt lat="61.219241104768" lon="14.555721381934">
        <ele>536.4</ele>
        <time>2015-02-05T15:45:12Z</time>
      </trkpt>
      <trkpt lat="61.21927027378" lon="14.555467326545">
        <ele>537</ele>
        <time>2015-02-05T15:45:16Z</time>
      </trkpt>
      <trkpt lat="61.219271363427" lon="14.555379903328">
        <ele>536.8</ele>
        <time>2015-02-05T15:45:17Z</time>
      </trkpt>
      <trkpt lat="61.219276224929" lon="14.555008585158">
        <ele>537.2</ele>
        <time>2015-02-05T15:45:22Z</time>
      </trkpt>
      <trkpt lat="61.219247558831" lon="14.554498378905">
        <ele>537.2</ele>
        <time>2015-02-05T15:45:26Z</time>
      </trkpt>
      <trkpt lat="61.219198776173" lon="14.554049947255">
        <ele>537</ele>
        <time>2015-02-05T15:45:29Z</time>
      </trkpt>
      <trkpt lat="61.219174552482" lon="14.55373017777">
        <ele>536.8</ele>
        <time>2015-02-05T15:45:31Z</time>
      </trkpt>
      <trkpt lat="61.219180252174" lon="14.553592966067">
        <ele>536.6</ele>
        <time>2015-02-05T15:45:32Z</time>
      </trkpt>
      <trkpt lat="61.219218306" lon="14.553363469645">
        <ele>536</ele>
        <time>2015-02-05T15:45:34Z</time>
      </trkpt>
      <trkpt lat="61.219291982901" lon="14.553116371233">
        <ele>535.2</ele>
        <time>2015-02-05T15:45:37Z</time>
      </trkpt>
      <trkpt lat="61.219315284583" lon="14.553062056521">
        <ele>535</ele>
        <time>2015-02-05T15:45:38Z</time>
      </trkpt>
      <trkpt lat="61.219352584038" lon="14.553002461212">
        <ele>535.4</ele>
        <time>2015-02-05T15:45:40Z</time>
      </trkpt>
      <trkpt lat="61.219404300361" lon="14.552987625249">
        <ele>536</ele>
        <time>2015-02-05T15:45:42Z</time>
      </trkpt>
      <trkpt lat="61.219453250657" lon="14.552997432072">
        <ele>536.4</ele>
        <time>2015-02-05T15:45:44Z</time>
      </trkpt>
      <trkpt lat="61.219514354708" lon="14.553028109826">
        <ele>537</ele>
        <time>2015-02-05T15:45:47Z</time>
      </trkpt>
      <trkpt lat="61.219617116802" lon="14.553053171707">
        <ele>536.8</ele>
        <time>2015-02-05T15:45:50Z</time>
      </trkpt>
      <trkpt lat="61.219650895859" lon="14.553022829229">
        <ele>536.6</ele>
        <time>2015-02-05T15:45:51Z</time>
      </trkpt>
      <trkpt lat="61.219687189486" lon="14.552907410466">
        <ele>535.8</ele>
        <time>2015-02-05T15:45:53Z</time>
      </trkpt>
      <trkpt lat="61.219710491168" lon="14.552849491537">
        <ele>535.4</ele>
        <time>2015-02-05T15:45:54Z</time>
      </trkpt>
      <trkpt lat="61.219817025117" lon="14.552588143895">
        <ele>534.6</ele>
        <time>2015-02-05T15:45:58Z</time>
      </trkpt>
      <trkpt lat="61.219844517749" lon="14.552526201654">
        <ele>534</ele>
        <time>2015-02-05T15:45:59Z</time>
      </trkpt>
      <trkpt lat="61.219932611518" lon="14.552411118167">
        <ele>532.8</ele>
        <time>2015-02-05T15:46:01Z</time>
      </trkpt>
      <trkpt lat="61.219975610665" lon="14.552380356594">
        <ele>531.8</ele>
        <time>2015-02-05T15:46:02Z</time>
      </trkpt>
      <trkpt lat="61.220020202373" lon="14.552350349392">
        <ele>531</ele>
        <time>2015-02-05T15:46:03Z</time>
      </trkpt>
      <trkpt lat="61.220116678042" lon="14.552305673865">
        <ele>530.2</ele>
        <time>2015-02-05T15:46:05Z</time>
      </trkpt>
      <trkpt lat="61.220165712157" lon="14.552304081304">
        <ele>529.6</ele>
        <time>2015-02-05T15:46:06Z</time>
      </trkpt>
      <trkpt lat="61.220217177023" lon="14.552319504">
        <ele>529.4</ele>
        <time>2015-02-05T15:46:07Z</time>
      </trkpt>
      <trkpt lat="61.22031801128" lon="14.552351690496">
        <ele>528.4</ele>
        <time>2015-02-05T15:46:09Z</time>
      </trkpt>
      <trkpt lat="61.220465616539" lon="14.552357390188">
        <ele>527.4</ele>
        <time>2015-02-05T15:46:12Z</time>
      </trkpt>
      <trkpt lat="61.220496629569" lon="14.552318917267">
        <ele>527.2</ele>
        <time>2015-02-05T15:46:13Z</time>
      </trkpt>
      <trkpt lat="61.220512052265" lon="14.552136694761">
        <ele>527.2</ele>
        <time>2015-02-05T15:46:16Z</time>
      </trkpt>
      <trkpt lat="61.220483469986" lon="14.552047008431">
        <ele>527.2</ele>
        <time>2015-02-05T15:46:18Z</time>
      </trkpt>
      <trkpt lat="61.220464610711" lon="14.551999985972">
        <ele>527.2</ele>
        <time>2015-02-05T15:46:19Z</time>
      </trkpt>
      <trkpt lat="61.220434687328" lon="14.551912562755">
        <ele>527.2</ele>
        <time>2015-02-05T15:46:20Z</time>
      </trkpt>
      <trkpt lat="61.220403422841" lon="14.551586758302">
        <ele>526.4</ele>
        <time>2015-02-05T15:46:23Z</time>
      </trkpt>
      <trkpt lat="61.220400740633" lon="14.551465807485">
        <ele>526.4</ele>
        <time>2015-02-05T15:46:24Z</time>
      </trkpt>
      <trkpt lat="61.220399231891" lon="14.551317280217">
        <ele>526</ele>
        <time>2015-02-05T15:46:25Z</time>
      </trkpt>
      <trkpt lat="61.220378780055" lon="14.550990218479">
        <ele>524.2</ele>
        <time>2015-02-05T15:46:27Z</time>
      </trkpt>
      <trkpt lat="61.220357992943" lon="14.550839679555">
        <ele>522.8</ele>
        <time>2015-02-05T15:46:28Z</time>
      </trkpt>
      <trkpt lat="61.22034567155" lon="14.550712945227">
        <ele>521</ele>
        <time>2015-02-05T15:46:29Z</time>
      </trkpt>
      <trkpt lat="61.220336032365" lon="14.550561232837">
        <ele>519</ele>
        <time>2015-02-05T15:46:30Z</time>
      </trkpt>
      <trkpt lat="61.220339217487" lon="14.550439192373">
        <ele>517.2</ele>
        <time>2015-02-05T15:46:31Z</time>
      </trkpt>
      <trkpt lat="61.220361764798" lon="14.550309775837">
        <ele>515.8</ele>
        <time>2015-02-05T15:46:32Z</time>
      </trkpt>
      <trkpt lat="61.220381043168" lon="14.550201062594">
        <ele>514.4</ele>
        <time>2015-02-05T15:46:33Z</time>
      </trkpt>
      <trkpt lat="61.220399650986" lon="14.550103581097">
        <ele>514.4</ele>
        <time>2015-02-05T15:46:34Z</time>
      </trkpt>
      <trkpt lat="61.220435693156" lon="14.549897218719">
        <ele>514.4</ele>
        <time>2015-02-05T15:46:36Z</time>
      </trkpt>
      <trkpt lat="61.220454552431" lon="14.549742405026">
        <ele>514.2</ele>
        <time>2015-02-05T15:46:38Z</time>
      </trkpt>
      <trkpt lat="61.220449523291" lon="14.549666045917">
        <ele>514</ele>
        <time>2015-02-05T15:46:39Z</time>
      </trkpt>
      <trkpt lat="61.220383809195" lon="14.549370332485">
        <ele>514</ele>
        <time>2015-02-05T15:46:43Z</time>
      </trkpt>
      <trkpt lat="61.220328823931" lon="14.549156677854">
        <ele>513.8</ele>
        <time>2015-02-05T15:46:46Z</time>
      </trkpt>
      <trkpt lat="61.220308288276" lon="14.549100519124">
        <ele>513.4</ele>
        <time>2015-02-05T15:46:47Z</time>
      </trkpt>
      <trkpt lat="61.220291440657" lon="14.549035894675">
        <ele>513</ele>
        <time>2015-02-05T15:46:48Z</time>
      </trkpt>
      <trkpt lat="61.220217260842" lon="14.548802291122">
        <ele>513.2</ele>
        <time>2015-02-05T15:46:52Z</time>
      </trkpt>
      <trkpt lat="61.220162610854" lon="14.548587463025">
        <ele>513.4</ele>
        <time>2015-02-05T15:46:56Z</time>
      </trkpt>
      <trkpt lat="61.220119527888" lon="14.548207511498">
        <ele>513.6</ele>
        <time>2015-02-05T15:47:02Z</time>
      </trkpt>
      <trkpt lat="61.220106452124" lon="14.547909870229">
        <ele>513.4</ele>
        <time>2015-02-05T15:47:06Z</time>
      </trkpt>
      <trkpt lat="61.220065967547" lon="14.547760672409">
        <ele>513.4</ele>
        <time>2015-02-05T15:47:09Z</time>
      </trkpt>
      <trkpt lat="61.220045012797" lon="14.547673668287">
        <ele>513.6</ele>
        <time>2015-02-05T15:47:11Z</time>
      </trkpt>
      <trkpt lat="61.220025147694" lon="14.547547520692">
        <ele>514.6</ele>
        <time>2015-02-05T15:47:14Z</time>
      </trkpt>
      <trkpt lat="61.22001207193" lon="14.547420534907">
        <ele>515.6</ele>
        <time>2015-02-05T15:47:16Z</time>
      </trkpt>
      <trkpt lat="61.219983824927" lon="14.547082995794">
        <ele>516.8</ele>
        <time>2015-02-05T15:47:20Z</time>
      </trkpt>
      <trkpt lat="61.219925403084" lon="14.546875543769">
        <ele>516.2</ele>
        <time>2015-02-05T15:47:24Z</time>
      </trkpt>
      <trkpt lat="61.219875949874" lon="14.546818379211">
        <ele>517.4</ele>
        <time>2015-02-05T15:47:27Z</time>
      </trkpt>
      <trkpt lat="61.219860108083" lon="14.546812260424">
        <ele>517.8</ele>
        <time>2015-02-05T15:47:28Z</time>
      </trkpt>
      <trkpt lat="61.219829514148" lon="14.546807315103">
        <ele>518</ele>
        <time>2015-02-05T15:47:29Z</time>
      </trkpt>
      <trkpt lat="61.219736139782" lon="14.546809075302">
        <ele>519</ele>
        <time>2015-02-05T15:47:32Z</time>
      </trkpt>
      <trkpt lat="61.219703115096" lon="14.546813852985">
        <ele>519</ele>
        <time>2015-02-05T15:47:33Z</time>
      </trkpt>
      <trkpt lat="61.219531118508" lon="14.546867413326">
        <ele>519</ele>
        <time>2015-02-05T15:47:38Z</time>
      </trkpt>
      <trkpt lat="61.219360379205" lon="14.546916950355">
        <ele>518.6</ele>
        <time>2015-02-05T15:47:42Z</time>
      </trkpt>
      <trkpt lat="61.219234147791" lon="14.546952154335">
        <ele>518.2</ele>
        <time>2015-02-05T15:47:45Z</time>
      </trkpt>
      <trkpt lat="61.219146305479" lon="14.546969840144">
        <ele>518.2</ele>
        <time>2015-02-05T15:47:47Z</time>
      </trkpt>
      <trkpt lat="61.219093248052" lon="14.546975120741">
        <ele>517.8</ele>
        <time>2015-02-05T15:47:48Z</time>
      </trkpt>
      <trkpt lat="61.219046057955" lon="14.546990711075">
        <ele>517.8</ele>
        <time>2015-02-05T15:47:49Z</time>
      </trkpt>
      <trkpt lat="61.218982020239" lon="14.546984592288">
        <ele>517.6</ele>
        <time>2015-02-05T15:47:51Z</time>
      </trkpt>
      <trkpt lat="61.2189584671" lon="14.546965313918">
        <ele>517.6</ele>
        <time>2015-02-05T15:47:52Z</time>
      </trkpt>
      <trkpt lat="61.218862578164" lon="14.546904126048">
        <ele>518.4</ele>
        <time>2015-02-05T15:47:56Z</time>
      </trkpt>
      <trkpt lat="61.218840869043" lon="14.546894822139">
        <ele>518.6</ele>
        <time>2015-02-05T15:47:57Z</time>
      </trkpt>
      <trkpt lat="61.218820836302" lon="14.546879315624">
        <ele>518.8</ele>
        <time>2015-02-05T15:47:58Z</time>
      </trkpt>
      <trkpt lat="61.218742130261" lon="14.546877052511">
        <ele>519.8</ele>
        <time>2015-02-05T15:48:01Z</time>
      </trkpt>
      <trkpt lat="61.218671303206" lon="14.546867832421">
        <ele>521.2</ele>
        <time>2015-02-05T15:48:04Z</time>
      </trkpt>
      <trkpt lat="61.218643475298" lon="14.546872777742">
        <ele>521.6</ele>
        <time>2015-02-05T15:48:05Z</time>
      </trkpt>
      <trkpt lat="61.218571726234" lon="14.546877387787">
        <ele>522.4</ele>
        <time>2015-02-05T15:48:08Z</time>
      </trkpt>
      <trkpt lat="61.218519339359" lon="14.546866072222">
        <ele>523</ele>
        <time>2015-02-05T15:48:10Z</time>
      </trkpt>
      <trkpt lat="61.218473322728" lon="14.546861462177">
        <ele>523.6</ele>
        <time>2015-02-05T15:48:12Z</time>
      </trkpt>
      <trkpt lat="61.218363855114" lon="14.5468545052">
        <ele>524.8</ele>
        <time>2015-02-05T15:48:17Z</time>
      </trkpt>
      <trkpt lat="61.218287747462" lon="14.546855678666">
        <ele>525.4</ele>
        <time>2015-02-05T15:48:20Z</time>
      </trkpt>
      <trkpt lat="61.218264781056" lon="14.546857941779">
        <ele>525.6</ele>
        <time>2015-02-05T15:48:21Z</time>
      </trkpt>
      <trkpt lat="61.218244496858" lon="14.546868000059">
        <ele>526</ele>
        <time>2015-02-05T15:48:22Z</time>
      </trkpt>
      <trkpt lat="61.218165036446" lon="14.546888535714">
        <ele>527.2</ele>
        <time>2015-02-05T15:48:25Z</time>
      </trkpt>
      <trkpt lat="61.218115164141" lon="14.54688551823">
        <ele>527.6</ele>
        <time>2015-02-05T15:48:27Z</time>
      </trkpt>
      <trkpt lat="61.218014246065" lon="14.546842938178">
        <ele>528</ele>
        <time>2015-02-05T15:48:31Z</time>
      </trkpt>
      <trkpt lat="61.217990525288" lon="14.546825587645">
        <ele>528.4</ele>
        <time>2015-02-05T15:48:32Z</time>
      </trkpt>
      <trkpt lat="61.21793922806" lon="14.546805806361">
        <ele>529</ele>
        <time>2015-02-05T15:48:34Z</time>
      </trkpt>
      <trkpt lat="61.217910981057" lon="14.546801196316">
        <ele>529.4</ele>
        <time>2015-02-05T15:48:35Z</time>
      </trkpt>
      <trkpt lat="61.217884913348" lon="14.546793904063">
        <ele>529.6</ele>
        <time>2015-02-05T15:48:36Z</time>
      </trkpt>
      <trkpt lat="61.21783613069" lon="14.546795915719">
        <ele>530</ele>
        <time>2015-02-05T15:48:38Z</time>
      </trkpt>
      <trkpt lat="61.217774859001" lon="14.546803962343">
        <ele>530.2</ele>
        <time>2015-02-05T15:48:40Z</time>
      </trkpt>
      <trkpt lat="61.217616776367" lon="14.546781415032">
        <ele>530.6</ele>
        <time>2015-02-05T15:48:45Z</time>
      </trkpt>
      <trkpt lat="61.217587020622" lon="14.546776385892">
        <ele>530.6</ele>
        <time>2015-02-05T15:48:46Z</time>
      </trkpt>
      <trkpt lat="61.217503620717" lon="14.546736404229">
        <ele>530.8</ele>
        <time>2015-02-05T15:48:49Z</time>
      </trkpt>
      <trkpt lat="61.217477720646" lon="14.546723831379">
        <ele>531.2</ele>
        <time>2015-02-05T15:48:50Z</time>
      </trkpt>
      <trkpt lat="61.217393985465" lon="14.546710085063">
        <ele>531.4</ele>
        <time>2015-02-05T15:48:53Z</time>
      </trkpt>
      <trkpt lat="61.217330031568" lon="14.546712515814">
        <ele>531.6</ele>
        <time>2015-02-05T15:48:55Z</time>
      </trkpt>
      <trkpt lat="61.217263898377" lon="14.546702457534">
        <ele>531.6</ele>
        <time>2015-02-05T15:48:57Z</time>
      </trkpt>
      <trkpt lat="61.217241602523" lon="14.546689130313">
        <ele>531.4</ele>
        <time>2015-02-05T15:48:58Z</time>
      </trkpt>
      <trkpt lat="61.217168512355" lon="14.546544793995">
        <ele>531.6</ele>
        <time>2015-02-05T15:49:02Z</time>
      </trkpt>
      <trkpt lat="61.217150910365" lon="14.546506572531">
        <ele>531.8</ele>
        <time>2015-02-05T15:49:03Z</time>
      </trkpt>
      <trkpt lat="61.217099194042" lon="14.546410096862">
        <ele>532.8</ele>
        <time>2015-02-05T15:49:06Z</time>
      </trkpt>
      <trkpt lat="61.21705074666" lon="14.546297360307">
        <ele>533.8</ele>
        <time>2015-02-05T15:49:09Z</time>
      </trkpt>
      <trkpt lat="61.217035323964" lon="14.546278584851">
        <ele>534</ele>
        <time>2015-02-05T15:49:10Z</time>
      </trkpt>
      <trkpt lat="61.217004059477" lon="14.546203063932">
        <ele>535</ele>
        <time>2015-02-05T15:49:13Z</time>
      </trkpt>
      <trkpt lat="61.21699458793" lon="14.546176912404">
        <ele>535</ele>
        <time>2015-02-05T15:49:14Z</time>
      </trkpt>
      <trkpt lat="61.216956450285" lon="14.54607750307">
        <ele>536.6</ele>
        <time>2015-02-05T15:49:18Z</time>
      </trkpt>
      <trkpt lat="61.216940273218" lon="14.54602134434">
        <ele>537.4</ele>
        <time>2015-02-05T15:49:20Z</time>
      </trkpt>
      <trkpt lat="61.216930131119" lon="14.545995108993">
        <ele>537.8</ele>
        <time>2015-02-05T15:49:21Z</time>
      </trkpt>
      <trkpt lat="61.216902135573" lon="14.545929478716">
        <ele>538.2</ele>
        <time>2015-02-05T15:49:23Z</time>
      </trkpt>
      <trkpt lat="61.216876906054" lon="14.545876086013">
        <ele>538.4</ele>
        <time>2015-02-05T15:49:25Z</time>
      </trkpt>
      <trkpt lat="61.216812197786" lon="14.54572378689">
        <ele>538.8</ele>
        <time>2015-02-05T15:49:30Z</time>
      </trkpt>
      <trkpt lat="61.216739526713" lon="14.545565201342">
        <ele>538.8</ele>
        <time>2015-02-05T15:49:34Z</time>
      </trkpt>
      <trkpt lat="61.216719913067" lon="14.545535864692">
        <ele>538.8</ele>
        <time>2015-02-05T15:49:35Z</time>
      </trkpt>
      <trkpt lat="61.216647325813" lon="14.545398736808">
        <ele>538.8</ele>
        <time>2015-02-05T15:49:39Z</time>
      </trkpt>
      <trkpt lat="61.216599548983" lon="14.545333944721">
        <ele>539.2</ele>
        <time>2015-02-05T15:49:41Z</time>
      </trkpt>
      <trkpt lat="61.216561998071" lon="14.545265380779">
        <ele>539.2</ele>
        <time>2015-02-05T15:49:43Z</time>
      </trkpt>
      <trkpt lat="61.216504665875" lon="14.545207964764">
        <ele>539.8</ele>
        <time>2015-02-05T15:49:46Z</time>
      </trkpt>
      <trkpt lat="61.216477005605" lon="14.545183489616">
        <ele>540</ele>
        <time>2015-02-05T15:49:47Z</time>
      </trkpt>
      <trkpt lat="61.216357898806" lon="14.545080811341">
        <ele>540.8</ele>
        <time>2015-02-05T15:49:52Z</time>
      </trkpt>
      <trkpt lat="61.216249017925" lon="14.545025742258">
        <ele>541.2</ele>
        <time>2015-02-05T15:49:56Z</time>
      </trkpt>
      <trkpt lat="61.216146507288" lon="14.544956256307">
        <ele>541.6</ele>
        <time>2015-02-05T15:50:00Z</time>
      </trkpt>
      <trkpt lat="61.216107028539" lon="14.54492163906">
        <ele>542.2</ele>
        <time>2015-02-05T15:50:02Z</time>
      </trkpt>
      <trkpt lat="61.216072830387" lon="14.544869419823">
        <ele>542.4</ele>
        <time>2015-02-05T15:50:04Z</time>
      </trkpt>
      <trkpt lat="61.216069393808" lon="14.54484871653">
        <ele>542.8</ele>
        <time>2015-02-05T15:50:07Z</time>
      </trkpt>
      <trkpt lat="61.216289167226" lon="14.544982240197">
        <ele>542</ele>
        <time>2015-02-05T15:50:36Z</time>
      </trkpt>
      <trkpt lat="61.216335351495" lon="14.544990957373">
        <ele>541.6</ele>
        <time>2015-02-05T15:50:37Z</time>
      </trkpt>
      <trkpt lat="61.216473401388" lon="14.545093132734">
        <ele>541</ele>
        <time>2015-02-05T15:50:40Z</time>
      </trkpt>
      <trkpt lat="61.216521681132" lon="14.545141915392">
        <ele>540.8</ele>
        <time>2015-02-05T15:50:41Z</time>
      </trkpt>
      <trkpt lat="61.216670459857" lon="14.545362107905">
        <ele>539.8</ele>
        <time>2015-02-05T15:50:44Z</time>
      </trkpt>
      <trkpt lat="61.216710525339" lon="14.545453554434">
        <ele>539.4</ele>
        <time>2015-02-05T15:50:45Z</time>
      </trkpt>
      <trkpt lat="61.216837594943" lon="14.545788243701">
        <ele>538.6</ele>
        <time>2015-02-05T15:50:49Z</time>
      </trkpt>
      <trkpt lat="61.216843462273" lon="14.545894945288">
        <ele>538.4</ele>
        <time>2015-02-05T15:50:50Z</time>
      </trkpt>
      <trkpt lat="61.216866177222" lon="14.546268275114">
        <ele>538.2</ele>
        <time>2015-02-05T15:50:54Z</time>
      </trkpt>
      <trkpt lat="61.216847150309" lon="14.546735398401">
        <ele>537.6</ele>
        <time>2015-02-05T15:50:57Z</time>
      </trkpt>
      <trkpt lat="61.216835248011" lon="14.546892307569">
        <ele>536.6</ele>
        <time>2015-02-05T15:50:58Z</time>
      </trkpt>
      <trkpt lat="61.216819741496" lon="14.547047959452">
        <ele>535.4</ele>
        <time>2015-02-05T15:50:59Z</time>
      </trkpt>
      <trkpt lat="61.216800044031" lon="14.547195564711">
        <ele>534.2</ele>
        <time>2015-02-05T15:51:00Z</time>
      </trkpt>
      <trkpt lat="61.216786884448" lon="14.54747141304">
        <ele>532.6</ele>
        <time>2015-02-05T15:51:02Z</time>
      </trkpt>
      <trkpt lat="61.216799960212" lon="14.547604433793">
        <ele>532</ele>
        <time>2015-02-05T15:51:03Z</time>
      </trkpt>
      <trkpt lat="61.216867266869" lon="14.547955719222">
        <ele>531.6</ele>
        <time>2015-02-05T15:51:06Z</time>
      </trkpt>
      <trkpt lat="61.216901297383" lon="14.548063678094">
        <ele>531.4</ele>
        <time>2015-02-05T15:51:07Z</time>
      </trkpt>
      <trkpt lat="61.217021158553" lon="14.548335251654">
        <ele>531.2</ele>
        <time>2015-02-05T15:51:10Z</time>
      </trkpt>
      <trkpt lat="61.217067678098" lon="14.548437343196">
        <ele>531.2</ele>
        <time>2015-02-05T15:51:11Z</time>
      </trkpt>
      <trkpt lat="61.217117215127" lon="14.548522587119">
        <ele>531.4</ele>
        <time>2015-02-05T15:51:12Z</time>
      </trkpt>
      <trkpt lat="61.21720497362" lon="14.548719980864">
        <ele>530.8</ele>
        <time>2015-02-05T15:51:14Z</time>
      </trkpt>
      <trkpt lat="61.217240009962" lon="14.548851995789">
        <ele>530.4</ele>
        <time>2015-02-05T15:51:15Z</time>
      </trkpt>
      <trkpt lat="61.217273286105" lon="14.548967414552">
        <ele>530</ele>
        <time>2015-02-05T15:51:16Z</time>
      </trkpt>
      <trkpt lat="61.217313351587" lon="14.549064141678">
        <ele>529.4</ele>
        <time>2015-02-05T15:51:17Z</time>
      </trkpt>
      <trkpt lat="61.217354339078" lon="14.549068248809">
        <ele>529.2</ele>
        <time>2015-02-05T15:51:18Z</time>
      </trkpt>
      <trkpt lat="61.217386106479" lon="14.549024746748">
        <ele>528.8</ele>
        <time>2015-02-05T15:51:19Z</time>
      </trkpt>
      <trkpt lat="61.217447294349" lon="14.548830202849">
        <ele>528.2</ele>
        <time>2015-02-05T15:51:22Z</time>
      </trkpt>
      <trkpt lat="61.217546703683" lon="14.548595342011">
        <ele>527.2</ele>
        <time>2015-02-05T15:51:26Z</time>
      </trkpt>
      <trkpt lat="61.217613088331" lon="14.548497441419">
        <ele>527.4</ele>
        <time>2015-02-05T15:51:28Z</time>
      </trkpt>
      <trkpt lat="61.217736637537" lon="14.54834396883">
        <ele>527.6</ele>
        <time>2015-02-05T15:51:31Z</time>
      </trkpt>
      <trkpt lat="61.217770248956" lon="14.548275153431">
        <ele>527.4</ele>
        <time>2015-02-05T15:51:32Z</time>
      </trkpt>
      <trkpt lat="61.217883236968" lon="14.548103240662">
        <ele>526.8</ele>
        <time>2015-02-05T15:51:35Z</time>
      </trkpt>
      <trkpt lat="61.217924811192" lon="14.548055296194">
        <ele>526.6</ele>
        <time>2015-02-05T15:51:36Z</time>
      </trkpt>
      <trkpt lat="61.218093790296" lon="14.547875672077">
        <ele>526.6</ele>
        <time>2015-02-05T15:51:40Z</time>
      </trkpt>
      <trkpt lat="61.218194205458" lon="14.54779998352">
        <ele>526.2</ele>
        <time>2015-02-05T15:51:42Z</time>
      </trkpt>
      <trkpt lat="61.218336111025" lon="14.547671153717">
        <ele>525.6</ele>
        <time>2015-02-05T15:51:45Z</time>
      </trkpt>
      <trkpt lat="61.218471143434" lon="14.547525643933">
        <ele>525.2</ele>
        <time>2015-02-05T15:51:48Z</time>
      </trkpt>
      <trkpt lat="61.218529649096" lon="14.547502090794">
        <ele>525.2</ele>
        <time>2015-02-05T15:51:49Z</time>
      </trkpt>
      <trkpt lat="61.218742633175" lon="14.547491110505">
        <ele>523.4</ele>
        <time>2015-02-05T15:51:52Z</time>
      </trkpt>
      <trkpt lat="61.218869702779" lon="14.547626729647">
        <ele>522.4</ele>
        <time>2015-02-05T15:51:54Z</time>
      </trkpt>
      <trkpt lat="61.218924017491" lon="14.547749943577">
        <ele>521.6</ele>
        <time>2015-02-05T15:51:55Z</time>
      </trkpt>
      <trkpt lat="61.218972213416" lon="14.547871313489">
        <ele>520.8</ele>
        <time>2015-02-05T15:51:56Z</time>
      </trkpt>
      <trkpt lat="61.219112861698" lon="14.548229472076">
        <ele>519.6</ele>
        <time>2015-02-05T15:51:59Z</time>
      </trkpt>
      <trkpt lat="61.219176815595" lon="14.548344052649">
        <ele>519</ele>
        <time>2015-02-05T15:52:00Z</time>
      </trkpt>
      <trkpt lat="61.219232639049" lon="14.548465590199">
        <ele>518.4</ele>
        <time>2015-02-05T15:52:01Z</time>
      </trkpt>
      <trkpt lat="61.219272369255" lon="14.548611938173">
        <ele>517.6</ele>
        <time>2015-02-05T15:52:02Z</time>
      </trkpt>
      <trkpt lat="61.219312602375" lon="14.548767757694">
        <ele>516.8</ele>
        <time>2015-02-05T15:52:03Z</time>
      </trkpt>
      <trkpt lat="61.219342106663" lon="14.548907986881">
        <ele>516.2</ele>
        <time>2015-02-05T15:52:04Z</time>
      </trkpt>
      <trkpt lat="61.219366833268" lon="14.549101776409">
        <ele>515.4</ele>
        <time>2015-02-05T15:52:05Z</time>
      </trkpt>
      <trkpt lat="61.219363229051" lon="14.549244939261">
        <ele>514.2</ele>
        <time>2015-02-05T15:52:06Z</time>
      </trkpt>
      <trkpt lat="61.219313440565" lon="14.549511483681">
        <ele>512.8</ele>
        <time>2015-02-05T15:52:08Z</time>
      </trkpt>
      <trkpt lat="61.219273207445" lon="14.549595051224">
        <ele>512.2</ele>
        <time>2015-02-05T15:52:09Z</time>
      </trkpt>
      <trkpt lat="61.219122249426" lon="14.549722875199">
        <ele>512.8</ele>
        <time>2015-02-05T15:52:12Z</time>
      </trkpt>
      <trkpt lat="61.219077573899" lon="14.549785236535">
        <ele>513</ele>
        <time>2015-02-05T15:52:13Z</time>
      </trkpt>
      <trkpt lat="61.219026528128" lon="14.549953628906">
        <ele>513.6</ele>
        <time>2015-02-05T15:52:15Z</time>
      </trkpt>
      <trkpt lat="61.218998784039" lon="14.550117243594">
        <ele>513.6</ele>
        <time>2015-02-05T15:52:17Z</time>
      </trkpt>
      <trkpt lat="61.218961233127" lon="14.550371466621">
        <ele>513.8</ele>
        <time>2015-02-05T15:52:20Z</time>
      </trkpt>
      <trkpt lat="61.218908091881" lon="14.550719231652">
        <ele>513.6</ele>
        <time>2015-02-05T15:52:24Z</time>
      </trkpt>
      <trkpt lat="61.218863164897" lon="14.55089039005">
        <ele>513.6</ele>
        <time>2015-02-05T15:52:26Z</time>
      </trkpt>
      <trkpt lat="61.218764174658" lon="14.55127511926">
        <ele>514.2</ele>
        <time>2015-02-05T15:52:31Z</time>
      </trkpt>
      <trkpt lat="61.218746572668" lon="14.551350388722">
        <ele>514.4</ele>
        <time>2015-02-05T15:52:32Z</time>
      </trkpt>
      <trkpt lat="61.218666022609" lon="14.55155591291">
        <ele>514.2</ele>
        <time>2015-02-05T15:52:35Z</time>
      </trkpt>
      <trkpt lat="61.218636266864" lon="14.551606371948">
        <ele>514</ele>
        <time>2015-02-05T15:52:36Z</time>
      </trkpt>
      <trkpt lat="61.218560494488" lon="14.551790354653">
        <ele>513.8</ele>
        <time>2015-02-05T15:52:39Z</time>
      </trkpt>
      <trkpt lat="61.218476843126" lon="14.551950113667">
        <ele>513.4</ele>
        <time>2015-02-05T15:52:42Z</time>
      </trkpt>
      <trkpt lat="61.218421438767" lon="14.552013229374">
        <ele>513.2</ele>
        <time>2015-02-05T15:52:44Z</time>
      </trkpt>
      <trkpt lat="61.218337871224" lon="14.552179107175">
        <ele>514.8</ele>
        <time>2015-02-05T15:52:48Z</time>
      </trkpt>
      <trkpt lat="61.218322699985" lon="14.552232416059">
        <ele>515.2</ele>
        <time>2015-02-05T15:52:49Z</time>
      </trkpt>
      <trkpt lat="61.218302080511" lon="14.552417404592">
        <ele>516</ele>
        <time>2015-02-05T15:52:52Z</time>
      </trkpt>
      <trkpt lat="61.218291351679" lon="14.552559645435">
        <ele>516</ele>
        <time>2015-02-05T15:52:54Z</time>
      </trkpt>
      <trkpt lat="61.218294872077" lon="14.552875726884">
        <ele>516.8</ele>
        <time>2015-02-05T15:52:59Z</time>
      </trkpt>
      <trkpt lat="61.218289675299" lon="14.552966251404">
        <ele>517.2</ele>
        <time>2015-02-05T15:53:00Z</time>
      </trkpt>
      <trkpt lat="61.218300152674" lon="14.553000868651">
        <ele>517.2</ele>
        <time>2015-02-05T15:53:01Z</time>
      </trkpt>
      <trkpt lat="61.218302583425" lon="14.553056692105">
        <ele>517.2</ele>
        <time>2015-02-05T15:53:02Z</time>
      </trkpt>
      <trkpt lat="61.218314066628" lon="14.553234220747">
        <ele>517.4</ele>
        <time>2015-02-05T15:53:05Z</time>
      </trkpt>
      <trkpt lat="61.218320185415" lon="14.553355087745">
        <ele>517.8</ele>
        <time>2015-02-05T15:53:07Z</time>
      </trkpt>
      <trkpt lat="61.218325466012" lon="14.553400433824">
        <ele>518.2</ele>
        <time>2015-02-05T15:53:08Z</time>
      </trkpt>
      <trkpt lat="61.21832563365" lon="14.553491209801">
        <ele>518.8</ele>
        <time>2015-02-05T15:53:10Z</time>
      </trkpt>
      <trkpt lat="61.218325968926" lon="14.553606628564">
        <ele>519.6</ele>
        <time>2015-02-05T15:53:12Z</time>
      </trkpt>
      <trkpt lat="61.218310462411" lon="14.553690028469">
        <ele>519.6</ele>
        <time>2015-02-05T15:53:13Z</time>
      </trkpt>
      <trkpt lat="61.218295039715" lon="14.553768566872">
        <ele>519.6</ele>
        <time>2015-02-05T15:53:14Z</time>
      </trkpt>
      <trkpt lat="61.218221362814" lon="14.553937797433">
        <ele>519.4</ele>
        <time>2015-02-05T15:53:17Z</time>
      </trkpt>
      <trkpt lat="61.217957919697" lon="14.554236109254">
        <ele>520.4</ele>
        <time>2015-02-05T15:53:25Z</time>
      </trkpt>
      <trkpt lat="61.217884997167" lon="14.554251951045">
        <ele>520.8</ele>
        <time>2015-02-05T15:53:27Z</time>
      </trkpt>
      <trkpt lat="61.217867898091" lon="14.554238372367">
        <ele>520.8</ele>
        <time>2015-02-05T15:53:28Z</time>
      </trkpt>
      <trkpt lat="61.217838561441" lon="14.554243904421">
        <ele>520.8</ele>
        <time>2015-02-05T15:53:29Z</time>
      </trkpt>
      <trkpt lat="61.217723897049" lon="14.55433367457">
        <ele>521</ele>
        <time>2015-02-05T15:53:33Z</time>
      </trkpt>
      <trkpt lat="61.217649046682" lon="14.554454122473">
        <ele>521.8</ele>
        <time>2015-02-05T15:53:36Z</time>
      </trkpt>
      <trkpt lat="61.21761149577" lon="14.554505671158">
        <ele>522</ele>
        <time>2015-02-05T15:53:37Z</time>
      </trkpt>
      <trkpt lat="61.217497334292" lon="14.554574067462">
        <ele>522.2</ele>
        <time>2015-02-05T15:53:40Z</time>
      </trkpt>
      <trkpt lat="61.217452407308" lon="14.554595692764">
        <ele>522.2</ele>
        <time>2015-02-05T15:53:41Z</time>
      </trkpt>
      <trkpt lat="61.217309328275" lon="14.55468906713">
        <ele>522</ele>
        <time>2015-02-05T15:53:45Z</time>
      </trkpt>
      <trkpt lat="61.217222072696" lon="14.554869613256">
        <ele>522.2</ele>
        <time>2015-02-05T15:53:49Z</time>
      </trkpt>
      <trkpt lat="61.217169182907" lon="14.555011686461">
        <ele>522.2</ele>
        <time>2015-02-05T15:53:51Z</time>
      </trkpt>
      <trkpt lat="61.217130123253" lon="14.555131547631">
        <ele>522.2</ele>
        <time>2015-02-05T15:53:53Z</time>
      </trkpt>
      <trkpt lat="61.217067091365" lon="14.555399768431">
        <ele>522</ele>
        <time>2015-02-05T15:53:57Z</time>
      </trkpt>
      <trkpt lat="61.217025014227" lon="14.555683411927">
        <ele>522</ele>
        <time>2015-02-05T15:54:01Z</time>
      </trkpt>
      <trkpt lat="61.216939854123" lon="14.555935204203">
        <ele>522</ele>
        <time>2015-02-05T15:54:05Z</time>
      </trkpt>
      <trkpt lat="61.216840277151" lon="14.55610309366">
        <ele>522</ele>
        <time>2015-02-05T15:54:08Z</time>
      </trkpt>
      <trkpt lat="61.216714883927" lon="14.556332925358">
        <ele>521.4</ele>
        <time>2015-02-05T15:54:12Z</time>
      </trkpt>
      <trkpt lat="61.21661907881" lon="14.556544149238">
        <ele>521.4</ele>
        <time>2015-02-05T15:54:15Z</time>
      </trkpt>
      <trkpt lat="61.216537522923" lon="14.556692257411">
        <ele>520.8</ele>
        <time>2015-02-05T15:54:17Z</time>
      </trkpt>
      <trkpt lat="61.216497122165" lon="14.55676777833">
        <ele>520.8</ele>
        <time>2015-02-05T15:54:18Z</time>
      </trkpt>
      <trkpt lat="61.216416655925" lon="14.556915802684">
        <ele>520.2</ele>
        <time>2015-02-05T15:54:20Z</time>
      </trkpt>
      <trkpt lat="61.216313726193" lon="14.557120991596">
        <ele>520</ele>
        <time>2015-02-05T15:54:23Z</time>
      </trkpt>
      <trkpt lat="61.216278606032" lon="14.557178323792">
        <ele>519.8</ele>
        <time>2015-02-05T15:54:24Z</time>
      </trkpt>
      <trkpt lat="61.216231332116" lon="14.557221909672">
        <ele>519.8</ele>
        <time>2015-02-05T15:54:25Z</time>
      </trkpt>
      <trkpt lat="61.216181292173" lon="14.557234901617">
        <ele>519.6</ele>
        <time>2015-02-05T15:54:26Z</time>
      </trkpt>
      <trkpt lat="61.216138712121" lon="14.557243283517">
        <ele>519.6</ele>
        <time>2015-02-05T15:54:27Z</time>
      </trkpt>
      <trkpt lat="61.216061766279" lon="14.557276308203">
        <ele>519.2</ele>
        <time>2015-02-05T15:54:29Z</time>
      </trkpt>
      <trkpt lat="61.215974259243" lon="14.557318050065">
        <ele>519</ele>
        <time>2015-02-05T15:54:31Z</time>
      </trkpt>
      <trkpt lat="61.215929332259" lon="14.557347135258">
        <ele>519</ele>
        <time>2015-02-05T15:54:32Z</time>
      </trkpt>
      <trkpt lat="61.215804022854" lon="14.557411172974">
        <ele>519.4</ele>
        <time>2015-02-05T15:54:35Z</time>
      </trkpt>
      <trkpt lat="61.21574233207" lon="14.557398264848">
        <ele>519.8</ele>
        <time>2015-02-05T15:54:37Z</time>
      </trkpt>
      <trkpt lat="61.215700506389" lon="14.557381081953">
        <ele>519.6</ele>
        <time>2015-02-05T15:54:38Z</time>
      </trkpt>
      <trkpt lat="61.215548542542" lon="14.557320396997">
        <ele>519.6</ele>
        <time>2015-02-05T15:54:42Z</time>
      </trkpt>
      <trkpt lat="61.215490958889" lon="14.557280834429">
        <ele>519.6</ele>
        <time>2015-02-05T15:54:44Z</time>
      </trkpt>
      <trkpt lat="61.215421724395" lon="14.557236075083">
        <ele>519.8</ele>
        <time>2015-02-05T15:54:46Z</time>
      </trkpt>
      <trkpt lat="61.215384089664" lon="14.557255940186">
        <ele>519.8</ele>
        <time>2015-02-05T15:54:47Z</time>
      </trkpt>
      <trkpt lat="61.215323572346" lon="14.557267926303">
        <ele>520</ele>
        <time>2015-02-05T15:54:49Z</time>
      </trkpt>
      <trkpt lat="61.215172027594" lon="14.557349733647">
        <ele>520.6</ele>
        <time>2015-02-05T15:54:53Z</time>
      </trkpt>
      <trkpt lat="61.215134728139" lon="14.557350404199">
        <ele>520.4</ele>
        <time>2015-02-05T15:54:54Z</time>
      </trkpt>
      <trkpt lat="61.215058452849" lon="14.557394409174">
        <ele>520.6</ele>
        <time>2015-02-05T15:54:56Z</time>
      </trkpt>
      <trkpt lat="61.214964407931" lon="14.557452244284">
        <ele>520.6</ele>
        <time>2015-02-05T15:54:58Z</time>
      </trkpt>
      <trkpt lat="61.214769696394" lon="14.557485771884">
        <ele>519.8</ele>
        <time>2015-02-05T15:55:02Z</time>
      </trkpt>
      <trkpt lat="61.214635250718" lon="14.557505050254">
        <ele>519.6</ele>
        <time>2015-02-05T15:55:05Z</time>
      </trkpt>
      <trkpt lat="61.214580768368" lon="14.557501781313">
        <ele>519.8</ele>
        <time>2015-02-05T15:55:06Z</time>
      </trkpt>
      <trkpt lat="61.214423440105" lon="14.557525334452">
        <ele>519.6</ele>
        <time>2015-02-05T15:55:09Z</time>
      </trkpt>
      <trkpt lat="61.214276421579" lon="14.55751292924">
        <ele>518.6</ele>
        <time>2015-02-05T15:55:12Z</time>
      </trkpt>
      <trkpt lat="61.21422772274" lon="14.557505720806">
        <ele>518.2</ele>
        <time>2015-02-05T15:55:13Z</time>
      </trkpt>
      <trkpt lat="61.214192434941" lon="14.557496584535">
        <ele>518</ele>
        <time>2015-02-05T15:55:14Z</time>
      </trkpt>
      <trkpt lat="61.214129403053" lon="14.557463224573">
        <ele>517.8</ele>
        <time>2015-02-05T15:55:15Z</time>
      </trkpt>
      <trkpt lat="61.214090343399" lon="14.557439419977">
        <ele>517.6</ele>
        <time>2015-02-05T15:55:16Z</time>
      </trkpt>
      <trkpt lat="61.213918682087" lon="14.557348308724">
        <ele>517</ele>
        <time>2015-02-05T15:55:19Z</time>
      </trkpt>
      <trkpt lat="61.213848441765" lon="14.557296592401">
        <ele>516.4</ele>
        <time>2015-02-05T15:55:20Z</time>
      </trkpt>
      <trkpt lat="61.213779207271" lon="14.557259292946">
        <ele>516</ele>
        <time>2015-02-05T15:55:21Z</time>
      </trkpt>
      <trkpt lat="61.213642079387" lon="14.557219898016">
        <ele>514.4</ele>
        <time>2015-02-05T15:55:23Z</time>
      </trkpt>
      <trkpt lat="61.213503191304" lon="14.557266752837">
        <ele>513.2</ele>
        <time>2015-02-05T15:55:25Z</time>
      </trkpt>
      <trkpt lat="61.213356172778" lon="14.557295586573">
        <ele>512.2</ele>
        <time>2015-02-05T15:55:27Z</time>
      </trkpt>
      <trkpt lat="61.213169507865" lon="14.55731427821">
        <ele>510.8</ele>
        <time>2015-02-05T15:55:30Z</time>
      </trkpt>
      <trkpt lat="61.213071607273" lon="14.557259712041">
        <ele>510</ele>
        <time>2015-02-05T15:55:32Z</time>
      </trkpt>
      <trkpt lat="61.213047970315" lon="14.557175893041">
        <ele>510</ele>
        <time>2015-02-05T15:55:33Z</time>
      </trkpt>
      <trkpt lat="61.213054172921" lon="14.556970201215">
        <ele>510.4</ele>
        <time>2015-02-05T15:55:36Z</time>
      </trkpt>
      <trkpt lat="61.213032715257" lon="14.556808598183">
        <ele>510.2</ele>
        <time>2015-02-05T15:55:38Z</time>
      </trkpt>
      <trkpt lat="61.21302492009" lon="14.556657723983">
        <ele>510</ele>
        <time>2015-02-05T15:55:40Z</time>
      </trkpt>
      <trkpt lat="61.213017795475" lon="14.55649536658">
        <ele>510</ele>
        <time>2015-02-05T15:55:42Z</time>
      </trkpt>
      <trkpt lat="61.21301067086" lon="14.556310797142">
        <ele>510</ele>
        <time>2015-02-05T15:55:44Z</time>
      </trkpt>
      <trkpt lat="61.213002121322" lon="14.555963786482">
        <ele>510.2</ele>
        <time>2015-02-05T15:55:48Z</time>
      </trkpt>
      <trkpt lat="61.212995751078" lon="14.555708641446">
        <ele>509.8</ele>
        <time>2015-02-05T15:55:51Z</time>
      </trkpt>
      <trkpt lat="61.212988542644" lon="14.555647705033">
        <ele>510</ele>
        <time>2015-02-05T15:55:52Z</time>
      </trkpt>
      <trkpt lat="61.212951075551" lon="14.555256689398">
        <ele>510.2</ele>
        <time>2015-02-05T15:55:57Z</time>
      </trkpt>
      <trkpt lat="61.212968258446" lon="14.554937758103">
        <ele>509.8</ele>
        <time>2015-02-05T15:56:01Z</time>
      </trkpt>
      <trkpt lat="61.21297462869" lon="14.554854106741">
        <ele>509.6</ele>
        <time>2015-02-05T15:56:02Z</time>
      </trkpt>
      <trkpt lat="61.213044785193" lon="14.554587729959">
        <ele>510</ele>
        <time>2015-02-05T15:56:06Z</time>
      </trkpt>
      <trkpt lat="61.2131498104" lon="14.554257483099">
        <ele>509.8</ele>
        <time>2015-02-05T15:56:11Z</time>
      </trkpt>
      <trkpt lat="61.213198341601" lon="14.553846853818">
        <ele>509.8</ele>
        <time>2015-02-05T15:56:16Z</time>
      </trkpt>
      <trkpt lat="61.213198676877" lon="14.553558684096">
        <ele>510.2</ele>
        <time>2015-02-05T15:56:20Z</time>
      </trkpt>
      <trkpt lat="61.213180152878" lon="14.553196418378">
        <ele>510.8</ele>
        <time>2015-02-05T15:56:25Z</time>
      </trkpt>
      <trkpt lat="61.213161293603" lon="14.552828369149">
        <ele>510.8</ele>
        <time>2015-02-05T15:56:30Z</time>
      </trkpt>
      <trkpt lat="61.213155342454" lon="14.552436263867">
        <ele>510.6</ele>
        <time>2015-02-05T15:56:35Z</time>
      </trkpt>
      <trkpt lat="61.213140674129" lon="14.552066035344">
        <ele>511</ele>
        <time>2015-02-05T15:56:40Z</time>
      </trkpt>
      <trkpt lat="61.213129274745" lon="14.551744254203">
        <ele>510.6</ele>
        <time>2015-02-05T15:56:44Z</time>
      </trkpt>
      <trkpt lat="61.213135058256" lon="14.551374947689">
        <ele>510</ele>
        <time>2015-02-05T15:56:48Z</time>
      </trkpt>
      <trkpt lat="61.213087616702" lon="14.550973957593">
        <ele>510.2</ele>
        <time>2015-02-05T15:56:53Z</time>
      </trkpt>
      <trkpt lat="61.213038163492" lon="14.550708921915">
        <ele>510</ele>
        <time>2015-02-05T15:56:57Z</time>
      </trkpt>
      <trkpt lat="61.213047886496" lon="14.550393594837">
        <ele>510.2</ele>
        <time>2015-02-05T15:57:01Z</time>
      </trkpt>
      <trkpt lat="61.213053334731" lon="14.550304411421">
        <ele>510.4</ele>
        <time>2015-02-05T15:57:02Z</time>
      </trkpt>
      <trkpt lat="61.213047048306" lon="14.550035939164">
        <ele>509.8</ele>
        <time>2015-02-05T15:57:05Z</time>
      </trkpt>
      <trkpt lat="61.213051239256" lon="14.549926974464">
        <ele>509.2</ele>
        <time>2015-02-05T15:57:06Z</time>
      </trkpt>
      <trkpt lat="61.213053334731" lon="14.549637882733">
        <ele>508.4</ele>
        <time>2015-02-05T15:57:09Z</time>
      </trkpt>
      <trkpt lat="61.213045707202" lon="14.549556997398">
        <ele>508.2</ele>
        <time>2015-02-05T15:57:10Z</time>
      </trkpt>
      <trkpt lat="61.213044449917" lon="14.549365135707">
        <ele>508.2</ele>
        <time>2015-02-05T15:57:12Z</time>
      </trkpt>
      <trkpt lat="61.213052831817" lon="14.549283496001">
        <ele>508.2</ele>
        <time>2015-02-05T15:57:13Z</time>
      </trkpt>
      <trkpt lat="61.213059369699" lon="14.549042516376">
        <ele>508.2</ele>
        <time>2015-02-05T15:57:16Z</time>
      </trkpt>
      <trkpt lat="61.213054340559" lon="14.54887202853">
        <ele>508.2</ele>
        <time>2015-02-05T15:57:18Z</time>
      </trkpt>
      <trkpt lat="61.213000444942" lon="14.548660050279">
        <ele>507.8</ele>
        <time>2015-02-05T15:57:22Z</time>
      </trkpt>
      <trkpt lat="61.212987117721" lon="14.548567095008">
        <ele>508</ele>
        <time>2015-02-05T15:57:24Z</time>
      </trkpt>
      <trkpt lat="61.21295786489" lon="14.548422004319">
        <ele>508.6</ele>
        <time>2015-02-05T15:57:26Z</time>
      </trkpt>
      <trkpt lat="61.212894833002" lon="14.548232154284">
        <ele>508.2</ele>
        <time>2015-02-05T15:57:30Z</time>
      </trkpt>
      <trkpt lat="61.212872788605" lon="14.548074490745">
        <ele>509.6</ele>
        <time>2015-02-05T15:57:35Z</time>
      </trkpt>
      <trkpt lat="61.212860048117" lon="14.547922275441">
        <ele>510.6</ele>
        <time>2015-02-05T15:57:38Z</time>
      </trkpt>
      <trkpt lat="61.212857617366" lon="14.547732676863">
        <ele>511</ele>
        <time>2015-02-05T15:57:41Z</time>
      </trkpt>
      <trkpt lat="61.212866585999" lon="14.547411147179">
        <ele>510.8</ele>
        <time>2015-02-05T15:57:45Z</time>
      </trkpt>
      <trkpt lat="61.212844122507" lon="14.547094311359">
        <ele>509.8</ele>
        <time>2015-02-05T15:57:50Z</time>
      </trkpt>
      <trkpt lat="61.212788299053" lon="14.546707654312">
        <ele>510.8</ele>
        <time>2015-02-05T15:57:55Z</time>
      </trkpt>
      <trkpt lat="61.212782515542" lon="14.546515289707">
        <ele>509.8</ele>
        <time>2015-02-05T15:57:58Z</time>
      </trkpt>
      <trkpt lat="61.212775055651" lon="14.546466674687">
        <ele>509.6</ele>
        <time>2015-02-05T15:57:59Z</time>
      </trkpt>
      <trkpt lat="61.212757369842" lon="14.546225359786">
        <ele>510</ele>
        <time>2015-02-05T15:58:03Z</time>
      </trkpt>
      <trkpt lat="61.212747395381" lon="14.546122178597">
        <ele>510.6</ele>
        <time>2015-02-05T15:58:05Z</time>
      </trkpt>
      <trkpt lat="61.212737840015" lon="14.545985721265">
        <ele>511</ele>
        <time>2015-02-05T15:58:07Z</time>
      </trkpt>
      <trkpt lat="61.212743623526" lon="14.545590682318">
        <ele>511</ele>
        <time>2015-02-05T15:58:11Z</time>
      </trkpt>
      <trkpt lat="61.212748065933" lon="14.545296896723">
        <ele>509.4</ele>
        <time>2015-02-05T15:58:13Z</time>
      </trkpt>
      <trkpt lat="61.212765751742" lon="14.545020629299">
        <ele>507.8</ele>
        <time>2015-02-05T15:58:15Z</time>
      </trkpt>
      <trkpt lat="61.212741528051" lon="14.544820050432">
        <ele>507.2</ele>
        <time>2015-02-05T15:58:17Z</time>
      </trkpt>
      <trkpt lat="61.212727278821" lon="14.544717372157">
        <ele>507.2</ele>
        <time>2015-02-05T15:58:18Z</time>
      </trkpt>
      <trkpt lat="61.212719902749" lon="14.544516877109">
        <ele>507.6</ele>
        <time>2015-02-05T15:58:20Z</time>
      </trkpt>
      <trkpt lat="61.212718561645" lon="14.544312945482">
        <ele>507.6</ele>
        <time>2015-02-05T15:58:22Z</time>
      </trkpt>
      <trkpt lat="61.212727781735" lon="14.544208674646">
        <ele>507.4</ele>
        <time>2015-02-05T15:58:23Z</time>
      </trkpt>
      <trkpt lat="61.212733481427" lon="14.543976831292">
        <ele>506.8</ele>
        <time>2015-02-05T15:58:25Z</time>
      </trkpt>
      <trkpt lat="61.212721076215" lon="14.543895023948">
        <ele>506.4</ele>
        <time>2015-02-05T15:58:26Z</time>
      </trkpt>
      <trkpt lat="61.212676652145" lon="14.543619846171">
        <ele>505.4</ele>
        <time>2015-02-05T15:58:29Z</time>
      </trkpt>
      <trkpt lat="61.212676987421" lon="14.543529992203">
        <ele>505</ele>
        <time>2015-02-05T15:58:30Z</time>
      </trkpt>
      <trkpt lat="61.212678496163" lon="14.543229165812">
        <ele>505.6</ele>
        <time>2015-02-05T15:58:34Z</time>
      </trkpt>
      <trkpt lat="61.212671287729" lon="14.54304576984">
        <ele>505.2</ele>
        <time>2015-02-05T15:58:36Z</time>
      </trkpt>
      <trkpt lat="61.212662151458" lon="14.5429653036">
        <ele>505.2</ele>
        <time>2015-02-05T15:58:37Z</time>
      </trkpt>
      <trkpt lat="61.212649578608" lon="14.542908139042">
        <ele>504.6</ele>
        <time>2015-02-05T15:58:38Z</time>
      </trkpt>
      <trkpt lat="61.212634407369" lon="14.542824152404">
        <ele>504.2</ele>
        <time>2015-02-05T15:58:39Z</time>
      </trkpt>
      <trkpt lat="61.212577410449" lon="14.542559116726">
        <ele>504.2</ele>
        <time>2015-02-05T15:58:42Z</time>
      </trkpt>
      <trkpt lat="61.212472888156" lon="14.542375720754">
        <ele>504</ele>
        <time>2015-02-05T15:58:45Z</time>
      </trkpt>
      <trkpt lat="61.212392002821" lon="14.542301038025">
        <ele>503.6</ele>
        <time>2015-02-05T15:58:47Z</time>
      </trkpt>
      <trkpt lat="61.212249929616" lon="14.542202885976">
        <ele>502.6</ele>
        <time>2015-02-05T15:58:50Z</time>
      </trkpt>
      <trkpt lat="61.21215320249" lon="14.542145050866">
        <ele>501.4</ele>
        <time>2015-02-05T15:58:52Z</time>
      </trkpt>
      <trkpt lat="61.211927226466" lon="14.54200054691">
        <ele>499.8</ele>
        <time>2015-02-05T15:58:56Z</time>
      </trkpt>
      <trkpt lat="61.211850112986" lon="14.541952267166">
        <ele>499.4</ele>
        <time>2015-02-05T15:58:57Z</time>
      </trkpt>
      <trkpt lat="61.211768138004" lon="14.541916308815">
        <ele>498.4</ele>
        <time>2015-02-05T15:58:58Z</time>
      </trkpt>
      <trkpt lat="61.211685073375" lon="14.541881943025">
        <ele>497</ele>
        <time>2015-02-05T15:58:59Z</time>
      </trkpt>
      <trkpt lat="61.211596141416" lon="14.54183542348">
        <ele>495.6</ele>
        <time>2015-02-05T15:59:00Z</time>
      </trkpt>
      <trkpt lat="61.211510478398" lon="14.54177758837">
        <ele>494.2</ele>
        <time>2015-02-05T15:59:01Z</time>
      </trkpt>
      <trkpt lat="61.211427749045" lon="14.541725704409">
        <ele>492.6</ele>
        <time>2015-02-05T15:59:02Z</time>
      </trkpt>
      <trkpt lat="61.21134099638" lon="14.541691673895">
        <ele>491.4</ele>
        <time>2015-02-05T15:59:03Z</time>
      </trkpt>
      <trkpt lat="61.211175453855" lon="14.541688321135">
        <ele>490</ele>
        <time>2015-02-05T15:59:05Z</time>
      </trkpt>
      <trkpt lat="61.211102363687" lon="14.541719334165">
        <ele>490</ele>
        <time>2015-02-05T15:59:06Z</time>
      </trkpt>
      <trkpt lat="61.210964816708" lon="14.541813714359">
        <ele>488.8</ele>
        <time>2015-02-05T15:59:08Z</time>
      </trkpt>
      <trkpt lat="61.210905808132" lon="14.541850846176">
        <ele>488</ele>
        <time>2015-02-05T15:59:09Z</time>
      </trkpt>
      <trkpt lat="61.210845374633" lon="14.541853528384">
        <ele>487.4</ele>
        <time>2015-02-05T15:59:10Z</time>
      </trkpt>
      <trkpt lat="61.210713359708" lon="14.54178261751">
        <ele>485</ele>
        <time>2015-02-05T15:59:12Z</time>
      </trkpt>
      <trkpt lat="61.210659044996" lon="14.541784126252">
        <ele>484.6</ele>
        <time>2015-02-05T15:59:13Z</time>
      </trkpt>
      <trkpt lat="61.210512110289" lon="14.541750850109">
        <ele>482.6</ele>
        <time>2015-02-05T15:59:15Z</time>
      </trkpt>
      <trkpt lat="61.210442959614" lon="14.541725955866">
        <ele>481.6</ele>
        <time>2015-02-05T15:59:16Z</time>
      </trkpt>
      <trkpt lat="61.210375988233" lon="14.541691338619">
        <ele>481</ele>
        <time>2015-02-05T15:59:17Z</time>
      </trkpt>
      <trkpt lat="61.210310777051" lon="14.541654039164">
        <ele>479.8</ele>
        <time>2015-02-05T15:59:18Z</time>
      </trkpt>
      <trkpt lat="61.210177504841" lon="14.541566699766">
        <ele>478.4</ele>
        <time>2015-02-05T15:59:20Z</time>
      </trkpt>
      <trkpt lat="61.209954546301" lon="14.541454549944">
        <ele>477</ele>
        <time>2015-02-05T15:59:23Z</time>
      </trkpt>
      <trkpt lat="61.209812556915" lon="14.541354721515">
        <ele>475.8</ele>
        <time>2015-02-05T15:59:25Z</time>
      </trkpt>
      <trkpt lat="61.209742819507" lon="14.541329575815">
        <ele>475.2</ele>
        <time>2015-02-05T15:59:26Z</time>
      </trkpt>
      <trkpt lat="61.209677356868" lon="14.541302586097">
        <ele>474.8</ele>
        <time>2015-02-05T15:59:27Z</time>
      </trkpt>
      <trkpt lat="61.209613822066" lon="14.541281715166">
        <ele>474.6</ele>
        <time>2015-02-05T15:59:28Z</time>
      </trkpt>
      <trkpt lat="61.209547353599" lon="14.54127383618">
        <ele>474.4</ele>
        <time>2015-02-05T15:59:29Z</time>
      </trkpt>
      <trkpt lat="61.209424558764" lon="14.541263861719">
        <ele>473.8</ele>
        <time>2015-02-05T15:59:31Z</time>
      </trkpt>
      <trkpt lat="61.209362700342" lon="14.541263442624">
        <ele>473.4</ele>
        <time>2015-02-05T15:59:32Z</time>
      </trkpt>
      <trkpt lat="61.209309056182" lon="14.54127635075">
        <ele>473.4</ele>
        <time>2015-02-05T15:59:33Z</time>
      </trkpt>
      <trkpt lat="61.20914745315" lon="14.541231004671">
        <ele>473.2</ele>
        <time>2015-02-05T15:59:36Z</time>
      </trkpt>
      <trkpt lat="61.209051815671" lon="14.541220275839">
        <ele>472.8</ele>
        <time>2015-02-05T15:59:38Z</time>
      </trkpt>
      <trkpt lat="61.209010073809" lon="14.54121767745">
        <ele>472.6</ele>
        <time>2015-02-05T15:59:39Z</time>
      </trkpt>
      <trkpt lat="61.20894461117" lon="14.541222203676">
        <ele>472.4</ele>
        <time>2015-02-05T15:59:40Z</time>
      </trkpt>
      <trkpt lat="61.208891721381" lon="14.541239973304">
        <ele>472</ele>
        <time>2015-02-05T15:59:41Z</time>
      </trkpt>
      <trkpt lat="61.208789881296" lon="14.541229076834">
        <ele>471.4</ele>
        <time>2015-02-05T15:59:43Z</time>
      </trkpt>
      <trkpt lat="61.208741601552" lon="14.54122354478">
        <ele>471.4</ele>
        <time>2015-02-05T15:59:44Z</time>
      </trkpt>
      <trkpt lat="61.20870153607" lon="14.541235027983">
        <ele>471.4</ele>
        <time>2015-02-05T15:59:45Z</time>
      </trkpt>
      <trkpt lat="61.208652753412" lon="14.541315410404">
        <ele>471.4</ele>
        <time>2015-02-05T15:59:47Z</time>
      </trkpt>
      <trkpt lat="61.208621991839" lon="14.541404677639">
        <ele>471.4</ele>
        <time>2015-02-05T15:59:49Z</time>
      </trkpt>
      <trkpt lat="61.208600450356" lon="14.541450861908">
        <ele>471.4</ele>
        <time>2015-02-05T15:59:50Z</time>
      </trkpt>
      <trkpt lat="61.208581507262" lon="14.541509702846">
        <ele>471.4</ele>
        <time>2015-02-05T15:59:51Z</time>
      </trkpt>
      <trkpt lat="61.208458041875" lon="14.541838692421">
        <ele>472.4</ele>
        <time>2015-02-05T15:59:57Z</time>
      </trkpt>
      <trkpt lat="61.208432141804" lon="14.54187984755">
        <ele>472.6</ele>
        <time>2015-02-05T15:59:58Z</time>
      </trkpt>
      <trkpt lat="61.208341198189" lon="14.54204916193">
        <ele>473.2</ele>
        <time>2015-02-05T16:00:01Z</time>
      </trkpt>
      <trkpt lat="61.208263497976" lon="14.542198443569">
        <ele>473.6</ele>
        <time>2015-02-05T16:00:04Z</time>
      </trkpt>
      <trkpt lat="61.208167776678" lon="14.542416792064">
        <ele>474.4</ele>
        <time>2015-02-05T16:00:08Z</time>
      </trkpt>
      <trkpt lat="61.20815252162" lon="14.542468005473">
        <ele>474.6</ele>
        <time>2015-02-05T16:00:09Z</time>
      </trkpt>
      <trkpt lat="61.208139362037" lon="14.542511675172">
        <ele>474.6</ele>
        <time>2015-02-05T16:00:10Z</time>
      </trkpt>
      <trkpt lat="61.208099380374" lon="14.542641678441">
        <ele>474.8</ele>
        <time>2015-02-05T16:00:12Z</time>
      </trkpt>
      <trkpt lat="61.208038611599" lon="14.542896991115">
        <ele>475.6</ele>
        <time>2015-02-05T16:00:16Z</time>
      </trkpt>
      <trkpt lat="61.20799075095" lon="14.543085751503">
        <ele>475.6</ele>
        <time>2015-02-05T16:00:19Z</time>
      </trkpt>
      <trkpt lat="61.207974573883" lon="14.54315138178">
        <ele>475.8</ele>
        <time>2015-02-05T16:00:20Z</time>
      </trkpt>
      <trkpt lat="61.207926797053" lon="14.543303513265">
        <ele>476.4</ele>
        <time>2015-02-05T16:00:24Z</time>
      </trkpt>
      <trkpt lat="61.207905590846" lon="14.543361096918">
        <ele>476.8</ele>
        <time>2015-02-05T16:00:26Z</time>
      </trkpt>
      <trkpt lat="61.207902657181" lon="14.54336428204">
        <ele>477</ele>
        <time>2015-02-05T16:00:27Z</time>
      </trkpt>
    </trkseg>
  </trk>
</gpx>